<?xml version="1.0" encoding="UTF-8" standalone="no" ?>
<gpx xmlns="http://www.topografix.com/GPX/1/1" xmlns:xsi="http://www.w3.org/2001/XMLSchema-instance" xsi:schemaLocation="http://www.topografix.com/GPX/1/1 http://www.topografix.com/GPX/1/1/gpx.xsd" version="1.1" creator="VisuGPX - https://www.visugpx.com">
  <metadata>
    <name>Les lacs des Bouillouses.</name>
    <desc><![CDATA[Au départ du lac des Bouillouses.]]></desc>
  </metadata>
  <trk>
    <name><![CDATA[23-JUIL-15 16:34:50]]></name>
    <trkseg>
      <trkpt lat="42.55928" lon="2.00337">
        <ele>1941.04</ele>
        <time>2015-07-23T08:35:17Z</time>
      </trkpt>
      <trkpt lat="42.55929" lon="2.00337">
        <ele>1941.04</ele>
        <time>2015-07-23T08:35:18Z</time>
      </trkpt>
      <trkpt lat="42.55942" lon="2.00347">
        <ele>1941.52</ele>
        <time>2015-07-23T08:35:31Z</time>
      </trkpt>
      <trkpt lat="42.55945" lon="2.0035">
        <ele>1942.48</ele>
        <time>2015-07-23T08:35:34Z</time>
      </trkpt>
      <trkpt lat="42.55949" lon="2.00356">
        <ele>1942.48</ele>
        <time>2015-07-23T08:35:39Z</time>
      </trkpt>
      <trkpt lat="42.55956" lon="2.00361">
        <ele>1942.96</ele>
        <time>2015-07-23T08:35:46Z</time>
      </trkpt>
      <trkpt lat="42.55972" lon="2.00372">
        <ele>1943.92</ele>
        <time>2015-07-23T08:36:01Z</time>
      </trkpt>
      <trkpt lat="42.55988" lon="2.00376">
        <ele>1944.88</ele>
        <time>2015-07-23T08:36:16Z</time>
      </trkpt>
      <trkpt lat="42.55989" lon="2.00376">
        <ele>1945.36</ele>
        <time>2015-07-23T08:36:17Z</time>
      </trkpt>
      <trkpt lat="42.56001" lon="2.00368">
        <ele>1946.81</ele>
        <time>2015-07-23T08:36:32Z</time>
      </trkpt>
      <trkpt lat="42.56006" lon="2.00356">
        <ele>1951.61</ele>
        <time>2015-07-23T08:36:43Z</time>
      </trkpt>
      <trkpt lat="42.56008" lon="2.00356">
        <ele>1955.46</ele>
        <time>2015-07-23T08:36:45Z</time>
      </trkpt>
      <trkpt lat="42.56008" lon="2.00356">
        <ele>1959.78</ele>
        <time>2015-07-23T08:36:47Z</time>
      </trkpt>
      <trkpt lat="42.56009" lon="2.00355">
        <ele>1963.15</ele>
        <time>2015-07-23T08:36:49Z</time>
      </trkpt>
      <trkpt lat="42.56008" lon="2.00357">
        <ele>1967.48</ele>
        <time>2015-07-23T08:36:51Z</time>
      </trkpt>
      <trkpt lat="42.56009" lon="2.00356">
        <ele>1970.36</ele>
        <time>2015-07-23T08:36:53Z</time>
      </trkpt>
      <trkpt lat="42.56009" lon="2.00355">
        <ele>1973.72</ele>
        <time>2015-07-23T08:36:55Z</time>
      </trkpt>
      <trkpt lat="42.56008" lon="2.00353">
        <ele>1977.57</ele>
        <time>2015-07-23T08:36:58Z</time>
      </trkpt>
      <trkpt lat="42.56008" lon="2.00353">
        <ele>1979.01</ele>
        <time>2015-07-23T08:37:00Z</time>
      </trkpt>
      <trkpt lat="42.56009" lon="2.00352">
        <ele>1982.38</ele>
        <time>2015-07-23T08:37:01Z</time>
      </trkpt>
      <trkpt lat="42.56009" lon="2.0035">
        <ele>1985.74</ele>
        <time>2015-07-23T08:37:04Z</time>
      </trkpt>
      <trkpt lat="42.56011" lon="2.00348">
        <ele>1989.1</ele>
        <time>2015-07-23T08:37:08Z</time>
      </trkpt>
      <trkpt lat="42.56013" lon="2.00344">
        <ele>1992.47</ele>
        <time>2015-07-23T08:37:12Z</time>
      </trkpt>
      <trkpt lat="42.56016" lon="2.00343">
        <ele>1995.83</ele>
        <time>2015-07-23T08:37:16Z</time>
      </trkpt>
      <trkpt lat="42.5602" lon="2.00341">
        <ele>1999.2</ele>
        <time>2015-07-23T08:37:21Z</time>
      </trkpt>
      <trkpt lat="42.56022" lon="2.0034">
        <ele>2001.12</ele>
        <time>2015-07-23T08:37:24Z</time>
      </trkpt>
      <trkpt lat="42.56029" lon="2.00337">
        <ele>2004.97</ele>
        <time>2015-07-23T08:37:31Z</time>
      </trkpt>
      <trkpt lat="42.56034" lon="2.00334">
        <ele>2008.33</ele>
        <time>2015-07-23T08:37:37Z</time>
      </trkpt>
      <trkpt lat="42.56035" lon="2.00328">
        <ele>2011.7</ele>
        <time>2015-07-23T08:37:43Z</time>
      </trkpt>
      <trkpt lat="42.56035" lon="2.00325">
        <ele>2013.14</ele>
        <time>2015-07-23T08:37:46Z</time>
      </trkpt>
      <trkpt lat="42.56034" lon="2.00322">
        <ele>2014.58</ele>
        <time>2015-07-23T08:37:49Z</time>
      </trkpt>
      <trkpt lat="42.56032" lon="2.00309">
        <ele>2017.94</ele>
        <time>2015-07-23T08:38:00Z</time>
      </trkpt>
      <trkpt lat="42.56031" lon="2.00303">
        <ele>2021.31</ele>
        <time>2015-07-23T08:38:09Z</time>
      </trkpt>
      <trkpt lat="42.56031" lon="2.00297">
        <ele>2021.79</ele>
        <time>2015-07-23T08:38:21Z</time>
      </trkpt>
      <trkpt lat="42.56031" lon="2.00299">
        <ele>2023.23</ele>
        <time>2015-07-23T08:38:32Z</time>
      </trkpt>
      <trkpt lat="42.56032" lon="2.00298">
        <ele>2024.19</ele>
        <time>2015-07-23T08:38:37Z</time>
      </trkpt>
      <trkpt lat="42.5603" lon="2.00276">
        <ele>2024.67</ele>
        <time>2015-07-23T08:38:50Z</time>
      </trkpt>
      <trkpt lat="42.56031" lon="2.00252">
        <ele>2024.67</ele>
        <time>2015-07-23T08:39:07Z</time>
      </trkpt>
      <trkpt lat="42.56028" lon="2.00229">
        <ele>2024.67</ele>
        <time>2015-07-23T08:39:22Z</time>
      </trkpt>
      <trkpt lat="42.56025" lon="2.00207">
        <ele>2024.19</ele>
        <time>2015-07-23T08:39:37Z</time>
      </trkpt>
      <trkpt lat="42.56025" lon="2.00205">
        <ele>2024.67</ele>
        <time>2015-07-23T08:39:38Z</time>
      </trkpt>
      <trkpt lat="42.56024" lon="2.00202">
        <ele>2024.19</ele>
        <time>2015-07-23T08:39:41Z</time>
      </trkpt>
      <trkpt lat="42.56023" lon="2.00197">
        <ele>2024.67</ele>
        <time>2015-07-23T08:39:55Z</time>
      </trkpt>
      <trkpt lat="42.56022" lon="2.00195">
        <ele>2024.67</ele>
        <time>2015-07-23T08:40:07Z</time>
      </trkpt>
      <trkpt lat="42.56019" lon="2.00179">
        <ele>2024.67</ele>
        <time>2015-07-23T08:40:20Z</time>
      </trkpt>
      <trkpt lat="42.56018" lon="2.00174">
        <ele>2024.19</ele>
        <time>2015-07-23T08:40:24Z</time>
      </trkpt>
      <trkpt lat="42.56017" lon="2.00164">
        <ele>2024.19</ele>
        <time>2015-07-23T08:40:37Z</time>
      </trkpt>
      <trkpt lat="42.56016" lon="2.00161">
        <ele>2023.71</ele>
        <time>2015-07-23T08:40:49Z</time>
      </trkpt>
      <trkpt lat="42.56017" lon="2.00152">
        <ele>2024.67</ele>
        <time>2015-07-23T08:41:03Z</time>
      </trkpt>
      <trkpt lat="42.56016" lon="2.00151">
        <ele>2024.19</ele>
        <time>2015-07-23T08:41:19Z</time>
      </trkpt>
      <trkpt lat="42.56012" lon="2.00132">
        <ele>2024.67</ele>
        <time>2015-07-23T08:41:32Z</time>
      </trkpt>
      <trkpt lat="42.56011" lon="2.00124">
        <ele>2024.67</ele>
        <time>2015-07-23T08:41:38Z</time>
      </trkpt>
      <trkpt lat="42.56008" lon="2.00098">
        <ele>2024.19</ele>
        <time>2015-07-23T08:41:54Z</time>
      </trkpt>
      <trkpt lat="42.56004" lon="2.00087">
        <ele>2024.19</ele>
        <time>2015-07-23T08:42:01Z</time>
      </trkpt>
      <trkpt lat="42.56001" lon="2.00064">
        <ele>2024.19</ele>
        <time>2015-07-23T08:42:16Z</time>
      </trkpt>
      <trkpt lat="42.55996" lon="2.00042">
        <ele>2024.19</ele>
        <time>2015-07-23T08:42:30Z</time>
      </trkpt>
      <trkpt lat="42.55993" lon="2.00021">
        <ele>2024.19</ele>
        <time>2015-07-23T08:42:43Z</time>
      </trkpt>
      <trkpt lat="42.55993" lon="2.00013">
        <ele>2024.19</ele>
        <time>2015-07-23T08:42:47Z</time>
      </trkpt>
      <trkpt lat="42.55989" lon="1.9999">
        <ele>2023.71</ele>
        <time>2015-07-23T08:43:02Z</time>
      </trkpt>
      <trkpt lat="42.55989" lon="1.9999">
        <ele>2023.71</ele>
        <time>2015-07-23T08:43:15Z</time>
      </trkpt>
      <trkpt lat="42.5599" lon="1.9999">
        <ele>2024.19</ele>
        <time>2015-07-23T08:43:34Z</time>
      </trkpt>
      <trkpt lat="42.55987" lon="1.99978">
        <ele>2023.71</ele>
        <time>2015-07-23T08:43:46Z</time>
      </trkpt>
      <trkpt lat="42.55984" lon="1.99963">
        <ele>2023.71</ele>
        <time>2015-07-23T08:44:00Z</time>
      </trkpt>
      <trkpt lat="42.5598" lon="1.99942">
        <ele>2023.71</ele>
        <time>2015-07-23T08:44:15Z</time>
      </trkpt>
      <trkpt lat="42.55977" lon="1.9992">
        <ele>2023.71</ele>
        <time>2015-07-23T08:44:30Z</time>
      </trkpt>
      <trkpt lat="42.55976" lon="1.99912">
        <ele>2023.71</ele>
        <time>2015-07-23T08:44:36Z</time>
      </trkpt>
      <trkpt lat="42.55974" lon="1.99905">
        <ele>2023.23</ele>
        <time>2015-07-23T08:44:41Z</time>
      </trkpt>
      <trkpt lat="42.55972" lon="1.9989">
        <ele>2024.19</ele>
        <time>2015-07-23T08:44:53Z</time>
      </trkpt>
      <trkpt lat="42.55971" lon="1.99879">
        <ele>2024.67</ele>
        <time>2015-07-23T08:45:02Z</time>
      </trkpt>
      <trkpt lat="42.55969" lon="1.99876">
        <ele>2025.15</ele>
        <time>2015-07-23T08:45:05Z</time>
      </trkpt>
      <trkpt lat="42.55969" lon="1.99873">
        <ele>2025.15</ele>
        <time>2015-07-23T08:45:07Z</time>
      </trkpt>
      <trkpt lat="42.5597" lon="1.99867">
        <ele>2025.15</ele>
        <time>2015-07-23T08:45:11Z</time>
      </trkpt>
      <trkpt lat="42.55983" lon="1.99859">
        <ele>2025.15</ele>
        <time>2015-07-23T08:45:25Z</time>
      </trkpt>
      <trkpt lat="42.55994" lon="1.99852">
        <ele>2025.15</ele>
        <time>2015-07-23T08:45:40Z</time>
      </trkpt>
      <trkpt lat="42.56004" lon="1.99843">
        <ele>2024.67</ele>
        <time>2015-07-23T08:45:55Z</time>
      </trkpt>
      <trkpt lat="42.56012" lon="1.99834">
        <ele>2024.19</ele>
        <time>2015-07-23T08:46:07Z</time>
      </trkpt>
      <trkpt lat="42.56022" lon="1.99816">
        <ele>2024.19</ele>
        <time>2015-07-23T08:46:22Z</time>
      </trkpt>
      <trkpt lat="42.56024" lon="1.99812">
        <ele>2024.19</ele>
        <time>2015-07-23T08:46:26Z</time>
      </trkpt>
      <trkpt lat="42.56026" lon="1.99811">
        <ele>2024.19</ele>
        <time>2015-07-23T08:46:28Z</time>
      </trkpt>
      <trkpt lat="42.56028" lon="1.99811">
        <ele>2026.12</ele>
        <time>2015-07-23T08:46:30Z</time>
      </trkpt>
      <trkpt lat="42.56029" lon="1.99811">
        <ele>2022.75</ele>
        <time>2015-07-23T08:46:32Z</time>
      </trkpt>
      <trkpt lat="42.5603" lon="1.9981">
        <ele>2024.67</ele>
        <time>2015-07-23T08:46:33Z</time>
      </trkpt>
      <trkpt lat="42.56031" lon="1.99809">
        <ele>2024.67</ele>
        <time>2015-07-23T08:46:43Z</time>
      </trkpt>
      <trkpt lat="42.56031" lon="1.99807">
        <ele>2024.67</ele>
        <time>2015-07-23T08:47:04Z</time>
      </trkpt>
      <trkpt lat="42.56033" lon="1.99804">
        <ele>2025.15</ele>
        <time>2015-07-23T08:47:41Z</time>
      </trkpt>
      <trkpt lat="42.56035" lon="1.99801">
        <ele>2025.64</ele>
        <time>2015-07-23T08:47:44Z</time>
      </trkpt>
      <trkpt lat="42.56041" lon="1.99798">
        <ele>2025.15</ele>
        <time>2015-07-23T08:47:56Z</time>
      </trkpt>
      <trkpt lat="42.56042" lon="1.99798">
        <ele>2025.15</ele>
        <time>2015-07-23T08:48:30Z</time>
      </trkpt>
      <trkpt lat="42.56042" lon="1.99797">
        <ele>2025.64</ele>
        <time>2015-07-23T08:48:56Z</time>
      </trkpt>
      <trkpt lat="42.56041" lon="1.99798">
        <ele>2024.67</ele>
        <time>2015-07-23T08:49:13Z</time>
      </trkpt>
      <trkpt lat="42.56041" lon="1.99798">
        <ele>2025.15</ele>
        <time>2015-07-23T08:49:35Z</time>
      </trkpt>
      <trkpt lat="42.56041" lon="1.99798">
        <ele>2025.15</ele>
        <time>2015-07-23T08:49:57Z</time>
      </trkpt>
      <trkpt lat="42.56041" lon="1.99798">
        <ele>2025.15</ele>
        <time>2015-07-23T08:50:21Z</time>
      </trkpt>
      <trkpt lat="42.56041" lon="1.99798">
        <ele>2025.15</ele>
        <time>2015-07-23T08:50:49Z</time>
      </trkpt>
      <trkpt lat="42.56041" lon="1.99797">
        <ele>2025.15</ele>
        <time>2015-07-23T08:51:05Z</time>
      </trkpt>
      <trkpt lat="42.56038" lon="1.99788">
        <ele>2026.6</ele>
        <time>2015-07-23T08:51:14Z</time>
      </trkpt>
      <trkpt lat="42.56039" lon="1.99782">
        <ele>2026.6</ele>
        <time>2015-07-23T08:51:19Z</time>
      </trkpt>
      <trkpt lat="42.5604" lon="1.99779">
        <ele>2027.08</ele>
        <time>2015-07-23T08:51:21Z</time>
      </trkpt>
      <trkpt lat="42.56039" lon="1.99766">
        <ele>2028.04</ele>
        <time>2015-07-23T08:51:31Z</time>
      </trkpt>
      <trkpt lat="42.56037" lon="1.99762">
        <ele>2028.04</ele>
        <time>2015-07-23T08:51:34Z</time>
      </trkpt>
      <trkpt lat="42.56026" lon="1.99746">
        <ele>2029.96</ele>
        <time>2015-07-23T08:51:47Z</time>
      </trkpt>
      <trkpt lat="42.56019" lon="1.99742">
        <ele>2029.96</ele>
        <time>2015-07-23T08:51:53Z</time>
      </trkpt>
      <trkpt lat="42.56017" lon="1.9974">
        <ele>2029.96</ele>
        <time>2015-07-23T08:51:55Z</time>
      </trkpt>
      <trkpt lat="42.56006" lon="1.99738">
        <ele>2030.92</ele>
        <time>2015-07-23T08:52:06Z</time>
      </trkpt>
      <trkpt lat="42.5599" lon="1.99733">
        <ele>2031.4</ele>
        <time>2015-07-23T08:52:18Z</time>
      </trkpt>
      <trkpt lat="42.55989" lon="1.99732">
        <ele>2031.4</ele>
        <time>2015-07-23T08:52:19Z</time>
      </trkpt>
      <trkpt lat="42.55984" lon="1.99728">
        <ele>2031.88</ele>
        <time>2015-07-23T08:52:24Z</time>
      </trkpt>
      <trkpt lat="42.55983" lon="1.99723">
        <ele>2032.36</ele>
        <time>2015-07-23T08:52:28Z</time>
      </trkpt>
      <trkpt lat="42.5598" lon="1.99715">
        <ele>2032.84</ele>
        <time>2015-07-23T08:52:34Z</time>
      </trkpt>
      <trkpt lat="42.55973" lon="1.99692">
        <ele>2032.84</ele>
        <time>2015-07-23T08:52:49Z</time>
      </trkpt>
      <trkpt lat="42.55976" lon="1.99667">
        <ele>2033.33</ele>
        <time>2015-07-23T08:53:05Z</time>
      </trkpt>
      <trkpt lat="42.55981" lon="1.9966">
        <ele>2033.33</ele>
        <time>2015-07-23T08:53:10Z</time>
      </trkpt>
      <trkpt lat="42.55983" lon="1.99652">
        <ele>2033.81</ele>
        <time>2015-07-23T08:53:15Z</time>
      </trkpt>
      <trkpt lat="42.5599" lon="1.99635">
        <ele>2034.77</ele>
        <time>2015-07-23T08:53:28Z</time>
      </trkpt>
      <trkpt lat="42.55994" lon="1.99627">
        <ele>2035.25</ele>
        <time>2015-07-23T08:53:43Z</time>
      </trkpt>
      <trkpt lat="42.55995" lon="1.99626">
        <ele>2035.25</ele>
        <time>2015-07-23T08:54:01Z</time>
      </trkpt>
      <trkpt lat="42.55995" lon="1.99625">
        <ele>2035.25</ele>
        <time>2015-07-23T08:54:05Z</time>
      </trkpt>
      <trkpt lat="42.55996" lon="1.99611">
        <ele>2036.21</ele>
        <time>2015-07-23T08:54:18Z</time>
      </trkpt>
      <trkpt lat="42.55998" lon="1.99599">
        <ele>2037.65</ele>
        <time>2015-07-23T08:54:30Z</time>
      </trkpt>
      <trkpt lat="42.56002" lon="1.99592">
        <ele>2039.57</ele>
        <time>2015-07-23T08:54:40Z</time>
      </trkpt>
      <trkpt lat="42.56003" lon="1.99584">
        <ele>2041.02</ele>
        <time>2015-07-23T08:54:51Z</time>
      </trkpt>
      <trkpt lat="42.56004" lon="1.99573">
        <ele>2041.02</ele>
        <time>2015-07-23T08:55:00Z</time>
      </trkpt>
      <trkpt lat="42.56007" lon="1.99565">
        <ele>2041.02</ele>
        <time>2015-07-23T08:55:04Z</time>
      </trkpt>
      <trkpt lat="42.5601" lon="1.99552">
        <ele>2041.98</ele>
        <time>2015-07-23T08:55:15Z</time>
      </trkpt>
      <trkpt lat="42.56015" lon="1.99541">
        <ele>2042.94</ele>
        <time>2015-07-23T08:55:27Z</time>
      </trkpt>
      <trkpt lat="42.56017" lon="1.99532">
        <ele>2044.86</ele>
        <time>2015-07-23T08:55:43Z</time>
      </trkpt>
      <trkpt lat="42.56017" lon="1.99528">
        <ele>2045.82</ele>
        <time>2015-07-23T08:55:58Z</time>
      </trkpt>
      <trkpt lat="42.5602" lon="1.99521">
        <ele>2047.26</ele>
        <time>2015-07-23T08:56:14Z</time>
      </trkpt>
      <trkpt lat="42.56025" lon="1.99507">
        <ele>2049.67</ele>
        <time>2015-07-23T08:56:26Z</time>
      </trkpt>
      <trkpt lat="42.56027" lon="1.99503">
        <ele>2050.15</ele>
        <time>2015-07-23T08:56:30Z</time>
      </trkpt>
      <trkpt lat="42.5603" lon="1.99492">
        <ele>2051.11</ele>
        <time>2015-07-23T08:56:40Z</time>
      </trkpt>
      <trkpt lat="42.56034" lon="1.99479">
        <ele>2053.51</ele>
        <time>2015-07-23T08:56:53Z</time>
      </trkpt>
      <trkpt lat="42.56033" lon="1.99471">
        <ele>2053.99</ele>
        <time>2015-07-23T08:57:08Z</time>
      </trkpt>
      <trkpt lat="42.56032" lon="1.99468">
        <ele>2053.99</ele>
        <time>2015-07-23T08:57:25Z</time>
      </trkpt>
      <trkpt lat="42.56032" lon="1.99461">
        <ele>2054.96</ele>
        <time>2015-07-23T08:57:37Z</time>
      </trkpt>
      <trkpt lat="42.5603" lon="1.99456">
        <ele>2055.92</ele>
        <time>2015-07-23T08:57:52Z</time>
      </trkpt>
      <trkpt lat="42.56031" lon="1.99453">
        <ele>2056.88</ele>
        <time>2015-07-23T08:58:11Z</time>
      </trkpt>
      <trkpt lat="42.56033" lon="1.9945">
        <ele>2057.84</ele>
        <time>2015-07-23T08:58:20Z</time>
      </trkpt>
      <trkpt lat="42.56033" lon="1.99448">
        <ele>2058.32</ele>
        <time>2015-07-23T08:58:25Z</time>
      </trkpt>
      <trkpt lat="42.56033" lon="1.99437">
        <ele>2060.72</ele>
        <time>2015-07-23T08:58:36Z</time>
      </trkpt>
      <trkpt lat="42.56031" lon="1.9943">
        <ele>2061.2</ele>
        <time>2015-07-23T08:58:46Z</time>
      </trkpt>
      <trkpt lat="42.56029" lon="1.99426">
        <ele>2063.13</ele>
        <time>2015-07-23T08:58:51Z</time>
      </trkpt>
      <trkpt lat="42.5602" lon="1.99416">
        <ele>2064.57</ele>
        <time>2015-07-23T08:59:04Z</time>
      </trkpt>
      <trkpt lat="42.56019" lon="1.99409">
        <ele>2066.97</ele>
        <time>2015-07-23T08:59:17Z</time>
      </trkpt>
      <trkpt lat="42.56016" lon="1.99404">
        <ele>2067.93</ele>
        <time>2015-07-23T08:59:26Z</time>
      </trkpt>
      <trkpt lat="42.56015" lon="1.99402">
        <ele>2068.89</ele>
        <time>2015-07-23T08:59:39Z</time>
      </trkpt>
      <trkpt lat="42.56014" lon="1.994">
        <ele>2069.86</ele>
        <time>2015-07-23T08:59:52Z</time>
      </trkpt>
      <trkpt lat="42.56014" lon="1.99393">
        <ele>2072.26</ele>
        <time>2015-07-23T09:00:06Z</time>
      </trkpt>
      <trkpt lat="42.56015" lon="1.99386">
        <ele>2073.22</ele>
        <time>2015-07-23T09:00:19Z</time>
      </trkpt>
      <trkpt lat="42.56012" lon="1.99374">
        <ele>2073.22</ele>
        <time>2015-07-23T09:00:33Z</time>
      </trkpt>
      <trkpt lat="42.56012" lon="1.99363">
        <ele>2073.22</ele>
        <time>2015-07-23T09:00:47Z</time>
      </trkpt>
      <trkpt lat="42.56009" lon="1.99355">
        <ele>2072.26</ele>
        <time>2015-07-23T09:00:55Z</time>
      </trkpt>
      <trkpt lat="42.5601" lon="1.99346">
        <ele>2072.26</ele>
        <time>2015-07-23T09:01:06Z</time>
      </trkpt>
      <trkpt lat="42.56006" lon="1.99331">
        <ele>2072.26</ele>
        <time>2015-07-23T09:01:17Z</time>
      </trkpt>
      <trkpt lat="42.56005" lon="1.99325">
        <ele>2072.26</ele>
        <time>2015-07-23T09:01:28Z</time>
      </trkpt>
      <trkpt lat="42.56003" lon="1.99306">
        <ele>2072.74</ele>
        <time>2015-07-23T09:01:40Z</time>
      </trkpt>
      <trkpt lat="42.55999" lon="1.99283">
        <ele>2071.78</ele>
        <time>2015-07-23T09:01:53Z</time>
      </trkpt>
      <trkpt lat="42.55999" lon="1.99273">
        <ele>2071.78</ele>
        <time>2015-07-23T09:01:59Z</time>
      </trkpt>
      <trkpt lat="42.55998" lon="1.99265">
        <ele>2072.26</ele>
        <time>2015-07-23T09:02:07Z</time>
      </trkpt>
      <trkpt lat="42.55995" lon="1.99258">
        <ele>2073.22</ele>
        <time>2015-07-23T09:02:15Z</time>
      </trkpt>
      <trkpt lat="42.55995" lon="1.99256">
        <ele>2073.22</ele>
        <time>2015-07-23T09:02:19Z</time>
      </trkpt>
      <trkpt lat="42.55995" lon="1.9925">
        <ele>2072.74</ele>
        <time>2015-07-23T09:02:24Z</time>
      </trkpt>
      <trkpt lat="42.55997" lon="1.99238">
        <ele>2073.22</ele>
        <time>2015-07-23T09:02:35Z</time>
      </trkpt>
      <trkpt lat="42.56003" lon="1.99228">
        <ele>2073.7</ele>
        <time>2015-07-23T09:02:47Z</time>
      </trkpt>
      <trkpt lat="42.56003" lon="1.99217">
        <ele>2073.7</ele>
        <time>2015-07-23T09:02:59Z</time>
      </trkpt>
      <trkpt lat="42.56007" lon="1.99206">
        <ele>2073.7</ele>
        <time>2015-07-23T09:03:11Z</time>
      </trkpt>
      <trkpt lat="42.56007" lon="1.99191">
        <ele>2074.18</ele>
        <time>2015-07-23T09:03:21Z</time>
      </trkpt>
      <trkpt lat="42.56007" lon="1.99189">
        <ele>2073.7</ele>
        <time>2015-07-23T09:03:22Z</time>
      </trkpt>
      <trkpt lat="42.56009" lon="1.99183">
        <ele>2074.18</ele>
        <time>2015-07-23T09:03:28Z</time>
      </trkpt>
      <trkpt lat="42.56013" lon="1.99161">
        <ele>2075.62</ele>
        <time>2015-07-23T09:03:43Z</time>
      </trkpt>
      <trkpt lat="42.56014" lon="1.99156">
        <ele>2076.59</ele>
        <time>2015-07-23T09:03:49Z</time>
      </trkpt>
      <trkpt lat="42.56017" lon="1.99152">
        <ele>2077.07</ele>
        <time>2015-07-23T09:03:53Z</time>
      </trkpt>
      <trkpt lat="42.56022" lon="1.99135">
        <ele>2079.47</ele>
        <time>2015-07-23T09:04:08Z</time>
      </trkpt>
      <trkpt lat="42.56022" lon="1.9913">
        <ele>2079.47</ele>
        <time>2015-07-23T09:04:11Z</time>
      </trkpt>
      <trkpt lat="42.56022" lon="1.99127">
        <ele>2080.43</ele>
        <time>2015-07-23T09:04:14Z</time>
      </trkpt>
      <trkpt lat="42.56025" lon="1.99118">
        <ele>2081.87</ele>
        <time>2015-07-23T09:04:21Z</time>
      </trkpt>
      <trkpt lat="42.56029" lon="1.99112">
        <ele>2083.31</ele>
        <time>2015-07-23T09:04:29Z</time>
      </trkpt>
      <trkpt lat="42.5603" lon="1.99103">
        <ele>2085.72</ele>
        <time>2015-07-23T09:04:43Z</time>
      </trkpt>
      <trkpt lat="42.56028" lon="1.9909">
        <ele>2086.2</ele>
        <time>2015-07-23T09:04:54Z</time>
      </trkpt>
      <trkpt lat="42.56028" lon="1.99083">
        <ele>2084.76</ele>
        <time>2015-07-23T09:05:04Z</time>
      </trkpt>
      <trkpt lat="42.5603" lon="1.99079">
        <ele>2084.76</ele>
        <time>2015-07-23T09:05:14Z</time>
      </trkpt>
      <trkpt lat="42.5603" lon="1.99072">
        <ele>2085.24</ele>
        <time>2015-07-23T09:05:22Z</time>
      </trkpt>
      <trkpt lat="42.56033" lon="1.99067">
        <ele>2085.24</ele>
        <time>2015-07-23T09:05:27Z</time>
      </trkpt>
      <trkpt lat="42.56042" lon="1.9906">
        <ele>2085.72</ele>
        <time>2015-07-23T09:05:38Z</time>
      </trkpt>
      <trkpt lat="42.5605" lon="1.99045">
        <ele>2086.2</ele>
        <time>2015-07-23T09:05:51Z</time>
      </trkpt>
      <trkpt lat="42.56057" lon="1.99036">
        <ele>2087.64</ele>
        <time>2015-07-23T09:06:04Z</time>
      </trkpt>
      <trkpt lat="42.56071" lon="1.99024">
        <ele>2088.12</ele>
        <time>2015-07-23T09:06:16Z</time>
      </trkpt>
      <trkpt lat="42.56075" lon="1.99019">
        <ele>2088.12</ele>
        <time>2015-07-23T09:06:22Z</time>
      </trkpt>
      <trkpt lat="42.5608" lon="1.99015">
        <ele>2088.6</ele>
        <time>2015-07-23T09:06:32Z</time>
      </trkpt>
      <trkpt lat="42.56089" lon="1.99002">
        <ele>2088.6</ele>
        <time>2015-07-23T09:06:45Z</time>
      </trkpt>
      <trkpt lat="42.56098" lon="1.98988">
        <ele>2089.08</ele>
        <time>2015-07-23T09:06:58Z</time>
      </trkpt>
      <trkpt lat="42.56102" lon="1.98976">
        <ele>2089.56</ele>
        <time>2015-07-23T09:07:06Z</time>
      </trkpt>
      <trkpt lat="42.56107" lon="1.98969">
        <ele>2090.04</ele>
        <time>2015-07-23T09:07:15Z</time>
      </trkpt>
      <trkpt lat="42.56109" lon="1.98966">
        <ele>2090.52</ele>
        <time>2015-07-23T09:07:23Z</time>
      </trkpt>
      <trkpt lat="42.5611" lon="1.98961">
        <ele>2090.04</ele>
        <time>2015-07-23T09:07:40Z</time>
      </trkpt>
      <trkpt lat="42.5611" lon="1.98959">
        <ele>2090.04</ele>
        <time>2015-07-23T09:08:03Z</time>
      </trkpt>
      <trkpt lat="42.56109" lon="1.98959">
        <ele>2090.04</ele>
        <time>2015-07-23T09:08:34Z</time>
      </trkpt>
      <trkpt lat="42.56106" lon="1.98958">
        <ele>2091.49</ele>
        <time>2015-07-23T09:08:45Z</time>
      </trkpt>
      <trkpt lat="42.5611" lon="1.98955">
        <ele>2091.97</ele>
        <time>2015-07-23T09:08:55Z</time>
      </trkpt>
      <trkpt lat="42.56115" lon="1.98953">
        <ele>2092.45</ele>
        <time>2015-07-23T09:09:00Z</time>
      </trkpt>
      <trkpt lat="42.56118" lon="1.98941">
        <ele>2093.89</ele>
        <time>2015-07-23T09:09:12Z</time>
      </trkpt>
      <trkpt lat="42.56125" lon="1.9893">
        <ele>2094.37</ele>
        <time>2015-07-23T09:09:25Z</time>
      </trkpt>
      <trkpt lat="42.56126" lon="1.98929">
        <ele>2094.37</ele>
        <time>2015-07-23T09:09:26Z</time>
      </trkpt>
      <trkpt lat="42.56135" lon="1.98921">
        <ele>2095.33</ele>
        <time>2015-07-23T09:09:37Z</time>
      </trkpt>
      <trkpt lat="42.56145" lon="1.9891">
        <ele>2095.81</ele>
        <time>2015-07-23T09:09:50Z</time>
      </trkpt>
      <trkpt lat="42.56153" lon="1.98899">
        <ele>2096.77</ele>
        <time>2015-07-23T09:10:02Z</time>
      </trkpt>
      <trkpt lat="42.56156" lon="1.98892">
        <ele>2097.73</ele>
        <time>2015-07-23T09:10:11Z</time>
      </trkpt>
      <trkpt lat="42.56158" lon="1.98887">
        <ele>2098.7</ele>
        <time>2015-07-23T09:10:15Z</time>
      </trkpt>
      <trkpt lat="42.56162" lon="1.98879">
        <ele>2100.62</ele>
        <time>2015-07-23T09:10:25Z</time>
      </trkpt>
      <trkpt lat="42.56167" lon="1.98873">
        <ele>2102.06</ele>
        <time>2015-07-23T09:10:35Z</time>
      </trkpt>
      <trkpt lat="42.5617" lon="1.98863">
        <ele>2103.98</ele>
        <time>2015-07-23T09:10:45Z</time>
      </trkpt>
      <trkpt lat="42.56172" lon="1.98862">
        <ele>2103.98</ele>
        <time>2015-07-23T09:10:47Z</time>
      </trkpt>
      <trkpt lat="42.56174" lon="1.98851">
        <ele>2105.42</ele>
        <time>2015-07-23T09:10:58Z</time>
      </trkpt>
      <trkpt lat="42.56174" lon="1.98851">
        <ele>2105.91</ele>
        <time>2015-07-23T09:10:59Z</time>
      </trkpt>
      <trkpt lat="42.56178" lon="1.9885">
        <ele>2107.35</ele>
        <time>2015-07-23T09:11:09Z</time>
      </trkpt>
      <trkpt lat="42.56183" lon="1.98844">
        <ele>2109.75</ele>
        <time>2015-07-23T09:11:23Z</time>
      </trkpt>
      <trkpt lat="42.56187" lon="1.98838">
        <ele>2108.31</ele>
        <time>2015-07-23T09:11:35Z</time>
      </trkpt>
      <trkpt lat="42.56192" lon="1.98826">
        <ele>2108.79</ele>
        <time>2015-07-23T09:11:47Z</time>
      </trkpt>
      <trkpt lat="42.56195" lon="1.98818">
        <ele>2109.75</ele>
        <time>2015-07-23T09:12:00Z</time>
      </trkpt>
      <trkpt lat="42.56198" lon="1.98816">
        <ele>2108.79</ele>
        <time>2015-07-23T09:12:09Z</time>
      </trkpt>
      <trkpt lat="42.56204" lon="1.98816">
        <ele>2107.83</ele>
        <time>2015-07-23T09:12:19Z</time>
      </trkpt>
      <trkpt lat="42.56208" lon="1.98816">
        <ele>2107.83</ele>
        <time>2015-07-23T09:12:24Z</time>
      </trkpt>
      <trkpt lat="42.56211" lon="1.98814">
        <ele>2107.83</ele>
        <time>2015-07-23T09:12:27Z</time>
      </trkpt>
      <trkpt lat="42.56212" lon="1.98811">
        <ele>2108.31</ele>
        <time>2015-07-23T09:12:29Z</time>
      </trkpt>
      <trkpt lat="42.56218" lon="1.98808">
        <ele>2108.31</ele>
        <time>2015-07-23T09:12:35Z</time>
      </trkpt>
      <trkpt lat="42.56227" lon="1.98799">
        <ele>2109.27</ele>
        <time>2015-07-23T09:12:46Z</time>
      </trkpt>
      <trkpt lat="42.5623" lon="1.98797">
        <ele>2109.27</ele>
        <time>2015-07-23T09:12:49Z</time>
      </trkpt>
      <trkpt lat="42.56236" lon="1.98789">
        <ele>2110.23</ele>
        <time>2015-07-23T09:12:59Z</time>
      </trkpt>
      <trkpt lat="42.56241" lon="1.98784">
        <ele>2110.71</ele>
        <time>2015-07-23T09:13:06Z</time>
      </trkpt>
      <trkpt lat="42.56244" lon="1.98782">
        <ele>2110.71</ele>
        <time>2015-07-23T09:13:10Z</time>
      </trkpt>
      <trkpt lat="42.5625" lon="1.98776">
        <ele>2111.67</ele>
        <time>2015-07-23T09:13:25Z</time>
      </trkpt>
      <trkpt lat="42.56255" lon="1.98769">
        <ele>2112.63</ele>
        <time>2015-07-23T09:13:36Z</time>
      </trkpt>
      <trkpt lat="42.56261" lon="1.98759">
        <ele>2114.56</ele>
        <time>2015-07-23T09:13:52Z</time>
      </trkpt>
      <trkpt lat="42.56263" lon="1.98754">
        <ele>2115.52</ele>
        <time>2015-07-23T09:14:00Z</time>
      </trkpt>
      <trkpt lat="42.56268" lon="1.98744">
        <ele>2117.92</ele>
        <time>2015-07-23T09:14:13Z</time>
      </trkpt>
      <trkpt lat="42.5627" lon="1.98742">
        <ele>2118.88</ele>
        <time>2015-07-23T09:14:19Z</time>
      </trkpt>
      <trkpt lat="42.56275" lon="1.98736">
        <ele>2120.32</ele>
        <time>2015-07-23T09:14:28Z</time>
      </trkpt>
      <trkpt lat="42.5628" lon="1.98727">
        <ele>2121.29</ele>
        <time>2015-07-23T09:14:41Z</time>
      </trkpt>
      <trkpt lat="42.56288" lon="1.98722">
        <ele>2121.29</ele>
        <time>2015-07-23T09:14:50Z</time>
      </trkpt>
      <trkpt lat="42.5629" lon="1.98722">
        <ele>2122.25</ele>
        <time>2015-07-23T09:14:53Z</time>
      </trkpt>
      <trkpt lat="42.56303" lon="1.98715">
        <ele>2121.77</ele>
        <time>2015-07-23T09:15:08Z</time>
      </trkpt>
      <trkpt lat="42.56311" lon="1.98708">
        <ele>2122.25</ele>
        <time>2015-07-23T09:15:20Z</time>
      </trkpt>
      <trkpt lat="42.56312" lon="1.98705">
        <ele>2122.25</ele>
        <time>2015-07-23T09:15:24Z</time>
      </trkpt>
      <trkpt lat="42.56319" lon="1.98699">
        <ele>2124.17</ele>
        <time>2015-07-23T09:15:34Z</time>
      </trkpt>
      <trkpt lat="42.56326" lon="1.98695">
        <ele>2126.09</ele>
        <time>2015-07-23T09:15:45Z</time>
      </trkpt>
      <trkpt lat="42.56331" lon="1.98688">
        <ele>2126.57</ele>
        <time>2015-07-23T09:15:55Z</time>
      </trkpt>
      <trkpt lat="42.5633" lon="1.9868">
        <ele>2128.02</ele>
        <time>2015-07-23T09:16:06Z</time>
      </trkpt>
      <trkpt lat="42.5633" lon="1.98672">
        <ele>2129.46</ele>
        <time>2015-07-23T09:16:16Z</time>
      </trkpt>
      <trkpt lat="42.56329" lon="1.98667">
        <ele>2129.46</ele>
        <time>2015-07-23T09:16:29Z</time>
      </trkpt>
      <trkpt lat="42.56329" lon="1.98658">
        <ele>2132.34</ele>
        <time>2015-07-23T09:16:40Z</time>
      </trkpt>
      <trkpt lat="42.56333" lon="1.98652">
        <ele>2133.78</ele>
        <time>2015-07-23T09:16:47Z</time>
      </trkpt>
      <trkpt lat="42.56342" lon="1.98642">
        <ele>2134.26</ele>
        <time>2015-07-23T09:17:00Z</time>
      </trkpt>
      <trkpt lat="42.56346" lon="1.98639">
        <ele>2134.74</ele>
        <time>2015-07-23T09:17:04Z</time>
      </trkpt>
      <trkpt lat="42.56355" lon="1.98627">
        <ele>2135.71</ele>
        <time>2015-07-23T09:17:17Z</time>
      </trkpt>
      <trkpt lat="42.5636" lon="1.98622">
        <ele>2136.67</ele>
        <time>2015-07-23T09:17:29Z</time>
      </trkpt>
      <trkpt lat="42.56363" lon="1.98622">
        <ele>2136.67</ele>
        <time>2015-07-23T09:17:31Z</time>
      </trkpt>
      <trkpt lat="42.56372" lon="1.98614">
        <ele>2138.11</ele>
        <time>2015-07-23T09:17:44Z</time>
      </trkpt>
      <trkpt lat="42.56373" lon="1.98606">
        <ele>2140.51</ele>
        <time>2015-07-23T09:17:55Z</time>
      </trkpt>
      <trkpt lat="42.56382" lon="1.986">
        <ele>2141.47</ele>
        <time>2015-07-23T09:18:07Z</time>
      </trkpt>
      <trkpt lat="42.56393" lon="1.98592">
        <ele>2140.99</ele>
        <time>2015-07-23T09:18:22Z</time>
      </trkpt>
      <trkpt lat="42.56407" lon="1.98582">
        <ele>2141.95</ele>
        <time>2015-07-23T09:18:37Z</time>
      </trkpt>
      <trkpt lat="42.56418" lon="1.98573">
        <ele>2142.44</ele>
        <time>2015-07-23T09:18:49Z</time>
      </trkpt>
      <trkpt lat="42.56431" lon="1.98562">
        <ele>2143.4</ele>
        <time>2015-07-23T09:19:02Z</time>
      </trkpt>
      <trkpt lat="42.56434" lon="1.98555">
        <ele>2145.32</ele>
        <time>2015-07-23T09:19:09Z</time>
      </trkpt>
      <trkpt lat="42.56438" lon="1.98541">
        <ele>2146.76</ele>
        <time>2015-07-23T09:19:21Z</time>
      </trkpt>
      <trkpt lat="42.5644" lon="1.98531">
        <ele>2147.72</ele>
        <time>2015-07-23T09:19:28Z</time>
      </trkpt>
      <trkpt lat="42.56438" lon="1.98519">
        <ele>2148.2</ele>
        <time>2015-07-23T09:19:38Z</time>
      </trkpt>
      <trkpt lat="42.56438" lon="1.98503">
        <ele>2149.65</ele>
        <time>2015-07-23T09:19:52Z</time>
      </trkpt>
      <trkpt lat="42.56433" lon="1.98488">
        <ele>2150.13</ele>
        <time>2015-07-23T09:20:04Z</time>
      </trkpt>
      <trkpt lat="42.56431" lon="1.9848">
        <ele>2150.13</ele>
        <time>2015-07-23T09:20:09Z</time>
      </trkpt>
      <trkpt lat="42.56428" lon="1.98457">
        <ele>2150.61</ele>
        <time>2015-07-23T09:20:23Z</time>
      </trkpt>
      <trkpt lat="42.56426" lon="1.98449">
        <ele>2151.09</ele>
        <time>2015-07-23T09:20:28Z</time>
      </trkpt>
      <trkpt lat="42.56426" lon="1.98445">
        <ele>2151.09</ele>
        <time>2015-07-23T09:20:30Z</time>
      </trkpt>
      <trkpt lat="42.56426" lon="1.98442">
        <ele>2151.57</ele>
        <time>2015-07-23T09:20:32Z</time>
      </trkpt>
      <trkpt lat="42.56425" lon="1.98423">
        <ele>2153.49</ele>
        <time>2015-07-23T09:20:45Z</time>
      </trkpt>
      <trkpt lat="42.56425" lon="1.98414">
        <ele>2153.97</ele>
        <time>2015-07-23T09:20:51Z</time>
      </trkpt>
      <trkpt lat="42.56425" lon="1.98398">
        <ele>2154.45</ele>
        <time>2015-07-23T09:21:00Z</time>
      </trkpt>
      <trkpt lat="42.56424" lon="1.98389">
        <ele>2154.45</ele>
        <time>2015-07-23T09:21:06Z</time>
      </trkpt>
      <trkpt lat="42.56424" lon="1.98367">
        <ele>2154.93</ele>
        <time>2015-07-23T09:21:18Z</time>
      </trkpt>
      <trkpt lat="42.56426" lon="1.98359">
        <ele>2154.93</ele>
        <time>2015-07-23T09:21:23Z</time>
      </trkpt>
      <trkpt lat="42.56434" lon="1.98337">
        <ele>2154.93</ele>
        <time>2015-07-23T09:21:36Z</time>
      </trkpt>
      <trkpt lat="42.56444" lon="1.98326">
        <ele>2154.93</ele>
        <time>2015-07-23T09:21:48Z</time>
      </trkpt>
      <trkpt lat="42.56449" lon="1.98317">
        <ele>2154.93</ele>
        <time>2015-07-23T09:21:54Z</time>
      </trkpt>
      <trkpt lat="42.56456" lon="1.98304">
        <ele>2155.89</ele>
        <time>2015-07-23T09:22:07Z</time>
      </trkpt>
      <trkpt lat="42.56466" lon="1.98299">
        <ele>2155.89</ele>
        <time>2015-07-23T09:22:18Z</time>
      </trkpt>
      <trkpt lat="42.56475" lon="1.98284">
        <ele>2156.37</ele>
        <time>2015-07-23T09:22:31Z</time>
      </trkpt>
      <trkpt lat="42.56484" lon="1.98275">
        <ele>2156.37</ele>
        <time>2015-07-23T09:22:43Z</time>
      </trkpt>
      <trkpt lat="42.56489" lon="1.98269">
        <ele>2156.86</ele>
        <time>2015-07-23T09:22:48Z</time>
      </trkpt>
      <trkpt lat="42.56496" lon="1.98257">
        <ele>2159.26</ele>
        <time>2015-07-23T09:23:00Z</time>
      </trkpt>
      <trkpt lat="42.56501" lon="1.98251">
        <ele>2160.7</ele>
        <time>2015-07-23T09:23:11Z</time>
      </trkpt>
      <trkpt lat="42.56507" lon="1.98246">
        <ele>2161.66</ele>
        <time>2015-07-23T09:23:24Z</time>
      </trkpt>
      <trkpt lat="42.56508" lon="1.98245">
        <ele>2161.66</ele>
        <time>2015-07-23T09:23:27Z</time>
      </trkpt>
      <trkpt lat="42.56513" lon="1.98242">
        <ele>2162.14</ele>
        <time>2015-07-23T09:23:39Z</time>
      </trkpt>
      <trkpt lat="42.56513" lon="1.98239">
        <ele>2162.14</ele>
        <time>2015-07-23T09:23:58Z</time>
      </trkpt>
      <trkpt lat="42.5652" lon="1.98236">
        <ele>2162.62</ele>
        <time>2015-07-23T09:24:10Z</time>
      </trkpt>
      <trkpt lat="42.56528" lon="1.98226">
        <ele>2164.06</ele>
        <time>2015-07-23T09:24:23Z</time>
      </trkpt>
      <trkpt lat="42.56531" lon="1.98221">
        <ele>2165.03</ele>
        <time>2015-07-23T09:24:28Z</time>
      </trkpt>
      <trkpt lat="42.56537" lon="1.98211">
        <ele>2165.99</ele>
        <time>2015-07-23T09:24:41Z</time>
      </trkpt>
      <trkpt lat="42.56542" lon="1.98203">
        <ele>2166.95</ele>
        <time>2015-07-23T09:24:56Z</time>
      </trkpt>
      <trkpt lat="42.56545" lon="1.98196">
        <ele>2168.39</ele>
        <time>2015-07-23T09:25:05Z</time>
      </trkpt>
      <trkpt lat="42.56547" lon="1.9819">
        <ele>2169.35</ele>
        <time>2015-07-23T09:25:17Z</time>
      </trkpt>
      <trkpt lat="42.56547" lon="1.98178">
        <ele>2169.83</ele>
        <time>2015-07-23T09:25:34Z</time>
      </trkpt>
      <trkpt lat="42.56538" lon="1.98165">
        <ele>2169.83</ele>
        <time>2015-07-23T09:25:55Z</time>
      </trkpt>
      <trkpt lat="42.5653" lon="1.98151">
        <ele>2170.79</ele>
        <time>2015-07-23T09:26:08Z</time>
      </trkpt>
      <trkpt lat="42.56528" lon="1.98138">
        <ele>2171.27</ele>
        <time>2015-07-23T09:26:19Z</time>
      </trkpt>
      <trkpt lat="42.56527" lon="1.98123">
        <ele>2171.76</ele>
        <time>2015-07-23T09:26:31Z</time>
      </trkpt>
      <trkpt lat="42.56521" lon="1.98113">
        <ele>2171.76</ele>
        <time>2015-07-23T09:26:43Z</time>
      </trkpt>
      <trkpt lat="42.5652" lon="1.98112">
        <ele>2171.76</ele>
        <time>2015-07-23T09:26:44Z</time>
      </trkpt>
      <trkpt lat="42.56515" lon="1.98101">
        <ele>2170.79</ele>
        <time>2015-07-23T09:26:57Z</time>
      </trkpt>
      <trkpt lat="42.56512" lon="1.98089">
        <ele>2169.35</ele>
        <time>2015-07-23T09:27:09Z</time>
      </trkpt>
      <trkpt lat="42.56512" lon="1.98086">
        <ele>2169.35</ele>
        <time>2015-07-23T09:27:12Z</time>
      </trkpt>
      <trkpt lat="42.56521" lon="1.98071">
        <ele>2169.35</ele>
        <time>2015-07-23T09:27:25Z</time>
      </trkpt>
      <trkpt lat="42.56527" lon="1.98054">
        <ele>2169.83</ele>
        <time>2015-07-23T09:27:37Z</time>
      </trkpt>
      <trkpt lat="42.56529" lon="1.98044">
        <ele>2169.83</ele>
        <time>2015-07-23T09:27:43Z</time>
      </trkpt>
      <trkpt lat="42.56531" lon="1.98026">
        <ele>2169.35</ele>
        <time>2015-07-23T09:27:57Z</time>
      </trkpt>
      <trkpt lat="42.56533" lon="1.98017">
        <ele>2168.87</ele>
        <time>2015-07-23T09:28:08Z</time>
      </trkpt>
      <trkpt lat="42.56538" lon="1.98003">
        <ele>2168.87</ele>
        <time>2015-07-23T09:28:20Z</time>
      </trkpt>
      <trkpt lat="42.5654" lon="1.97997">
        <ele>2168.87</ele>
        <time>2015-07-23T09:28:24Z</time>
      </trkpt>
      <trkpt lat="42.56541" lon="1.97984">
        <ele>2168.39</ele>
        <time>2015-07-23T09:28:37Z</time>
      </trkpt>
      <trkpt lat="42.5654" lon="1.9798">
        <ele>2167.91</ele>
        <time>2015-07-23T09:28:48Z</time>
      </trkpt>
      <trkpt lat="42.56539" lon="1.97976">
        <ele>2167.43</ele>
        <time>2015-07-23T09:28:59Z</time>
      </trkpt>
      <trkpt lat="42.56539" lon="1.97973">
        <ele>2167.91</ele>
        <time>2015-07-23T09:29:25Z</time>
      </trkpt>
      <trkpt lat="42.56539" lon="1.97973">
        <ele>2167.91</ele>
        <time>2015-07-23T09:29:46Z</time>
      </trkpt>
      <trkpt lat="42.56539" lon="1.97972">
        <ele>2167.91</ele>
        <time>2015-07-23T09:30:07Z</time>
      </trkpt>
      <trkpt lat="42.56538" lon="1.97971">
        <ele>2167.91</ele>
        <time>2015-07-23T09:30:31Z</time>
      </trkpt>
      <trkpt lat="42.5654" lon="1.97971">
        <ele>2168.39</ele>
        <time>2015-07-23T09:31:00Z</time>
      </trkpt>
      <trkpt lat="42.5654" lon="1.9797">
        <ele>2167.91</ele>
        <time>2015-07-23T09:31:28Z</time>
      </trkpt>
      <trkpt lat="42.5654" lon="1.9797">
        <ele>2168.39</ele>
        <time>2015-07-23T09:32:00Z</time>
      </trkpt>
      <trkpt lat="42.5654" lon="1.97969">
        <ele>2168.39</ele>
        <time>2015-07-23T09:32:33Z</time>
      </trkpt>
      <trkpt lat="42.5654" lon="1.97969">
        <ele>2168.87</ele>
        <time>2015-07-23T09:32:57Z</time>
      </trkpt>
      <trkpt lat="42.5654" lon="1.97967">
        <ele>2169.35</ele>
        <time>2015-07-23T09:33:32Z</time>
      </trkpt>
      <trkpt lat="42.5654" lon="1.97968">
        <ele>2168.87</ele>
        <time>2015-07-23T09:34:07Z</time>
      </trkpt>
      <trkpt lat="42.5654" lon="1.97969">
        <ele>2168.87</ele>
        <time>2015-07-23T09:34:42Z</time>
      </trkpt>
      <trkpt lat="42.5654" lon="1.97969">
        <ele>2168.39</ele>
        <time>2015-07-23T09:34:58Z</time>
      </trkpt>
      <trkpt lat="42.56541" lon="1.9797">
        <ele>2168.39</ele>
        <time>2015-07-23T09:35:26Z</time>
      </trkpt>
      <trkpt lat="42.56541" lon="1.97971">
        <ele>2168.39</ele>
        <time>2015-07-23T09:36:01Z</time>
      </trkpt>
      <trkpt lat="42.56541" lon="1.9797">
        <ele>2168.87</ele>
        <time>2015-07-23T09:36:17Z</time>
      </trkpt>
      <trkpt lat="42.56541" lon="1.97969">
        <ele>2168.39</ele>
        <time>2015-07-23T09:36:53Z</time>
      </trkpt>
      <trkpt lat="42.56541" lon="1.9797">
        <ele>2167.91</ele>
        <time>2015-07-23T09:37:24Z</time>
      </trkpt>
      <trkpt lat="42.56541" lon="1.9797">
        <ele>2168.39</ele>
        <time>2015-07-23T09:37:51Z</time>
      </trkpt>
      <trkpt lat="42.56542" lon="1.9797">
        <ele>2167.91</ele>
        <time>2015-07-23T09:38:17Z</time>
      </trkpt>
      <trkpt lat="42.56541" lon="1.9797">
        <ele>2167.91</ele>
        <time>2015-07-23T09:38:40Z</time>
      </trkpt>
      <trkpt lat="42.56541" lon="1.9797">
        <ele>2168.39</ele>
        <time>2015-07-23T09:39:09Z</time>
      </trkpt>
      <trkpt lat="42.56541" lon="1.9797">
        <ele>2168.39</ele>
        <time>2015-07-23T09:39:28Z</time>
      </trkpt>
      <trkpt lat="42.56541" lon="1.97968">
        <ele>2167.91</ele>
        <time>2015-07-23T09:40:01Z</time>
      </trkpt>
      <trkpt lat="42.5654" lon="1.97968">
        <ele>2166.95</ele>
        <time>2015-07-23T09:40:32Z</time>
      </trkpt>
      <trkpt lat="42.56539" lon="1.97967">
        <ele>2166.95</ele>
        <time>2015-07-23T09:41:04Z</time>
      </trkpt>
      <trkpt lat="42.56539" lon="1.97967">
        <ele>2167.43</ele>
        <time>2015-07-23T09:41:42Z</time>
      </trkpt>
      <trkpt lat="42.56539" lon="1.97968">
        <ele>2167.91</ele>
        <time>2015-07-23T09:42:03Z</time>
      </trkpt>
      <trkpt lat="42.5654" lon="1.97968">
        <ele>2167.43</ele>
        <time>2015-07-23T09:42:06Z</time>
      </trkpt>
      <trkpt lat="42.56543" lon="1.97973">
        <ele>2167.43</ele>
        <time>2015-07-23T09:42:12Z</time>
      </trkpt>
      <trkpt lat="42.56543" lon="1.97984">
        <ele>2168.39</ele>
        <time>2015-07-23T09:42:24Z</time>
      </trkpt>
      <trkpt lat="42.56542" lon="1.97991">
        <ele>2168.39</ele>
        <time>2015-07-23T09:42:30Z</time>
      </trkpt>
      <trkpt lat="42.5654" lon="1.97997">
        <ele>2168.87</ele>
        <time>2015-07-23T09:42:35Z</time>
      </trkpt>
      <trkpt lat="42.56536" lon="1.98013">
        <ele>2169.35</ele>
        <time>2015-07-23T09:42:48Z</time>
      </trkpt>
      <trkpt lat="42.56532" lon="1.98018">
        <ele>2169.35</ele>
        <time>2015-07-23T09:43:00Z</time>
      </trkpt>
      <trkpt lat="42.56531" lon="1.98017">
        <ele>2169.35</ele>
        <time>2015-07-23T09:43:03Z</time>
      </trkpt>
      <trkpt lat="42.56532" lon="1.98016">
        <ele>2169.35</ele>
        <time>2015-07-23T09:43:09Z</time>
      </trkpt>
      <trkpt lat="42.56533" lon="1.98019">
        <ele>2169.35</ele>
        <time>2015-07-23T09:43:12Z</time>
      </trkpt>
      <trkpt lat="42.56532" lon="1.98041">
        <ele>2169.35</ele>
        <time>2015-07-23T09:43:26Z</time>
      </trkpt>
      <trkpt lat="42.56531" lon="1.98044">
        <ele>2169.35</ele>
        <time>2015-07-23T09:43:28Z</time>
      </trkpt>
      <trkpt lat="42.56529" lon="1.98052">
        <ele>2169.35</ele>
        <time>2015-07-23T09:43:34Z</time>
      </trkpt>
      <trkpt lat="42.5653" lon="1.98055">
        <ele>2169.83</ele>
        <time>2015-07-23T09:43:47Z</time>
      </trkpt>
      <trkpt lat="42.5653" lon="1.98057">
        <ele>2169.83</ele>
        <time>2015-07-23T09:44:05Z</time>
      </trkpt>
      <trkpt lat="42.56526" lon="1.98063">
        <ele>2169.35</ele>
        <time>2015-07-23T09:44:10Z</time>
      </trkpt>
      <trkpt lat="42.56522" lon="1.98073">
        <ele>2169.35</ele>
        <time>2015-07-23T09:44:17Z</time>
      </trkpt>
      <trkpt lat="42.56519" lon="1.98077">
        <ele>2169.35</ele>
        <time>2015-07-23T09:44:30Z</time>
      </trkpt>
      <trkpt lat="42.56518" lon="1.98077">
        <ele>2169.35</ele>
        <time>2015-07-23T09:44:45Z</time>
      </trkpt>
      <trkpt lat="42.56514" lon="1.98077">
        <ele>2169.35</ele>
        <time>2015-07-23T09:44:50Z</time>
      </trkpt>
      <trkpt lat="42.56507" lon="1.98072">
        <ele>2169.35</ele>
        <time>2015-07-23T09:44:57Z</time>
      </trkpt>
      <trkpt lat="42.565" lon="1.98061">
        <ele>2170.31</ele>
        <time>2015-07-23T09:45:07Z</time>
      </trkpt>
      <trkpt lat="42.56498" lon="1.98036">
        <ele>2170.31</ele>
        <time>2015-07-23T09:45:23Z</time>
      </trkpt>
      <trkpt lat="42.56497" lon="1.98035">
        <ele>2170.79</ele>
        <time>2015-07-23T09:45:25Z</time>
      </trkpt>
      <trkpt lat="42.56496" lon="1.98032">
        <ele>2170.79</ele>
        <time>2015-07-23T09:45:27Z</time>
      </trkpt>
      <trkpt lat="42.56494" lon="1.98025">
        <ele>2171.27</ele>
        <time>2015-07-23T09:45:33Z</time>
      </trkpt>
      <trkpt lat="42.56492" lon="1.98023">
        <ele>2171.27</ele>
        <time>2015-07-23T09:45:35Z</time>
      </trkpt>
      <trkpt lat="42.56492" lon="1.98012">
        <ele>2171.76</ele>
        <time>2015-07-23T09:45:42Z</time>
      </trkpt>
      <trkpt lat="42.56487" lon="1.97989">
        <ele>2172.24</ele>
        <time>2015-07-23T09:45:56Z</time>
      </trkpt>
      <trkpt lat="42.56487" lon="1.97982">
        <ele>2171.76</ele>
        <time>2015-07-23T09:46:00Z</time>
      </trkpt>
      <trkpt lat="42.56489" lon="1.97975">
        <ele>2172.24</ele>
        <time>2015-07-23T09:46:05Z</time>
      </trkpt>
      <trkpt lat="42.56495" lon="1.97966">
        <ele>2172.24</ele>
        <time>2015-07-23T09:46:13Z</time>
      </trkpt>
      <trkpt lat="42.56493" lon="1.97961">
        <ele>2171.76</ele>
        <time>2015-07-23T09:46:19Z</time>
      </trkpt>
      <trkpt lat="42.56493" lon="1.97957">
        <ele>2172.24</ele>
        <time>2015-07-23T09:46:24Z</time>
      </trkpt>
      <trkpt lat="42.56487" lon="1.97955">
        <ele>2172.24</ele>
        <time>2015-07-23T09:46:30Z</time>
      </trkpt>
      <trkpt lat="42.56486" lon="1.97949">
        <ele>2172.72</ele>
        <time>2015-07-23T09:46:34Z</time>
      </trkpt>
      <trkpt lat="42.56482" lon="1.97945">
        <ele>2173.68</ele>
        <time>2015-07-23T09:46:42Z</time>
      </trkpt>
      <trkpt lat="42.56473" lon="1.9794">
        <ele>2173.2</ele>
        <time>2015-07-23T09:46:55Z</time>
      </trkpt>
      <trkpt lat="42.56471" lon="1.9794">
        <ele>2173.2</ele>
        <time>2015-07-23T09:46:57Z</time>
      </trkpt>
      <trkpt lat="42.56466" lon="1.97935">
        <ele>2173.2</ele>
        <time>2015-07-23T09:47:06Z</time>
      </trkpt>
      <trkpt lat="42.56461" lon="1.97922">
        <ele>2173.68</ele>
        <time>2015-07-23T09:47:19Z</time>
      </trkpt>
      <trkpt lat="42.56461" lon="1.97916">
        <ele>2172.72</ele>
        <time>2015-07-23T09:47:26Z</time>
      </trkpt>
      <trkpt lat="42.56462" lon="1.97912">
        <ele>2172.24</ele>
        <time>2015-07-23T09:47:29Z</time>
      </trkpt>
      <trkpt lat="42.56461" lon="1.97902">
        <ele>2171.76</ele>
        <time>2015-07-23T09:47:36Z</time>
      </trkpt>
      <trkpt lat="42.56459" lon="1.97896">
        <ele>2171.27</ele>
        <time>2015-07-23T09:47:40Z</time>
      </trkpt>
      <trkpt lat="42.5646" lon="1.97891">
        <ele>2171.76</ele>
        <time>2015-07-23T09:47:43Z</time>
      </trkpt>
      <trkpt lat="42.56461" lon="1.97882">
        <ele>2170.79</ele>
        <time>2015-07-23T09:47:55Z</time>
      </trkpt>
      <trkpt lat="42.56461" lon="1.9788">
        <ele>2171.27</ele>
        <time>2015-07-23T09:48:00Z</time>
      </trkpt>
      <trkpt lat="42.5646" lon="1.97866">
        <ele>2172.72</ele>
        <time>2015-07-23T09:48:13Z</time>
      </trkpt>
      <trkpt lat="42.56457" lon="1.97857">
        <ele>2172.72</ele>
        <time>2015-07-23T09:48:24Z</time>
      </trkpt>
      <trkpt lat="42.56458" lon="1.97849">
        <ele>2172.24</ele>
        <time>2015-07-23T09:48:33Z</time>
      </trkpt>
      <trkpt lat="42.56458" lon="1.9784">
        <ele>2171.76</ele>
        <time>2015-07-23T09:48:39Z</time>
      </trkpt>
      <trkpt lat="42.56459" lon="1.97821">
        <ele>2171.27</ele>
        <time>2015-07-23T09:48:53Z</time>
      </trkpt>
      <trkpt lat="42.56459" lon="1.9782">
        <ele>2171.27</ele>
        <time>2015-07-23T09:48:54Z</time>
      </trkpt>
      <trkpt lat="42.56453" lon="1.97806">
        <ele>2169.35</ele>
        <time>2015-07-23T09:49:08Z</time>
      </trkpt>
      <trkpt lat="42.5645" lon="1.97793">
        <ele>2168.87</ele>
        <time>2015-07-23T09:49:18Z</time>
      </trkpt>
      <trkpt lat="42.56453" lon="1.97774">
        <ele>2168.39</ele>
        <time>2015-07-23T09:49:31Z</time>
      </trkpt>
      <trkpt lat="42.56452" lon="1.97771">
        <ele>2168.39</ele>
        <time>2015-07-23T09:49:33Z</time>
      </trkpt>
      <trkpt lat="42.56452" lon="1.97759">
        <ele>2167.43</ele>
        <time>2015-07-23T09:49:44Z</time>
      </trkpt>
      <trkpt lat="42.56452" lon="1.97757">
        <ele>2167.43</ele>
        <time>2015-07-23T09:49:46Z</time>
      </trkpt>
      <trkpt lat="42.56451" lon="1.97754">
        <ele>2167.91</ele>
        <time>2015-07-23T09:49:50Z</time>
      </trkpt>
      <trkpt lat="42.56451" lon="1.97746">
        <ele>2167.91</ele>
        <time>2015-07-23T09:50:01Z</time>
      </trkpt>
      <trkpt lat="42.56447" lon="1.97735">
        <ele>2168.87</ele>
        <time>2015-07-23T09:50:13Z</time>
      </trkpt>
      <trkpt lat="42.56446" lon="1.97721">
        <ele>2169.83</ele>
        <time>2015-07-23T09:50:27Z</time>
      </trkpt>
      <trkpt lat="42.56445" lon="1.97715">
        <ele>2168.87</ele>
        <time>2015-07-23T09:50:32Z</time>
      </trkpt>
      <trkpt lat="42.5645" lon="1.97703">
        <ele>2168.87</ele>
        <time>2015-07-23T09:50:41Z</time>
      </trkpt>
      <trkpt lat="42.5645" lon="1.97688">
        <ele>2169.35</ele>
        <time>2015-07-23T09:50:50Z</time>
      </trkpt>
      <trkpt lat="42.56452" lon="1.97684">
        <ele>2169.83</ele>
        <time>2015-07-23T09:50:53Z</time>
      </trkpt>
      <trkpt lat="42.56454" lon="1.9767">
        <ele>2170.31</ele>
        <time>2015-07-23T09:51:06Z</time>
      </trkpt>
      <trkpt lat="42.56456" lon="1.97662">
        <ele>2169.83</ele>
        <time>2015-07-23T09:51:18Z</time>
      </trkpt>
      <trkpt lat="42.56456" lon="1.97659">
        <ele>2169.35</ele>
        <time>2015-07-23T09:51:33Z</time>
      </trkpt>
      <trkpt lat="42.5646" lon="1.97647">
        <ele>2169.35</ele>
        <time>2015-07-23T09:51:45Z</time>
      </trkpt>
      <trkpt lat="42.56462" lon="1.97641">
        <ele>2169.35</ele>
        <time>2015-07-23T09:51:58Z</time>
      </trkpt>
      <trkpt lat="42.56468" lon="1.97636">
        <ele>2170.79</ele>
        <time>2015-07-23T09:52:08Z</time>
      </trkpt>
      <trkpt lat="42.56472" lon="1.97634">
        <ele>2170.31</ele>
        <time>2015-07-23T09:52:19Z</time>
      </trkpt>
      <trkpt lat="42.56473" lon="1.97628">
        <ele>2169.83</ele>
        <time>2015-07-23T09:52:27Z</time>
      </trkpt>
      <trkpt lat="42.56474" lon="1.97622">
        <ele>2169.35</ele>
        <time>2015-07-23T09:52:31Z</time>
      </trkpt>
      <trkpt lat="42.56478" lon="1.97615">
        <ele>2169.35</ele>
        <time>2015-07-23T09:52:36Z</time>
      </trkpt>
      <trkpt lat="42.56478" lon="1.97608">
        <ele>2168.87</ele>
        <time>2015-07-23T09:52:42Z</time>
      </trkpt>
      <trkpt lat="42.56479" lon="1.97606">
        <ele>2169.35</ele>
        <time>2015-07-23T09:52:45Z</time>
      </trkpt>
      <trkpt lat="42.5648" lon="1.97589">
        <ele>2169.35</ele>
        <time>2015-07-23T09:52:58Z</time>
      </trkpt>
      <trkpt lat="42.56486" lon="1.97578">
        <ele>2170.31</ele>
        <time>2015-07-23T09:53:09Z</time>
      </trkpt>
      <trkpt lat="42.56492" lon="1.9757">
        <ele>2172.72</ele>
        <time>2015-07-23T09:53:20Z</time>
      </trkpt>
      <trkpt lat="42.565" lon="1.97562">
        <ele>2173.2</ele>
        <time>2015-07-23T09:53:30Z</time>
      </trkpt>
      <trkpt lat="42.56504" lon="1.97557">
        <ele>2173.2</ele>
        <time>2015-07-23T09:53:40Z</time>
      </trkpt>
      <trkpt lat="42.56507" lon="1.97553">
        <ele>2174.16</ele>
        <time>2015-07-23T09:53:50Z</time>
      </trkpt>
      <trkpt lat="42.56512" lon="1.97549">
        <ele>2173.2</ele>
        <time>2015-07-23T09:54:00Z</time>
      </trkpt>
      <trkpt lat="42.56514" lon="1.97544">
        <ele>2171.76</ele>
        <time>2015-07-23T09:54:10Z</time>
      </trkpt>
      <trkpt lat="42.56514" lon="1.97543">
        <ele>2171.76</ele>
        <time>2015-07-23T09:54:11Z</time>
      </trkpt>
      <trkpt lat="42.56518" lon="1.97529">
        <ele>2171.27</ele>
        <time>2015-07-23T09:54:23Z</time>
      </trkpt>
      <trkpt lat="42.56518" lon="1.97524">
        <ele>2170.79</ele>
        <time>2015-07-23T09:54:27Z</time>
      </trkpt>
      <trkpt lat="42.5652" lon="1.97519">
        <ele>2171.27</ele>
        <time>2015-07-23T09:54:38Z</time>
      </trkpt>
      <trkpt lat="42.56517" lon="1.97512">
        <ele>2171.76</ele>
        <time>2015-07-23T09:54:44Z</time>
      </trkpt>
      <trkpt lat="42.56516" lon="1.97509">
        <ele>2171.27</ele>
        <time>2015-07-23T09:54:46Z</time>
      </trkpt>
      <trkpt lat="42.56518" lon="1.97498">
        <ele>2172.72</ele>
        <time>2015-07-23T09:54:56Z</time>
      </trkpt>
      <trkpt lat="42.56519" lon="1.97496">
        <ele>2172.72</ele>
        <time>2015-07-23T09:54:58Z</time>
      </trkpt>
      <trkpt lat="42.56522" lon="1.97491">
        <ele>2172.72</ele>
        <time>2015-07-23T09:55:02Z</time>
      </trkpt>
      <trkpt lat="42.56524" lon="1.97486">
        <ele>2173.2</ele>
        <time>2015-07-23T09:55:06Z</time>
      </trkpt>
      <trkpt lat="42.56525" lon="1.97481">
        <ele>2173.68</ele>
        <time>2015-07-23T09:55:11Z</time>
      </trkpt>
      <trkpt lat="42.56519" lon="1.97472">
        <ele>2176.08</ele>
        <time>2015-07-23T09:55:26Z</time>
      </trkpt>
      <trkpt lat="42.56512" lon="1.97468">
        <ele>2178</ele>
        <time>2015-07-23T09:55:38Z</time>
      </trkpt>
      <trkpt lat="42.56509" lon="1.97458">
        <ele>2180.41</ele>
        <time>2015-07-23T09:55:49Z</time>
      </trkpt>
      <trkpt lat="42.56511" lon="1.97443">
        <ele>2181.37</ele>
        <time>2015-07-23T09:56:00Z</time>
      </trkpt>
      <trkpt lat="42.56516" lon="1.97435">
        <ele>2183.29</ele>
        <time>2015-07-23T09:56:11Z</time>
      </trkpt>
      <trkpt lat="42.56518" lon="1.97434">
        <ele>2183.77</ele>
        <time>2015-07-23T09:56:13Z</time>
      </trkpt>
      <trkpt lat="42.56521" lon="1.97432">
        <ele>2184.25</ele>
        <time>2015-07-23T09:56:16Z</time>
      </trkpt>
      <trkpt lat="42.56524" lon="1.97428">
        <ele>2185.69</ele>
        <time>2015-07-23T09:56:22Z</time>
      </trkpt>
      <trkpt lat="42.56525" lon="1.97425">
        <ele>2186.18</ele>
        <time>2015-07-23T09:56:25Z</time>
      </trkpt>
      <trkpt lat="42.56537" lon="1.97422">
        <ele>2185.69</ele>
        <time>2015-07-23T09:56:36Z</time>
      </trkpt>
      <trkpt lat="42.56541" lon="1.9742">
        <ele>2186.18</ele>
        <time>2015-07-23T09:56:40Z</time>
      </trkpt>
      <trkpt lat="42.56546" lon="1.97418">
        <ele>2186.18</ele>
        <time>2015-07-23T09:56:46Z</time>
      </trkpt>
      <trkpt lat="42.56555" lon="1.97416">
        <ele>2186.18</ele>
        <time>2015-07-23T09:56:58Z</time>
      </trkpt>
      <trkpt lat="42.56566" lon="1.97414">
        <ele>2185.69</ele>
        <time>2015-07-23T09:57:06Z</time>
      </trkpt>
      <trkpt lat="42.56575" lon="1.9741">
        <ele>2185.21</ele>
        <time>2015-07-23T09:57:13Z</time>
      </trkpt>
      <trkpt lat="42.56588" lon="1.97399">
        <ele>2186.18</ele>
        <time>2015-07-23T09:57:27Z</time>
      </trkpt>
      <trkpt lat="42.5659" lon="1.97398">
        <ele>2186.18</ele>
        <time>2015-07-23T09:57:28Z</time>
      </trkpt>
      <trkpt lat="42.56605" lon="1.97386">
        <ele>2186.66</ele>
        <time>2015-07-23T09:57:42Z</time>
      </trkpt>
      <trkpt lat="42.5662" lon="1.97379">
        <ele>2187.14</ele>
        <time>2015-07-23T09:57:54Z</time>
      </trkpt>
      <trkpt lat="42.56625" lon="1.97376">
        <ele>2186.66</ele>
        <time>2015-07-23T09:57:58Z</time>
      </trkpt>
      <trkpt lat="42.56628" lon="1.97373">
        <ele>2188.1</ele>
        <time>2015-07-23T09:58:01Z</time>
      </trkpt>
      <trkpt lat="42.56642" lon="1.97364">
        <ele>2188.1</ele>
        <time>2015-07-23T09:58:14Z</time>
      </trkpt>
      <trkpt lat="42.56657" lon="1.97355">
        <ele>2189.06</ele>
        <time>2015-07-23T09:58:26Z</time>
      </trkpt>
      <trkpt lat="42.56675" lon="1.97352">
        <ele>2190.5</ele>
        <time>2015-07-23T09:58:40Z</time>
      </trkpt>
      <trkpt lat="42.56687" lon="1.97347">
        <ele>2192.9</ele>
        <time>2015-07-23T09:58:54Z</time>
      </trkpt>
      <trkpt lat="42.56689" lon="1.97346">
        <ele>2192.42</ele>
        <time>2015-07-23T09:58:55Z</time>
      </trkpt>
      <trkpt lat="42.56701" lon="1.97342">
        <ele>2193.87</ele>
        <time>2015-07-23T09:59:08Z</time>
      </trkpt>
      <trkpt lat="42.56703" lon="1.97341">
        <ele>2194.35</ele>
        <time>2015-07-23T09:59:12Z</time>
      </trkpt>
      <trkpt lat="42.56714" lon="1.9733">
        <ele>2196.75</ele>
        <time>2015-07-23T09:59:26Z</time>
      </trkpt>
      <trkpt lat="42.56722" lon="1.97321">
        <ele>2198.67</ele>
        <time>2015-07-23T09:59:38Z</time>
      </trkpt>
      <trkpt lat="42.56728" lon="1.97316">
        <ele>2199.15</ele>
        <time>2015-07-23T09:59:45Z</time>
      </trkpt>
      <trkpt lat="42.56729" lon="1.97313">
        <ele>2199.15</ele>
        <time>2015-07-23T09:59:47Z</time>
      </trkpt>
      <trkpt lat="42.56735" lon="1.97305">
        <ele>2200.11</ele>
        <time>2015-07-23T09:59:59Z</time>
      </trkpt>
      <trkpt lat="42.56737" lon="1.97302">
        <ele>2200.59</ele>
        <time>2015-07-23T10:00:08Z</time>
      </trkpt>
      <trkpt lat="42.56744" lon="1.97297">
        <ele>2201.08</ele>
        <time>2015-07-23T10:00:15Z</time>
      </trkpt>
      <trkpt lat="42.56749" lon="1.97294">
        <ele>2202.04</ele>
        <time>2015-07-23T10:00:21Z</time>
      </trkpt>
      <trkpt lat="42.56763" lon="1.97282">
        <ele>2202.52</ele>
        <time>2015-07-23T10:00:35Z</time>
      </trkpt>
      <trkpt lat="42.56776" lon="1.97269">
        <ele>2203.96</ele>
        <time>2015-07-23T10:00:49Z</time>
      </trkpt>
      <trkpt lat="42.56778" lon="1.97266">
        <ele>2204.44</ele>
        <time>2015-07-23T10:00:53Z</time>
      </trkpt>
      <trkpt lat="42.5678" lon="1.97263">
        <ele>2204.44</ele>
        <time>2015-07-23T10:00:56Z</time>
      </trkpt>
      <trkpt lat="42.56788" lon="1.97248">
        <ele>2205.88</ele>
        <time>2015-07-23T10:01:09Z</time>
      </trkpt>
      <trkpt lat="42.56793" lon="1.9724">
        <ele>2206.84</ele>
        <time>2015-07-23T10:01:18Z</time>
      </trkpt>
      <trkpt lat="42.56803" lon="1.97231">
        <ele>2208.29</ele>
        <time>2015-07-23T10:01:32Z</time>
      </trkpt>
      <trkpt lat="42.5681" lon="1.97227">
        <ele>2209.25</ele>
        <time>2015-07-23T10:01:41Z</time>
      </trkpt>
      <trkpt lat="42.56819" lon="1.97222">
        <ele>2209.73</ele>
        <time>2015-07-23T10:01:51Z</time>
      </trkpt>
      <trkpt lat="42.56822" lon="1.97217">
        <ele>2210.69</ele>
        <time>2015-07-23T10:01:56Z</time>
      </trkpt>
      <trkpt lat="42.56826" lon="1.97212">
        <ele>2211.65</ele>
        <time>2015-07-23T10:02:01Z</time>
      </trkpt>
      <trkpt lat="42.56831" lon="1.97206">
        <ele>2212.13</ele>
        <time>2015-07-23T10:02:08Z</time>
      </trkpt>
      <trkpt lat="42.56835" lon="1.97203">
        <ele>2212.61</ele>
        <time>2015-07-23T10:02:12Z</time>
      </trkpt>
      <trkpt lat="42.56838" lon="1.97198">
        <ele>2213.57</ele>
        <time>2015-07-23T10:02:16Z</time>
      </trkpt>
      <trkpt lat="42.5684" lon="1.97197">
        <ele>2213.57</ele>
        <time>2015-07-23T10:02:18Z</time>
      </trkpt>
      <trkpt lat="42.56851" lon="1.9719">
        <ele>2215.01</ele>
        <time>2015-07-23T10:02:29Z</time>
      </trkpt>
      <trkpt lat="42.56856" lon="1.97188">
        <ele>2215.5</ele>
        <time>2015-07-23T10:02:33Z</time>
      </trkpt>
      <trkpt lat="42.56869" lon="1.9718">
        <ele>2217.42</ele>
        <time>2015-07-23T10:02:47Z</time>
      </trkpt>
      <trkpt lat="42.5688" lon="1.97173">
        <ele>2218.86</ele>
        <time>2015-07-23T10:02:59Z</time>
      </trkpt>
      <trkpt lat="42.56894" lon="1.97166">
        <ele>2220.3</ele>
        <time>2015-07-23T10:03:13Z</time>
      </trkpt>
      <trkpt lat="42.56903" lon="1.97156">
        <ele>2222.22</ele>
        <time>2015-07-23T10:03:25Z</time>
      </trkpt>
      <trkpt lat="42.56915" lon="1.97151">
        <ele>2223.67</ele>
        <time>2015-07-23T10:03:38Z</time>
      </trkpt>
      <trkpt lat="42.56916" lon="1.97149">
        <ele>2224.15</ele>
        <time>2015-07-23T10:03:40Z</time>
      </trkpt>
      <trkpt lat="42.56918" lon="1.97146">
        <ele>2224.63</ele>
        <time>2015-07-23T10:03:43Z</time>
      </trkpt>
      <trkpt lat="42.5692" lon="1.97144">
        <ele>2225.11</ele>
        <time>2015-07-23T10:03:45Z</time>
      </trkpt>
      <trkpt lat="42.56924" lon="1.97138">
        <ele>2226.07</ele>
        <time>2015-07-23T10:03:52Z</time>
      </trkpt>
      <trkpt lat="42.56929" lon="1.9713">
        <ele>2227.03</ele>
        <time>2015-07-23T10:04:02Z</time>
      </trkpt>
      <trkpt lat="42.56934" lon="1.97128">
        <ele>2227.99</ele>
        <time>2015-07-23T10:04:07Z</time>
      </trkpt>
      <trkpt lat="42.5694" lon="1.97123">
        <ele>2228.47</ele>
        <time>2015-07-23T10:04:14Z</time>
      </trkpt>
      <trkpt lat="42.56944" lon="1.97122">
        <ele>2228.95</ele>
        <time>2015-07-23T10:04:18Z</time>
      </trkpt>
      <trkpt lat="42.56958" lon="1.97116">
        <ele>2231.36</ele>
        <time>2015-07-23T10:04:31Z</time>
      </trkpt>
      <trkpt lat="42.56971" lon="1.9711">
        <ele>2232.32</ele>
        <time>2015-07-23T10:04:44Z</time>
      </trkpt>
      <trkpt lat="42.56972" lon="1.9711">
        <ele>2232.8</ele>
        <time>2015-07-23T10:04:45Z</time>
      </trkpt>
      <trkpt lat="42.56988" lon="1.97102">
        <ele>2234.24</ele>
        <time>2015-07-23T10:05:00Z</time>
      </trkpt>
      <trkpt lat="42.56994" lon="1.97099">
        <ele>2234.72</ele>
        <time>2015-07-23T10:05:07Z</time>
      </trkpt>
      <trkpt lat="42.57001" lon="1.97096">
        <ele>2235.68</ele>
        <time>2015-07-23T10:05:14Z</time>
      </trkpt>
      <trkpt lat="42.57015" lon="1.97092">
        <ele>2236.64</ele>
        <time>2015-07-23T10:05:27Z</time>
      </trkpt>
      <trkpt lat="42.57018" lon="1.9709">
        <ele>2237.13</ele>
        <time>2015-07-23T10:05:30Z</time>
      </trkpt>
      <trkpt lat="42.57036" lon="1.97088">
        <ele>2237.61</ele>
        <time>2015-07-23T10:05:44Z</time>
      </trkpt>
      <trkpt lat="42.57042" lon="1.97084">
        <ele>2238.09</ele>
        <time>2015-07-23T10:05:49Z</time>
      </trkpt>
      <trkpt lat="42.57057" lon="1.97078">
        <ele>2239.05</ele>
        <time>2015-07-23T10:06:02Z</time>
      </trkpt>
      <trkpt lat="42.57072" lon="1.97075">
        <ele>2239.05</ele>
        <time>2015-07-23T10:06:14Z</time>
      </trkpt>
      <trkpt lat="42.57089" lon="1.97067">
        <ele>2239.53</ele>
        <time>2015-07-23T10:06:28Z</time>
      </trkpt>
      <trkpt lat="42.57109" lon="1.9706">
        <ele>2240.01</ele>
        <time>2015-07-23T10:06:42Z</time>
      </trkpt>
      <trkpt lat="42.5711" lon="1.9706">
        <ele>2240.01</ele>
        <time>2015-07-23T10:06:43Z</time>
      </trkpt>
      <trkpt lat="42.57128" lon="1.9705">
        <ele>2240.01</ele>
        <time>2015-07-23T10:06:57Z</time>
      </trkpt>
      <trkpt lat="42.57136" lon="1.97044">
        <ele>2240.01</ele>
        <time>2015-07-23T10:07:04Z</time>
      </trkpt>
      <trkpt lat="42.57143" lon="1.97038">
        <ele>2240.49</ele>
        <time>2015-07-23T10:07:11Z</time>
      </trkpt>
      <trkpt lat="42.57153" lon="1.97029">
        <ele>2241.45</ele>
        <time>2015-07-23T10:07:20Z</time>
      </trkpt>
      <trkpt lat="42.57157" lon="1.97023">
        <ele>2241.93</ele>
        <time>2015-07-23T10:07:25Z</time>
      </trkpt>
      <trkpt lat="42.57162" lon="1.9702">
        <ele>2241.45</ele>
        <time>2015-07-23T10:07:29Z</time>
      </trkpt>
      <trkpt lat="42.57166" lon="1.97012">
        <ele>2241.93</ele>
        <time>2015-07-23T10:07:34Z</time>
      </trkpt>
      <trkpt lat="42.57171" lon="1.97008">
        <ele>2241.45</ele>
        <time>2015-07-23T10:07:39Z</time>
      </trkpt>
      <trkpt lat="42.57183" lon="1.96993">
        <ele>2241.45</ele>
        <time>2015-07-23T10:07:51Z</time>
      </trkpt>
      <trkpt lat="42.57186" lon="1.96989">
        <ele>2241.45</ele>
        <time>2015-07-23T10:07:54Z</time>
      </trkpt>
      <trkpt lat="42.57193" lon="1.96983">
        <ele>2241.45</ele>
        <time>2015-07-23T10:08:00Z</time>
      </trkpt>
      <trkpt lat="42.57208" lon="1.96969">
        <ele>2240.49</ele>
        <time>2015-07-23T10:08:14Z</time>
      </trkpt>
      <trkpt lat="42.57215" lon="1.96961">
        <ele>2239.53</ele>
        <time>2015-07-23T10:08:21Z</time>
      </trkpt>
      <trkpt lat="42.5722" lon="1.96957">
        <ele>2239.05</ele>
        <time>2015-07-23T10:08:26Z</time>
      </trkpt>
      <trkpt lat="42.57226" lon="1.96952">
        <ele>2238.57</ele>
        <time>2015-07-23T10:08:39Z</time>
      </trkpt>
      <trkpt lat="42.57225" lon="1.96954">
        <ele>2238.57</ele>
        <time>2015-07-23T10:08:41Z</time>
      </trkpt>
      <trkpt lat="42.57225" lon="1.96956">
        <ele>2236.64</ele>
        <time>2015-07-23T10:08:45Z</time>
      </trkpt>
      <trkpt lat="42.57224" lon="1.96956">
        <ele>2237.61</ele>
        <time>2015-07-23T10:09:14Z</time>
      </trkpt>
      <trkpt lat="42.57224" lon="1.96955">
        <ele>2237.61</ele>
        <time>2015-07-23T10:09:45Z</time>
      </trkpt>
      <trkpt lat="42.57224" lon="1.96956">
        <ele>2237.61</ele>
        <time>2015-07-23T10:10:16Z</time>
      </trkpt>
      <trkpt lat="42.57225" lon="1.96955">
        <ele>2238.09</ele>
        <time>2015-07-23T10:10:32Z</time>
      </trkpt>
      <trkpt lat="42.57229" lon="1.96949">
        <ele>2238.09</ele>
        <time>2015-07-23T10:10:39Z</time>
      </trkpt>
      <trkpt lat="42.57237" lon="1.96939">
        <ele>2236.64</ele>
        <time>2015-07-23T10:10:52Z</time>
      </trkpt>
      <trkpt lat="42.57248" lon="1.9693">
        <ele>2235.2</ele>
        <time>2015-07-23T10:11:05Z</time>
      </trkpt>
      <trkpt lat="42.57254" lon="1.96916">
        <ele>2233.76</ele>
        <time>2015-07-23T10:11:20Z</time>
      </trkpt>
      <trkpt lat="42.57261" lon="1.96908">
        <ele>2232.32</ele>
        <time>2015-07-23T10:11:32Z</time>
      </trkpt>
      <trkpt lat="42.57266" lon="1.96905">
        <ele>2230.88</ele>
        <time>2015-07-23T10:11:37Z</time>
      </trkpt>
      <trkpt lat="42.57268" lon="1.969">
        <ele>2230.4</ele>
        <time>2015-07-23T10:11:41Z</time>
      </trkpt>
      <trkpt lat="42.57273" lon="1.96896">
        <ele>2229.43</ele>
        <time>2015-07-23T10:11:46Z</time>
      </trkpt>
      <trkpt lat="42.57284" lon="1.96894">
        <ele>2228.47</ele>
        <time>2015-07-23T10:11:59Z</time>
      </trkpt>
      <trkpt lat="42.57289" lon="1.96892">
        <ele>2227.99</ele>
        <time>2015-07-23T10:12:06Z</time>
      </trkpt>
      <trkpt lat="42.57294" lon="1.96901">
        <ele>2227.51</ele>
        <time>2015-07-23T10:12:15Z</time>
      </trkpt>
      <trkpt lat="42.57297" lon="1.96911">
        <ele>2225.59</ele>
        <time>2015-07-23T10:12:27Z</time>
      </trkpt>
      <trkpt lat="42.57299" lon="1.96913">
        <ele>2225.11</ele>
        <time>2015-07-23T10:12:29Z</time>
      </trkpt>
      <trkpt lat="42.57301" lon="1.96915">
        <ele>2224.63</ele>
        <time>2015-07-23T10:12:32Z</time>
      </trkpt>
      <trkpt lat="42.57303" lon="1.96915">
        <ele>2224.63</ele>
        <time>2015-07-23T10:12:34Z</time>
      </trkpt>
      <trkpt lat="42.57306" lon="1.9692">
        <ele>2224.15</ele>
        <time>2015-07-23T10:12:47Z</time>
      </trkpt>
      <trkpt lat="42.57306" lon="1.96921">
        <ele>2224.15</ele>
        <time>2015-07-23T10:13:03Z</time>
      </trkpt>
      <trkpt lat="42.57306" lon="1.96922">
        <ele>2224.63</ele>
        <time>2015-07-23T10:13:18Z</time>
      </trkpt>
      <trkpt lat="42.57306" lon="1.9692">
        <ele>2224.15</ele>
        <time>2015-07-23T10:13:33Z</time>
      </trkpt>
      <trkpt lat="42.57306" lon="1.96919">
        <ele>2224.63</ele>
        <time>2015-07-23T10:13:49Z</time>
      </trkpt>
      <trkpt lat="42.57308" lon="1.96912">
        <ele>2224.63</ele>
        <time>2015-07-23T10:13:55Z</time>
      </trkpt>
      <trkpt lat="42.57306" lon="1.96895">
        <ele>2223.67</ele>
        <time>2015-07-23T10:14:08Z</time>
      </trkpt>
      <trkpt lat="42.57305" lon="1.9689">
        <ele>2223.67</ele>
        <time>2015-07-23T10:14:12Z</time>
      </trkpt>
      <trkpt lat="42.573" lon="1.96878">
        <ele>2222.71</ele>
        <time>2015-07-23T10:14:26Z</time>
      </trkpt>
      <trkpt lat="42.57301" lon="1.96873">
        <ele>2222.22</ele>
        <time>2015-07-23T10:14:35Z</time>
      </trkpt>
      <trkpt lat="42.57303" lon="1.96864">
        <ele>2222.71</ele>
        <time>2015-07-23T10:14:47Z</time>
      </trkpt>
      <trkpt lat="42.57303" lon="1.96863">
        <ele>2223.19</ele>
        <time>2015-07-23T10:14:56Z</time>
      </trkpt>
      <trkpt lat="42.57309" lon="1.9686">
        <ele>2223.67</ele>
        <time>2015-07-23T10:15:06Z</time>
      </trkpt>
      <trkpt lat="42.57311" lon="1.9685">
        <ele>2224.63</ele>
        <time>2015-07-23T10:15:17Z</time>
      </trkpt>
      <trkpt lat="42.57308" lon="1.96843">
        <ele>2224.63</ele>
        <time>2015-07-23T10:15:26Z</time>
      </trkpt>
      <trkpt lat="42.57307" lon="1.96841">
        <ele>2224.63</ele>
        <time>2015-07-23T10:15:28Z</time>
      </trkpt>
      <trkpt lat="42.57308" lon="1.96834">
        <ele>2224.63</ele>
        <time>2015-07-23T10:15:32Z</time>
      </trkpt>
      <trkpt lat="42.5731" lon="1.96822">
        <ele>2225.59</ele>
        <time>2015-07-23T10:15:44Z</time>
      </trkpt>
      <trkpt lat="42.57312" lon="1.96817">
        <ele>2225.59</ele>
        <time>2015-07-23T10:15:56Z</time>
      </trkpt>
      <trkpt lat="42.5731" lon="1.96809">
        <ele>2225.59</ele>
        <time>2015-07-23T10:16:04Z</time>
      </trkpt>
      <trkpt lat="42.57304" lon="1.96809">
        <ele>2225.59</ele>
        <time>2015-07-23T10:16:17Z</time>
      </trkpt>
      <trkpt lat="42.57303" lon="1.96808">
        <ele>2225.59</ele>
        <time>2015-07-23T10:16:37Z</time>
      </trkpt>
      <trkpt lat="42.57301" lon="1.96808">
        <ele>2226.07</ele>
        <time>2015-07-23T10:16:52Z</time>
      </trkpt>
      <trkpt lat="42.57302" lon="1.96803">
        <ele>2225.59</ele>
        <time>2015-07-23T10:17:04Z</time>
      </trkpt>
      <trkpt lat="42.57305" lon="1.96794">
        <ele>2226.55</ele>
        <time>2015-07-23T10:17:14Z</time>
      </trkpt>
      <trkpt lat="42.57306" lon="1.96782">
        <ele>2226.07</ele>
        <time>2015-07-23T10:17:23Z</time>
      </trkpt>
      <trkpt lat="42.57309" lon="1.96764">
        <ele>2227.03</ele>
        <time>2015-07-23T10:17:37Z</time>
      </trkpt>
      <trkpt lat="42.5731" lon="1.96761">
        <ele>2227.51</ele>
        <time>2015-07-23T10:17:40Z</time>
      </trkpt>
      <trkpt lat="42.57309" lon="1.96753">
        <ele>2227.03</ele>
        <time>2015-07-23T10:17:45Z</time>
      </trkpt>
      <trkpt lat="42.57311" lon="1.96736">
        <ele>2228.95</ele>
        <time>2015-07-23T10:17:58Z</time>
      </trkpt>
      <trkpt lat="42.57313" lon="1.96733">
        <ele>2228.95</ele>
        <time>2015-07-23T10:18:09Z</time>
      </trkpt>
      <trkpt lat="42.57313" lon="1.96733">
        <ele>2228.95</ele>
        <time>2015-07-23T10:18:27Z</time>
      </trkpt>
      <trkpt lat="42.57311" lon="1.96729">
        <ele>2228.95</ele>
        <time>2015-07-23T10:18:33Z</time>
      </trkpt>
      <trkpt lat="42.57309" lon="1.96715">
        <ele>2229.43</ele>
        <time>2015-07-23T10:18:42Z</time>
      </trkpt>
      <trkpt lat="42.57308" lon="1.9671">
        <ele>2229.92</ele>
        <time>2015-07-23T10:18:45Z</time>
      </trkpt>
      <trkpt lat="42.57307" lon="1.96703">
        <ele>2230.4</ele>
        <time>2015-07-23T10:18:51Z</time>
      </trkpt>
      <trkpt lat="42.57307" lon="1.96698">
        <ele>2230.88</ele>
        <time>2015-07-23T10:18:54Z</time>
      </trkpt>
      <trkpt lat="42.57305" lon="1.9669">
        <ele>2230.88</ele>
        <time>2015-07-23T10:18:59Z</time>
      </trkpt>
      <trkpt lat="42.57303" lon="1.96678">
        <ele>2230.88</ele>
        <time>2015-07-23T10:19:06Z</time>
      </trkpt>
      <trkpt lat="42.57297" lon="1.9666">
        <ele>2233.76</ele>
        <time>2015-07-23T10:19:19Z</time>
      </trkpt>
      <trkpt lat="42.57289" lon="1.96649">
        <ele>2235.2</ele>
        <time>2015-07-23T10:19:30Z</time>
      </trkpt>
      <trkpt lat="42.57282" lon="1.96642">
        <ele>2237.13</ele>
        <time>2015-07-23T10:19:43Z</time>
      </trkpt>
      <trkpt lat="42.57277" lon="1.96634">
        <ele>2239.05</ele>
        <time>2015-07-23T10:19:55Z</time>
      </trkpt>
      <trkpt lat="42.57272" lon="1.96631">
        <ele>2241.45</ele>
        <time>2015-07-23T10:20:06Z</time>
      </trkpt>
      <trkpt lat="42.57265" lon="1.96623">
        <ele>2242.89</ele>
        <time>2015-07-23T10:20:18Z</time>
      </trkpt>
      <trkpt lat="42.57265" lon="1.96619">
        <ele>2242.89</ele>
        <time>2015-07-23T10:20:21Z</time>
      </trkpt>
      <trkpt lat="42.57266" lon="1.96615">
        <ele>2243.37</ele>
        <time>2015-07-23T10:20:24Z</time>
      </trkpt>
      <trkpt lat="42.57267" lon="1.96604">
        <ele>2246.26</ele>
        <time>2015-07-23T10:20:38Z</time>
      </trkpt>
      <trkpt lat="42.57267" lon="1.96592">
        <ele>2247.7</ele>
        <time>2015-07-23T10:20:50Z</time>
      </trkpt>
      <trkpt lat="42.5727" lon="1.96581">
        <ele>2251.06</ele>
        <time>2015-07-23T10:21:00Z</time>
      </trkpt>
      <trkpt lat="42.57271" lon="1.96575">
        <ele>2250.58</ele>
        <time>2015-07-23T10:21:04Z</time>
      </trkpt>
      <trkpt lat="42.57273" lon="1.9656">
        <ele>2251.06</ele>
        <time>2015-07-23T10:21:17Z</time>
      </trkpt>
      <trkpt lat="42.57271" lon="1.96552">
        <ele>2252.51</ele>
        <time>2015-07-23T10:21:25Z</time>
      </trkpt>
      <trkpt lat="42.57267" lon="1.96545">
        <ele>2253.47</ele>
        <time>2015-07-23T10:21:31Z</time>
      </trkpt>
      <trkpt lat="42.57257" lon="1.9653">
        <ele>2253.95</ele>
        <time>2015-07-23T10:21:44Z</time>
      </trkpt>
      <trkpt lat="42.57252" lon="1.96519">
        <ele>2254.91</ele>
        <time>2015-07-23T10:21:56Z</time>
      </trkpt>
      <trkpt lat="42.57252" lon="1.96503">
        <ele>2256.83</ele>
        <time>2015-07-23T10:22:09Z</time>
      </trkpt>
      <trkpt lat="42.57255" lon="1.96484">
        <ele>2258.75</ele>
        <time>2015-07-23T10:22:23Z</time>
      </trkpt>
      <trkpt lat="42.57255" lon="1.96475">
        <ele>2260.68</ele>
        <time>2015-07-23T10:22:35Z</time>
      </trkpt>
      <trkpt lat="42.57251" lon="1.96468">
        <ele>2262.12</ele>
        <time>2015-07-23T10:22:46Z</time>
      </trkpt>
      <trkpt lat="42.5725" lon="1.96462">
        <ele>2263.08</ele>
        <time>2015-07-23T10:22:56Z</time>
      </trkpt>
      <trkpt lat="42.57249" lon="1.96459">
        <ele>2263.56</ele>
        <time>2015-07-23T10:22:59Z</time>
      </trkpt>
      <trkpt lat="42.57246" lon="1.96446">
        <ele>2265.96</ele>
        <time>2015-07-23T10:23:11Z</time>
      </trkpt>
      <trkpt lat="42.57244" lon="1.96436">
        <ele>2268.85</ele>
        <time>2015-07-23T10:23:24Z</time>
      </trkpt>
      <trkpt lat="42.5724" lon="1.9642">
        <ele>2270.77</ele>
        <time>2015-07-23T10:23:38Z</time>
      </trkpt>
      <trkpt lat="42.57238" lon="1.9641">
        <ele>2272.21</ele>
        <time>2015-07-23T10:23:47Z</time>
      </trkpt>
      <trkpt lat="42.57233" lon="1.96392">
        <ele>2274.62</ele>
        <time>2015-07-23T10:24:01Z</time>
      </trkpt>
      <trkpt lat="42.57231" lon="1.96382">
        <ele>2275.58</ele>
        <time>2015-07-23T10:24:10Z</time>
      </trkpt>
      <trkpt lat="42.57232" lon="1.96373">
        <ele>2275.58</ele>
        <time>2015-07-23T10:24:16Z</time>
      </trkpt>
      <trkpt lat="42.5723" lon="1.96355">
        <ele>2275.58</ele>
        <time>2015-07-23T10:24:29Z</time>
      </trkpt>
      <trkpt lat="42.57232" lon="1.96346">
        <ele>2274.14</ele>
        <time>2015-07-23T10:24:36Z</time>
      </trkpt>
      <trkpt lat="42.57231" lon="1.96331">
        <ele>2273.17</ele>
        <time>2015-07-23T10:24:45Z</time>
      </trkpt>
      <trkpt lat="42.57224" lon="1.96314">
        <ele>2272.21</ele>
        <time>2015-07-23T10:24:59Z</time>
      </trkpt>
      <trkpt lat="42.57223" lon="1.96312">
        <ele>2273.17</ele>
        <time>2015-07-23T10:25:00Z</time>
      </trkpt>
      <trkpt lat="42.57218" lon="1.96291">
        <ele>2272.69</ele>
        <time>2015-07-23T10:25:13Z</time>
      </trkpt>
      <trkpt lat="42.57217" lon="1.9628">
        <ele>2273.66</ele>
        <time>2015-07-23T10:25:25Z</time>
      </trkpt>
      <trkpt lat="42.57217" lon="1.9628">
        <ele>2274.14</ele>
        <time>2015-07-23T10:25:27Z</time>
      </trkpt>
      <trkpt lat="42.57215" lon="1.96279">
        <ele>2274.14</ele>
        <time>2015-07-23T10:25:29Z</time>
      </trkpt>
      <trkpt lat="42.57214" lon="1.9626">
        <ele>2276.06</ele>
        <time>2015-07-23T10:25:43Z</time>
      </trkpt>
      <trkpt lat="42.57213" lon="1.9625">
        <ele>2277.02</ele>
        <time>2015-07-23T10:25:54Z</time>
      </trkpt>
      <trkpt lat="42.57211" lon="1.96249">
        <ele>2277.02</ele>
        <time>2015-07-23T10:25:56Z</time>
      </trkpt>
      <trkpt lat="42.57208" lon="1.9623">
        <ele>2278.46</ele>
        <time>2015-07-23T10:26:10Z</time>
      </trkpt>
      <trkpt lat="42.57205" lon="1.96217">
        <ele>2280.38</ele>
        <time>2015-07-23T10:26:23Z</time>
      </trkpt>
      <trkpt lat="42.57201" lon="1.96202">
        <ele>2282.79</ele>
        <time>2015-07-23T10:26:36Z</time>
      </trkpt>
      <trkpt lat="42.57198" lon="1.96185">
        <ele>2284.23</ele>
        <time>2015-07-23T10:26:50Z</time>
      </trkpt>
      <trkpt lat="42.57201" lon="1.96176">
        <ele>2286.15</ele>
        <time>2015-07-23T10:27:01Z</time>
      </trkpt>
      <trkpt lat="42.57203" lon="1.96166">
        <ele>2287.11</ele>
        <time>2015-07-23T10:27:12Z</time>
      </trkpt>
      <trkpt lat="42.57205" lon="1.96154">
        <ele>2288.08</ele>
        <time>2015-07-23T10:27:23Z</time>
      </trkpt>
      <trkpt lat="42.57205" lon="1.96153">
        <ele>2288.56</ele>
        <time>2015-07-23T10:27:24Z</time>
      </trkpt>
      <trkpt lat="42.57206" lon="1.96141">
        <ele>2290.48</ele>
        <time>2015-07-23T10:27:36Z</time>
      </trkpt>
      <trkpt lat="42.5721" lon="1.96131">
        <ele>2293.36</ele>
        <time>2015-07-23T10:27:48Z</time>
      </trkpt>
      <trkpt lat="42.57212" lon="1.96125">
        <ele>2295.28</ele>
        <time>2015-07-23T10:28:01Z</time>
      </trkpt>
      <trkpt lat="42.57211" lon="1.96112">
        <ele>2297.69</ele>
        <time>2015-07-23T10:28:13Z</time>
      </trkpt>
      <trkpt lat="42.57219" lon="1.96106">
        <ele>2299.13</ele>
        <time>2015-07-23T10:28:24Z</time>
      </trkpt>
      <trkpt lat="42.57217" lon="1.96102">
        <ele>2300.09</ele>
        <time>2015-07-23T10:28:30Z</time>
      </trkpt>
      <trkpt lat="42.57214" lon="1.96091">
        <ele>2302.49</ele>
        <time>2015-07-23T10:28:43Z</time>
      </trkpt>
      <trkpt lat="42.57213" lon="1.96075">
        <ele>2304.9</ele>
        <time>2015-07-23T10:28:57Z</time>
      </trkpt>
      <trkpt lat="42.57212" lon="1.9606">
        <ele>2307.3</ele>
        <time>2015-07-23T10:29:10Z</time>
      </trkpt>
      <trkpt lat="42.57212" lon="1.96047">
        <ele>2309.7</ele>
        <time>2015-07-23T10:29:23Z</time>
      </trkpt>
      <trkpt lat="42.57215" lon="1.96036">
        <ele>2312.11</ele>
        <time>2015-07-23T10:29:35Z</time>
      </trkpt>
      <trkpt lat="42.57216" lon="1.96034">
        <ele>2312.59</ele>
        <time>2015-07-23T10:29:38Z</time>
      </trkpt>
      <trkpt lat="42.57218" lon="1.96024">
        <ele>2313.55</ele>
        <time>2015-07-23T10:29:47Z</time>
      </trkpt>
      <trkpt lat="42.5722" lon="1.9602">
        <ele>2313.55</ele>
        <time>2015-07-23T10:29:50Z</time>
      </trkpt>
      <trkpt lat="42.57227" lon="1.96007">
        <ele>2314.51</ele>
        <time>2015-07-23T10:30:00Z</time>
      </trkpt>
      <trkpt lat="42.57228" lon="1.96003">
        <ele>2314.99</ele>
        <time>2015-07-23T10:30:03Z</time>
      </trkpt>
      <trkpt lat="42.57229" lon="1.96001">
        <ele>2315.47</ele>
        <time>2015-07-23T10:30:05Z</time>
      </trkpt>
      <trkpt lat="42.57231" lon="1.95992">
        <ele>2315.95</ele>
        <time>2015-07-23T10:30:11Z</time>
      </trkpt>
      <trkpt lat="42.57233" lon="1.95985">
        <ele>2315.95</ele>
        <time>2015-07-23T10:30:16Z</time>
      </trkpt>
      <trkpt lat="42.57235" lon="1.95975">
        <ele>2317.4</ele>
        <time>2015-07-23T10:30:25Z</time>
      </trkpt>
      <trkpt lat="42.57236" lon="1.95969">
        <ele>2317.4</ele>
        <time>2015-07-23T10:30:30Z</time>
      </trkpt>
      <trkpt lat="42.57237" lon="1.95948">
        <ele>2319.32</ele>
        <time>2015-07-23T10:30:45Z</time>
      </trkpt>
      <trkpt lat="42.5724" lon="1.95935">
        <ele>2322.2</ele>
        <time>2015-07-23T10:30:56Z</time>
      </trkpt>
      <trkpt lat="42.5724" lon="1.95931">
        <ele>2323.16</ele>
        <time>2015-07-23T10:30:59Z</time>
      </trkpt>
      <trkpt lat="42.57242" lon="1.95918">
        <ele>2322.68</ele>
        <time>2015-07-23T10:31:13Z</time>
      </trkpt>
      <trkpt lat="42.57244" lon="1.95908">
        <ele>2323.64</ele>
        <time>2015-07-23T10:31:21Z</time>
      </trkpt>
      <trkpt lat="42.57246" lon="1.95901">
        <ele>2326.05</ele>
        <time>2015-07-23T10:31:33Z</time>
      </trkpt>
      <trkpt lat="42.57245" lon="1.959">
        <ele>2326.05</ele>
        <time>2015-07-23T10:31:35Z</time>
      </trkpt>
      <trkpt lat="42.57246" lon="1.95888">
        <ele>2326.53</ele>
        <time>2015-07-23T10:31:46Z</time>
      </trkpt>
      <trkpt lat="42.57244" lon="1.95879">
        <ele>2328.93</ele>
        <time>2015-07-23T10:31:58Z</time>
      </trkpt>
      <trkpt lat="42.57244" lon="1.95867">
        <ele>2330.85</ele>
        <time>2015-07-23T10:32:11Z</time>
      </trkpt>
      <trkpt lat="42.57243" lon="1.95858">
        <ele>2331.81</ele>
        <time>2015-07-23T10:32:19Z</time>
      </trkpt>
      <trkpt lat="42.57244" lon="1.95841">
        <ele>2333.26</ele>
        <time>2015-07-23T10:32:31Z</time>
      </trkpt>
      <trkpt lat="42.57241" lon="1.95829">
        <ele>2336.14</ele>
        <time>2015-07-23T10:32:44Z</time>
      </trkpt>
      <trkpt lat="42.5724" lon="1.95827">
        <ele>2337.1</ele>
        <time>2015-07-23T10:32:47Z</time>
      </trkpt>
      <trkpt lat="42.57238" lon="1.95816">
        <ele>2339.02</ele>
        <time>2015-07-23T10:32:58Z</time>
      </trkpt>
      <trkpt lat="42.57236" lon="1.95805">
        <ele>2340.95</ele>
        <time>2015-07-23T10:33:09Z</time>
      </trkpt>
      <trkpt lat="42.57235" lon="1.95803">
        <ele>2341.43</ele>
        <time>2015-07-23T10:33:11Z</time>
      </trkpt>
      <trkpt lat="42.57233" lon="1.95797">
        <ele>2343.83</ele>
        <time>2015-07-23T10:33:24Z</time>
      </trkpt>
      <trkpt lat="42.57233" lon="1.95796">
        <ele>2343.83</ele>
        <time>2015-07-23T10:33:25Z</time>
      </trkpt>
      <trkpt lat="42.57229" lon="1.95788">
        <ele>2344.31</ele>
        <time>2015-07-23T10:33:33Z</time>
      </trkpt>
      <trkpt lat="42.57222" lon="1.95772">
        <ele>2344.79</ele>
        <time>2015-07-23T10:33:46Z</time>
      </trkpt>
      <trkpt lat="42.57215" lon="1.95765">
        <ele>2345.75</ele>
        <time>2015-07-23T10:33:59Z</time>
      </trkpt>
      <trkpt lat="42.57211" lon="1.95758">
        <ele>2346.23</ele>
        <time>2015-07-23T10:34:08Z</time>
      </trkpt>
      <trkpt lat="42.57208" lon="1.95756">
        <ele>2345.75</ele>
        <time>2015-07-23T10:34:11Z</time>
      </trkpt>
      <trkpt lat="42.57204" lon="1.95745">
        <ele>2344.79</ele>
        <time>2015-07-23T10:34:20Z</time>
      </trkpt>
      <trkpt lat="42.57196" lon="1.95735">
        <ele>2346.72</ele>
        <time>2015-07-23T10:34:33Z</time>
      </trkpt>
      <trkpt lat="42.57194" lon="1.95734">
        <ele>2346.72</ele>
        <time>2015-07-23T10:34:37Z</time>
      </trkpt>
      <trkpt lat="42.57188" lon="1.95727">
        <ele>2346.72</ele>
        <time>2015-07-23T10:34:42Z</time>
      </trkpt>
      <trkpt lat="42.57185" lon="1.9572">
        <ele>2346.72</ele>
        <time>2015-07-23T10:34:46Z</time>
      </trkpt>
      <trkpt lat="42.57172" lon="1.95711">
        <ele>2347.2</ele>
        <time>2015-07-23T10:34:58Z</time>
      </trkpt>
      <trkpt lat="42.57168" lon="1.95706">
        <ele>2347.2</ele>
        <time>2015-07-23T10:35:02Z</time>
      </trkpt>
      <trkpt lat="42.57162" lon="1.95696">
        <ele>2347.68</ele>
        <time>2015-07-23T10:35:10Z</time>
      </trkpt>
      <trkpt lat="42.57159" lon="1.95691">
        <ele>2347.2</ele>
        <time>2015-07-23T10:35:15Z</time>
      </trkpt>
      <trkpt lat="42.57156" lon="1.95689">
        <ele>2347.68</ele>
        <time>2015-07-23T10:35:18Z</time>
      </trkpt>
      <trkpt lat="42.57154" lon="1.95687">
        <ele>2347.2</ele>
        <time>2015-07-23T10:35:20Z</time>
      </trkpt>
      <trkpt lat="42.5715" lon="1.95678">
        <ele>2347.68</ele>
        <time>2015-07-23T10:35:26Z</time>
      </trkpt>
      <trkpt lat="42.57149" lon="1.95674">
        <ele>2347.68</ele>
        <time>2015-07-23T10:35:29Z</time>
      </trkpt>
      <trkpt lat="42.57148" lon="1.95666">
        <ele>2348.16</ele>
        <time>2015-07-23T10:35:35Z</time>
      </trkpt>
      <trkpt lat="42.57146" lon="1.95655">
        <ele>2349.6</ele>
        <time>2015-07-23T10:35:44Z</time>
      </trkpt>
      <trkpt lat="42.57142" lon="1.95643">
        <ele>2352</ele>
        <time>2015-07-23T10:35:54Z</time>
      </trkpt>
      <trkpt lat="42.5714" lon="1.95625">
        <ele>2352.96</ele>
        <time>2015-07-23T10:36:07Z</time>
      </trkpt>
      <trkpt lat="42.57138" lon="1.95608">
        <ele>2355.37</ele>
        <time>2015-07-23T10:36:19Z</time>
      </trkpt>
      <trkpt lat="42.57139" lon="1.95603">
        <ele>2355.85</ele>
        <time>2015-07-23T10:36:24Z</time>
      </trkpt>
      <trkpt lat="42.57143" lon="1.95589">
        <ele>2356.33</ele>
        <time>2015-07-23T10:36:36Z</time>
      </trkpt>
      <trkpt lat="42.57144" lon="1.95574">
        <ele>2357.77</ele>
        <time>2015-07-23T10:36:48Z</time>
      </trkpt>
      <trkpt lat="42.57145" lon="1.9557">
        <ele>2358.25</ele>
        <time>2015-07-23T10:36:52Z</time>
      </trkpt>
      <trkpt lat="42.57146" lon="1.95553">
        <ele>2359.21</ele>
        <time>2015-07-23T10:37:05Z</time>
      </trkpt>
      <trkpt lat="42.57146" lon="1.9555">
        <ele>2360.17</ele>
        <time>2015-07-23T10:37:08Z</time>
      </trkpt>
      <trkpt lat="42.57148" lon="1.9553">
        <ele>2361.14</ele>
        <time>2015-07-23T10:37:23Z</time>
      </trkpt>
      <trkpt lat="42.57151" lon="1.95521">
        <ele>2361.14</ele>
        <time>2015-07-23T10:37:30Z</time>
      </trkpt>
      <trkpt lat="42.57153" lon="1.95513">
        <ele>2361.62</ele>
        <time>2015-07-23T10:37:36Z</time>
      </trkpt>
      <trkpt lat="42.57152" lon="1.95497">
        <ele>2363.06</ele>
        <time>2015-07-23T10:37:50Z</time>
      </trkpt>
      <trkpt lat="42.57152" lon="1.95494">
        <ele>2363.54</ele>
        <time>2015-07-23T10:37:52Z</time>
      </trkpt>
      <trkpt lat="42.57152" lon="1.95491">
        <ele>2364.5</ele>
        <time>2015-07-23T10:37:54Z</time>
      </trkpt>
      <trkpt lat="42.57153" lon="1.95472">
        <ele>2365.46</ele>
        <time>2015-07-23T10:38:07Z</time>
      </trkpt>
      <trkpt lat="42.57153" lon="1.9547">
        <ele>2364.5</ele>
        <time>2015-07-23T10:38:18Z</time>
      </trkpt>
      <trkpt lat="42.57154" lon="1.95465">
        <ele>2363.06</ele>
        <time>2015-07-23T10:38:21Z</time>
      </trkpt>
      <trkpt lat="42.57154" lon="1.95462">
        <ele>2363.54</ele>
        <time>2015-07-23T10:38:23Z</time>
      </trkpt>
      <trkpt lat="42.57154" lon="1.95454">
        <ele>2363.54</ele>
        <time>2015-07-23T10:38:29Z</time>
      </trkpt>
      <trkpt lat="42.57158" lon="1.95435">
        <ele>2364.02</ele>
        <time>2015-07-23T10:38:42Z</time>
      </trkpt>
      <trkpt lat="42.57159" lon="1.95422">
        <ele>2364.5</ele>
        <time>2015-07-23T10:38:52Z</time>
      </trkpt>
      <trkpt lat="42.5716" lon="1.95395">
        <ele>2364.5</ele>
        <time>2015-07-23T10:39:08Z</time>
      </trkpt>
      <trkpt lat="42.57157" lon="1.9537">
        <ele>2365.46</ele>
        <time>2015-07-23T10:39:24Z</time>
      </trkpt>
      <trkpt lat="42.57157" lon="1.95358">
        <ele>2365.46</ele>
        <time>2015-07-23T10:39:32Z</time>
      </trkpt>
      <trkpt lat="42.57158" lon="1.95345">
        <ele>2365.94</ele>
        <time>2015-07-23T10:39:46Z</time>
      </trkpt>
      <trkpt lat="42.57157" lon="1.95332">
        <ele>2365.94</ele>
        <time>2015-07-23T10:39:57Z</time>
      </trkpt>
      <trkpt lat="42.57156" lon="1.95327">
        <ele>2365.94</ele>
        <time>2015-07-23T10:40:01Z</time>
      </trkpt>
      <trkpt lat="42.57156" lon="1.95318">
        <ele>2365.94</ele>
        <time>2015-07-23T10:40:06Z</time>
      </trkpt>
      <trkpt lat="42.57157" lon="1.95296">
        <ele>2365.94</ele>
        <time>2015-07-23T10:40:19Z</time>
      </trkpt>
      <trkpt lat="42.57158" lon="1.95291">
        <ele>2365.94</ele>
        <time>2015-07-23T10:40:23Z</time>
      </trkpt>
      <trkpt lat="42.57158" lon="1.95284">
        <ele>2365.46</ele>
        <time>2015-07-23T10:40:27Z</time>
      </trkpt>
      <trkpt lat="42.57157" lon="1.95268">
        <ele>2365.46</ele>
        <time>2015-07-23T10:40:39Z</time>
      </trkpt>
      <trkpt lat="42.57156" lon="1.95264">
        <ele>2365.46</ele>
        <time>2015-07-23T10:40:55Z</time>
      </trkpt>
      <trkpt lat="42.57156" lon="1.95263">
        <ele>2365.94</ele>
        <time>2015-07-23T10:40:59Z</time>
      </trkpt>
      <trkpt lat="42.5716" lon="1.95262">
        <ele>2365.46</ele>
        <time>2015-07-23T10:41:01Z</time>
      </trkpt>
      <trkpt lat="42.57162" lon="1.95266">
        <ele>2365.46</ele>
        <time>2015-07-23T10:41:05Z</time>
      </trkpt>
      <trkpt lat="42.57164" lon="1.95277">
        <ele>2366.42</ele>
        <time>2015-07-23T10:41:11Z</time>
      </trkpt>
      <trkpt lat="42.57167" lon="1.95283">
        <ele>2366.42</ele>
        <time>2015-07-23T10:41:16Z</time>
      </trkpt>
      <trkpt lat="42.57168" lon="1.95287">
        <ele>2368.35</ele>
        <time>2015-07-23T10:41:30Z</time>
      </trkpt>
      <trkpt lat="42.57168" lon="1.95287">
        <ele>2367.38</ele>
        <time>2015-07-23T10:41:37Z</time>
      </trkpt>
      <trkpt lat="42.57167" lon="1.95289">
        <ele>2367.38</ele>
        <time>2015-07-23T10:41:43Z</time>
      </trkpt>
      <trkpt lat="42.5717" lon="1.95296">
        <ele>2368.35</ele>
        <time>2015-07-23T10:41:49Z</time>
      </trkpt>
      <trkpt lat="42.57171" lon="1.95299">
        <ele>2367.38</ele>
        <time>2015-07-23T10:41:52Z</time>
      </trkpt>
      <trkpt lat="42.57174" lon="1.95312">
        <ele>2364.5</ele>
        <time>2015-07-23T10:42:01Z</time>
      </trkpt>
      <trkpt lat="42.57178" lon="1.95324">
        <ele>2364.5</ele>
        <time>2015-07-23T10:42:08Z</time>
      </trkpt>
      <trkpt lat="42.57179" lon="1.95329">
        <ele>2363.06</ele>
        <time>2015-07-23T10:42:11Z</time>
      </trkpt>
      <trkpt lat="42.57183" lon="1.95349">
        <ele>2362.1</ele>
        <time>2015-07-23T10:42:24Z</time>
      </trkpt>
      <trkpt lat="42.57184" lon="1.95357">
        <ele>2361.62</ele>
        <time>2015-07-23T10:42:28Z</time>
      </trkpt>
      <trkpt lat="42.57186" lon="1.95365">
        <ele>2360.65</ele>
        <time>2015-07-23T10:42:33Z</time>
      </trkpt>
      <trkpt lat="42.57188" lon="1.95367">
        <ele>2360.17</ele>
        <time>2015-07-23T10:42:35Z</time>
      </trkpt>
      <trkpt lat="42.57188" lon="1.95372">
        <ele>2359.21</ele>
        <time>2015-07-23T10:42:39Z</time>
      </trkpt>
      <trkpt lat="42.57188" lon="1.95376">
        <ele>2358.73</ele>
        <time>2015-07-23T10:42:42Z</time>
      </trkpt>
      <trkpt lat="42.57191" lon="1.95389">
        <ele>2356.81</ele>
        <time>2015-07-23T10:42:52Z</time>
      </trkpt>
      <trkpt lat="42.57193" lon="1.95402">
        <ele>2354.89</ele>
        <time>2015-07-23T10:43:03Z</time>
      </trkpt>
      <trkpt lat="42.57195" lon="1.95406">
        <ele>2354.41</ele>
        <time>2015-07-23T10:43:08Z</time>
      </trkpt>
      <trkpt lat="42.57195" lon="1.95408">
        <ele>2353.93</ele>
        <time>2015-07-23T10:43:10Z</time>
      </trkpt>
      <trkpt lat="42.57196" lon="1.95415">
        <ele>2352.96</ele>
        <time>2015-07-23T10:43:17Z</time>
      </trkpt>
      <trkpt lat="42.57196" lon="1.95418">
        <ele>2352.48</ele>
        <time>2015-07-23T10:43:20Z</time>
      </trkpt>
      <trkpt lat="42.57196" lon="1.95428">
        <ele>2351.04</ele>
        <time>2015-07-23T10:43:30Z</time>
      </trkpt>
      <trkpt lat="42.57201" lon="1.95441">
        <ele>2350.08</ele>
        <time>2015-07-23T10:43:41Z</time>
      </trkpt>
      <trkpt lat="42.57208" lon="1.95449">
        <ele>2348.16</ele>
        <time>2015-07-23T10:43:55Z</time>
      </trkpt>
      <trkpt lat="42.57213" lon="1.95462">
        <ele>2345.75</ele>
        <time>2015-07-23T10:44:08Z</time>
      </trkpt>
      <trkpt lat="42.57214" lon="1.95475">
        <ele>2345.27</ele>
        <time>2015-07-23T10:44:22Z</time>
      </trkpt>
      <trkpt lat="42.57215" lon="1.95475">
        <ele>2345.27</ele>
        <time>2015-07-23T10:44:33Z</time>
      </trkpt>
      <trkpt lat="42.57217" lon="1.95474">
        <ele>2344.79</ele>
        <time>2015-07-23T10:44:37Z</time>
      </trkpt>
      <trkpt lat="42.57218" lon="1.95469">
        <ele>2344.79</ele>
        <time>2015-07-23T10:44:42Z</time>
      </trkpt>
      <trkpt lat="42.57222" lon="1.95469">
        <ele>2344.31</ele>
        <time>2015-07-23T10:44:55Z</time>
      </trkpt>
      <trkpt lat="42.57222" lon="1.95469">
        <ele>2344.31</ele>
        <time>2015-07-23T10:45:08Z</time>
      </trkpt>
      <trkpt lat="42.57223" lon="1.9547">
        <ele>2343.83</ele>
        <time>2015-07-23T10:45:13Z</time>
      </trkpt>
      <trkpt lat="42.57225" lon="1.95475">
        <ele>2343.83</ele>
        <time>2015-07-23T10:45:17Z</time>
      </trkpt>
      <trkpt lat="42.57226" lon="1.95482">
        <ele>2343.83</ele>
        <time>2015-07-23T10:45:28Z</time>
      </trkpt>
      <trkpt lat="42.57227" lon="1.95482">
        <ele>2343.35</ele>
        <time>2015-07-23T10:45:54Z</time>
      </trkpt>
      <trkpt lat="42.57227" lon="1.95482">
        <ele>2343.35</ele>
        <time>2015-07-23T10:46:06Z</time>
      </trkpt>
      <trkpt lat="42.57227" lon="1.95482">
        <ele>2342.87</ele>
        <time>2015-07-23T10:46:20Z</time>
      </trkpt>
      <trkpt lat="42.57227" lon="1.95481">
        <ele>2344.31</ele>
        <time>2015-07-23T10:46:46Z</time>
      </trkpt>
      <trkpt lat="42.57227" lon="1.95482">
        <ele>2344.31</ele>
        <time>2015-07-23T10:47:20Z</time>
      </trkpt>
      <trkpt lat="42.57227" lon="1.95481">
        <ele>2344.79</ele>
        <time>2015-07-23T10:47:48Z</time>
      </trkpt>
      <trkpt lat="42.57227" lon="1.95482">
        <ele>2344.79</ele>
        <time>2015-07-23T10:48:12Z</time>
      </trkpt>
      <trkpt lat="42.57229" lon="1.95483">
        <ele>2345.75</ele>
        <time>2015-07-23T10:48:27Z</time>
      </trkpt>
      <trkpt lat="42.57232" lon="1.95486">
        <ele>2346.23</ele>
        <time>2015-07-23T10:48:31Z</time>
      </trkpt>
      <trkpt lat="42.57233" lon="1.95493">
        <ele>2347.2</ele>
        <time>2015-07-23T10:48:36Z</time>
      </trkpt>
      <trkpt lat="42.57234" lon="1.95496">
        <ele>2347.2</ele>
        <time>2015-07-23T10:48:39Z</time>
      </trkpt>
      <trkpt lat="42.5724" lon="1.95513">
        <ele>2348.16</ele>
        <time>2015-07-23T10:48:53Z</time>
      </trkpt>
      <trkpt lat="42.57241" lon="1.95514">
        <ele>2348.64</ele>
        <time>2015-07-23T10:48:54Z</time>
      </trkpt>
      <trkpt lat="42.57253" lon="1.9553">
        <ele>2347.68</ele>
        <time>2015-07-23T10:49:09Z</time>
      </trkpt>
      <trkpt lat="42.57256" lon="1.95535">
        <ele>2346.72</ele>
        <time>2015-07-23T10:49:14Z</time>
      </trkpt>
      <trkpt lat="42.5726" lon="1.95541">
        <ele>2346.72</ele>
        <time>2015-07-23T10:49:19Z</time>
      </trkpt>
      <trkpt lat="42.57268" lon="1.95558">
        <ele>2345.75</ele>
        <time>2015-07-23T10:49:33Z</time>
      </trkpt>
      <trkpt lat="42.57272" lon="1.9556">
        <ele>2344.79</ele>
        <time>2015-07-23T10:49:36Z</time>
      </trkpt>
      <trkpt lat="42.57274" lon="1.95564">
        <ele>2344.31</ele>
        <time>2015-07-23T10:49:39Z</time>
      </trkpt>
      <trkpt lat="42.57277" lon="1.95568">
        <ele>2344.79</ele>
        <time>2015-07-23T10:49:43Z</time>
      </trkpt>
      <trkpt lat="42.57282" lon="1.9558">
        <ele>2341.91</ele>
        <time>2015-07-23T10:49:51Z</time>
      </trkpt>
      <trkpt lat="42.57284" lon="1.95582">
        <ele>2342.87</ele>
        <time>2015-07-23T10:49:54Z</time>
      </trkpt>
      <trkpt lat="42.57286" lon="1.95585">
        <ele>2341.91</ele>
        <time>2015-07-23T10:49:56Z</time>
      </trkpt>
      <trkpt lat="42.57288" lon="1.95589">
        <ele>2341.43</ele>
        <time>2015-07-23T10:49:59Z</time>
      </trkpt>
      <trkpt lat="42.5729" lon="1.9559">
        <ele>2340.95</ele>
        <time>2015-07-23T10:50:01Z</time>
      </trkpt>
      <trkpt lat="42.57294" lon="1.95593">
        <ele>2340.95</ele>
        <time>2015-07-23T10:50:05Z</time>
      </trkpt>
      <trkpt lat="42.57297" lon="1.95596">
        <ele>2340.95</ele>
        <time>2015-07-23T10:50:08Z</time>
      </trkpt>
      <trkpt lat="42.57299" lon="1.956">
        <ele>2338.06</ele>
        <time>2015-07-23T10:50:11Z</time>
      </trkpt>
      <trkpt lat="42.573" lon="1.95602">
        <ele>2338.06</ele>
        <time>2015-07-23T10:50:12Z</time>
      </trkpt>
      <trkpt lat="42.57306" lon="1.95604">
        <ele>2338.06</ele>
        <time>2015-07-23T10:50:18Z</time>
      </trkpt>
      <trkpt lat="42.57314" lon="1.95606">
        <ele>2336.62</ele>
        <time>2015-07-23T10:50:24Z</time>
      </trkpt>
      <trkpt lat="42.57326" lon="1.95614">
        <ele>2335.18</ele>
        <time>2015-07-23T10:50:39Z</time>
      </trkpt>
      <trkpt lat="42.57331" lon="1.95616">
        <ele>2334.7</ele>
        <time>2015-07-23T10:50:43Z</time>
      </trkpt>
      <trkpt lat="42.57342" lon="1.95625">
        <ele>2335.18</ele>
        <time>2015-07-23T10:50:55Z</time>
      </trkpt>
      <trkpt lat="42.57346" lon="1.95626">
        <ele>2335.66</ele>
        <time>2015-07-23T10:50:58Z</time>
      </trkpt>
      <trkpt lat="42.57353" lon="1.95627">
        <ele>2336.14</ele>
        <time>2015-07-23T10:51:04Z</time>
      </trkpt>
      <trkpt lat="42.57358" lon="1.95631">
        <ele>2337.1</ele>
        <time>2015-07-23T10:51:09Z</time>
      </trkpt>
      <trkpt lat="42.57373" lon="1.95638">
        <ele>2338.06</ele>
        <time>2015-07-23T10:51:22Z</time>
      </trkpt>
      <trkpt lat="42.57387" lon="1.95643">
        <ele>2338.06</ele>
        <time>2015-07-23T10:51:35Z</time>
      </trkpt>
      <trkpt lat="42.57395" lon="1.95646">
        <ele>2338.06</ele>
        <time>2015-07-23T10:51:52Z</time>
      </trkpt>
      <trkpt lat="42.57412" lon="1.95657">
        <ele>2338.54</ele>
        <time>2015-07-23T10:52:07Z</time>
      </trkpt>
      <trkpt lat="42.57425" lon="1.95669">
        <ele>2337.58</ele>
        <time>2015-07-23T10:52:21Z</time>
      </trkpt>
      <trkpt lat="42.57441" lon="1.95679">
        <ele>2336.14</ele>
        <time>2015-07-23T10:52:34Z</time>
      </trkpt>
      <trkpt lat="42.57452" lon="1.95695">
        <ele>2336.14</ele>
        <time>2015-07-23T10:52:48Z</time>
      </trkpt>
      <trkpt lat="42.57453" lon="1.95695">
        <ele>2336.14</ele>
        <time>2015-07-23T10:52:49Z</time>
      </trkpt>
      <trkpt lat="42.57456" lon="1.95706">
        <ele>2334.7</ele>
        <time>2015-07-23T10:52:56Z</time>
      </trkpt>
      <trkpt lat="42.57471" lon="1.95719">
        <ele>2334.22</ele>
        <time>2015-07-23T10:53:11Z</time>
      </trkpt>
      <trkpt lat="42.57471" lon="1.95721">
        <ele>2334.22</ele>
        <time>2015-07-23T10:53:12Z</time>
      </trkpt>
      <trkpt lat="42.57479" lon="1.95728">
        <ele>2335.18</ele>
        <time>2015-07-23T10:53:19Z</time>
      </trkpt>
      <trkpt lat="42.5749" lon="1.9575">
        <ele>2334.7</ele>
        <time>2015-07-23T10:53:36Z</time>
      </trkpt>
      <trkpt lat="42.57491" lon="1.95769">
        <ele>2334.22</ele>
        <time>2015-07-23T10:53:46Z</time>
      </trkpt>
      <trkpt lat="42.57495" lon="1.95778">
        <ele>2334.22</ele>
        <time>2015-07-23T10:53:56Z</time>
      </trkpt>
      <trkpt lat="42.57506" lon="1.95801">
        <ele>2333.74</ele>
        <time>2015-07-23T10:54:11Z</time>
      </trkpt>
      <trkpt lat="42.57508" lon="1.95814">
        <ele>2334.22</ele>
        <time>2015-07-23T10:54:23Z</time>
      </trkpt>
      <trkpt lat="42.57511" lon="1.95815">
        <ele>2333.26</ele>
        <time>2015-07-23T10:54:26Z</time>
      </trkpt>
      <trkpt lat="42.57515" lon="1.95823">
        <ele>2333.26</ele>
        <time>2015-07-23T10:54:32Z</time>
      </trkpt>
      <trkpt lat="42.57514" lon="1.95827">
        <ele>2333.26</ele>
        <time>2015-07-23T10:54:34Z</time>
      </trkpt>
      <trkpt lat="42.57517" lon="1.95831">
        <ele>2333.26</ele>
        <time>2015-07-23T10:54:38Z</time>
      </trkpt>
      <trkpt lat="42.57516" lon="1.95843">
        <ele>2332.3</ele>
        <time>2015-07-23T10:54:50Z</time>
      </trkpt>
      <trkpt lat="42.57516" lon="1.95847">
        <ele>2332.78</ele>
        <time>2015-07-23T10:54:52Z</time>
      </trkpt>
      <trkpt lat="42.57516" lon="1.95851">
        <ele>2332.3</ele>
        <time>2015-07-23T10:54:55Z</time>
      </trkpt>
      <trkpt lat="42.57515" lon="1.9586">
        <ele>2329.89</ele>
        <time>2015-07-23T10:55:06Z</time>
      </trkpt>
      <trkpt lat="42.57519" lon="1.95866">
        <ele>2328.93</ele>
        <time>2015-07-23T10:55:13Z</time>
      </trkpt>
      <trkpt lat="42.57522" lon="1.95884">
        <ele>2327.49</ele>
        <time>2015-07-23T10:55:24Z</time>
      </trkpt>
      <trkpt lat="42.57523" lon="1.95891">
        <ele>2327.01</ele>
        <time>2015-07-23T10:55:29Z</time>
      </trkpt>
      <trkpt lat="42.57523" lon="1.95898">
        <ele>2327.01</ele>
        <time>2015-07-23T10:55:32Z</time>
      </trkpt>
      <trkpt lat="42.57529" lon="1.95916">
        <ele>2325.57</ele>
        <time>2015-07-23T10:55:44Z</time>
      </trkpt>
      <trkpt lat="42.57534" lon="1.95933">
        <ele>2323.16</ele>
        <time>2015-07-23T10:55:55Z</time>
      </trkpt>
      <trkpt lat="42.57532" lon="1.95939">
        <ele>2323.16</ele>
        <time>2015-07-23T10:56:11Z</time>
      </trkpt>
      <trkpt lat="42.57532" lon="1.95943">
        <ele>2323.64</ele>
        <time>2015-07-23T10:56:22Z</time>
      </trkpt>
      <trkpt lat="42.57532" lon="1.95948">
        <ele>2323.64</ele>
        <time>2015-07-23T10:56:37Z</time>
      </trkpt>
      <trkpt lat="42.57535" lon="1.95949">
        <ele>2323.16</ele>
        <time>2015-07-23T10:56:45Z</time>
      </trkpt>
      <trkpt lat="42.57539" lon="1.95957">
        <ele>2322.2</ele>
        <time>2015-07-23T10:56:51Z</time>
      </trkpt>
      <trkpt lat="42.5754" lon="1.95962">
        <ele>2322.2</ele>
        <time>2015-07-23T10:56:55Z</time>
      </trkpt>
      <trkpt lat="42.57543" lon="1.95967">
        <ele>2322.2</ele>
        <time>2015-07-23T10:56:59Z</time>
      </trkpt>
      <trkpt lat="42.57548" lon="1.95986">
        <ele>2322.68</ele>
        <time>2015-07-23T10:57:11Z</time>
      </trkpt>
      <trkpt lat="42.57548" lon="1.95988">
        <ele>2322.68</ele>
        <time>2015-07-23T10:57:12Z</time>
      </trkpt>
      <trkpt lat="42.57549" lon="1.95996">
        <ele>2322.2</ele>
        <time>2015-07-23T10:57:17Z</time>
      </trkpt>
      <trkpt lat="42.57547" lon="1.96009">
        <ele>2321.72</ele>
        <time>2015-07-23T10:57:29Z</time>
      </trkpt>
      <trkpt lat="42.57548" lon="1.96019">
        <ele>2319.32</ele>
        <time>2015-07-23T10:57:39Z</time>
      </trkpt>
      <trkpt lat="42.57549" lon="1.96027">
        <ele>2318.84</ele>
        <time>2015-07-23T10:57:44Z</time>
      </trkpt>
      <trkpt lat="42.57551" lon="1.96034">
        <ele>2317.88</ele>
        <time>2015-07-23T10:57:48Z</time>
      </trkpt>
      <trkpt lat="42.57557" lon="1.96059">
        <ele>2317.88</ele>
        <time>2015-07-23T10:58:03Z</time>
      </trkpt>
      <trkpt lat="42.57557" lon="1.9607">
        <ele>2317.88</ele>
        <time>2015-07-23T10:58:10Z</time>
      </trkpt>
      <trkpt lat="42.5756" lon="1.96073">
        <ele>2317.4</ele>
        <time>2015-07-23T10:58:13Z</time>
      </trkpt>
      <trkpt lat="42.57561" lon="1.96083">
        <ele>2317.88</ele>
        <time>2015-07-23T10:58:20Z</time>
      </trkpt>
      <trkpt lat="42.5756" lon="1.96091">
        <ele>2317.4</ele>
        <time>2015-07-23T10:58:24Z</time>
      </trkpt>
      <trkpt lat="42.57562" lon="1.96093">
        <ele>2317.88</ele>
        <time>2015-07-23T10:58:26Z</time>
      </trkpt>
      <trkpt lat="42.57563" lon="1.96098">
        <ele>2317.88</ele>
        <time>2015-07-23T10:58:29Z</time>
      </trkpt>
      <trkpt lat="42.57564" lon="1.96107">
        <ele>2317.4</ele>
        <time>2015-07-23T10:58:35Z</time>
      </trkpt>
      <trkpt lat="42.57565" lon="1.9611">
        <ele>2316.91</ele>
        <time>2015-07-23T10:58:37Z</time>
      </trkpt>
      <trkpt lat="42.57566" lon="1.96132">
        <ele>2317.4</ele>
        <time>2015-07-23T10:58:49Z</time>
      </trkpt>
      <trkpt lat="42.57567" lon="1.96134">
        <ele>2317.4</ele>
        <time>2015-07-23T10:58:51Z</time>
      </trkpt>
      <trkpt lat="42.5757" lon="1.96149">
        <ele>2316.43</ele>
        <time>2015-07-23T10:59:02Z</time>
      </trkpt>
      <trkpt lat="42.57579" lon="1.96169">
        <ele>2315.47</ele>
        <time>2015-07-23T10:59:15Z</time>
      </trkpt>
      <trkpt lat="42.57579" lon="1.96171">
        <ele>2315.47</ele>
        <time>2015-07-23T10:59:16Z</time>
      </trkpt>
      <trkpt lat="42.57581" lon="1.96175">
        <ele>2315.47</ele>
        <time>2015-07-23T10:59:19Z</time>
      </trkpt>
      <trkpt lat="42.57585" lon="1.96184">
        <ele>2315.47</ele>
        <time>2015-07-23T10:59:27Z</time>
      </trkpt>
      <trkpt lat="42.57592" lon="1.96193">
        <ele>2314.99</ele>
        <time>2015-07-23T10:59:35Z</time>
      </trkpt>
      <trkpt lat="42.57594" lon="1.96198">
        <ele>2314.99</ele>
        <time>2015-07-23T10:59:38Z</time>
      </trkpt>
      <trkpt lat="42.57598" lon="1.96202">
        <ele>2314.03</ele>
        <time>2015-07-23T10:59:42Z</time>
      </trkpt>
      <trkpt lat="42.57604" lon="1.96211">
        <ele>2314.99</ele>
        <time>2015-07-23T10:59:49Z</time>
      </trkpt>
      <trkpt lat="42.5761" lon="1.96218">
        <ele>2315.47</ele>
        <time>2015-07-23T10:59:56Z</time>
      </trkpt>
      <trkpt lat="42.57616" lon="1.96223">
        <ele>2314.99</ele>
        <time>2015-07-23T11:00:02Z</time>
      </trkpt>
      <trkpt lat="42.57619" lon="1.96232">
        <ele>2315.47</ele>
        <time>2015-07-23T11:00:07Z</time>
      </trkpt>
      <trkpt lat="42.57624" lon="1.96244">
        <ele>2314.51</ele>
        <time>2015-07-23T11:00:15Z</time>
      </trkpt>
      <trkpt lat="42.57633" lon="1.96263">
        <ele>2316.43</ele>
        <time>2015-07-23T11:00:28Z</time>
      </trkpt>
      <trkpt lat="42.57635" lon="1.9627">
        <ele>2316.43</ele>
        <time>2015-07-23T11:00:32Z</time>
      </trkpt>
      <trkpt lat="42.57644" lon="1.9629">
        <ele>2315.95</ele>
        <time>2015-07-23T11:00:46Z</time>
      </trkpt>
      <trkpt lat="42.57646" lon="1.96294">
        <ele>2316.43</ele>
        <time>2015-07-23T11:00:49Z</time>
      </trkpt>
      <trkpt lat="42.57648" lon="1.9631">
        <ele>2316.43</ele>
        <time>2015-07-23T11:00:59Z</time>
      </trkpt>
      <trkpt lat="42.57652" lon="1.96331">
        <ele>2315.47</ele>
        <time>2015-07-23T11:01:11Z</time>
      </trkpt>
      <trkpt lat="42.57655" lon="1.96341">
        <ele>2314.99</ele>
        <time>2015-07-23T11:01:17Z</time>
      </trkpt>
      <trkpt lat="42.5766" lon="1.96359">
        <ele>2314.51</ele>
        <time>2015-07-23T11:01:29Z</time>
      </trkpt>
      <trkpt lat="42.5766" lon="1.9636">
        <ele>2314.51</ele>
        <time>2015-07-23T11:01:30Z</time>
      </trkpt>
      <trkpt lat="42.5766" lon="1.96367">
        <ele>2314.51</ele>
        <time>2015-07-23T11:01:46Z</time>
      </trkpt>
      <trkpt lat="42.57661" lon="1.96367">
        <ele>2314.51</ele>
        <time>2015-07-23T11:01:51Z</time>
      </trkpt>
      <trkpt lat="42.57659" lon="1.96374">
        <ele>2314.51</ele>
        <time>2015-07-23T11:01:56Z</time>
      </trkpt>
      <trkpt lat="42.57656" lon="1.9638">
        <ele>2315.47</ele>
        <time>2015-07-23T11:02:05Z</time>
      </trkpt>
      <trkpt lat="42.57653" lon="1.96384">
        <ele>2315.95</ele>
        <time>2015-07-23T11:02:16Z</time>
      </trkpt>
      <trkpt lat="42.57653" lon="1.96387">
        <ele>2315.47</ele>
        <time>2015-07-23T11:02:28Z</time>
      </trkpt>
      <trkpt lat="42.57653" lon="1.96387">
        <ele>2314.99</ele>
        <time>2015-07-23T11:02:48Z</time>
      </trkpt>
      <trkpt lat="42.57654" lon="1.96388">
        <ele>2314.99</ele>
        <time>2015-07-23T11:03:10Z</time>
      </trkpt>
      <trkpt lat="42.57655" lon="1.96389">
        <ele>2314.51</ele>
        <time>2015-07-23T11:03:11Z</time>
      </trkpt>
      <trkpt lat="42.5766" lon="1.96397">
        <ele>2313.07</ele>
        <time>2015-07-23T11:03:21Z</time>
      </trkpt>
      <trkpt lat="42.57663" lon="1.96399">
        <ele>2314.03</ele>
        <time>2015-07-23T11:03:25Z</time>
      </trkpt>
      <trkpt lat="42.57668" lon="1.96399">
        <ele>2314.03</ele>
        <time>2015-07-23T11:03:30Z</time>
      </trkpt>
      <trkpt lat="42.57669" lon="1.96408">
        <ele>2314.51</ele>
        <time>2015-07-23T11:03:38Z</time>
      </trkpt>
      <trkpt lat="42.57668" lon="1.96411">
        <ele>2314.99</ele>
        <time>2015-07-23T11:03:40Z</time>
      </trkpt>
      <trkpt lat="42.5767" lon="1.96419">
        <ele>2314.99</ele>
        <time>2015-07-23T11:03:46Z</time>
      </trkpt>
      <trkpt lat="42.5767" lon="1.96425">
        <ele>2314.99</ele>
        <time>2015-07-23T11:03:50Z</time>
      </trkpt>
      <trkpt lat="42.57669" lon="1.96444">
        <ele>2315.47</ele>
        <time>2015-07-23T11:04:01Z</time>
      </trkpt>
      <trkpt lat="42.57669" lon="1.96452">
        <ele>2314.51</ele>
        <time>2015-07-23T11:04:06Z</time>
      </trkpt>
      <trkpt lat="42.57669" lon="1.96462">
        <ele>2314.51</ele>
        <time>2015-07-23T11:04:17Z</time>
      </trkpt>
      <trkpt lat="42.57665" lon="1.96483">
        <ele>2314.51</ele>
        <time>2015-07-23T11:04:31Z</time>
      </trkpt>
      <trkpt lat="42.57658" lon="1.96502">
        <ele>2314.51</ele>
        <time>2015-07-23T11:04:44Z</time>
      </trkpt>
      <trkpt lat="42.57652" lon="1.96515">
        <ele>2314.03</ele>
        <time>2015-07-23T11:04:54Z</time>
      </trkpt>
      <trkpt lat="42.57651" lon="1.96518">
        <ele>2314.03</ele>
        <time>2015-07-23T11:04:56Z</time>
      </trkpt>
      <trkpt lat="42.57645" lon="1.96536">
        <ele>2313.55</ele>
        <time>2015-07-23T11:05:09Z</time>
      </trkpt>
      <trkpt lat="42.57645" lon="1.96537">
        <ele>2313.55</ele>
        <time>2015-07-23T11:05:25Z</time>
      </trkpt>
      <trkpt lat="42.57645" lon="1.96538">
        <ele>2313.55</ele>
        <time>2015-07-23T11:05:29Z</time>
      </trkpt>
      <trkpt lat="42.57641" lon="1.9654">
        <ele>2313.55</ele>
        <time>2015-07-23T11:05:34Z</time>
      </trkpt>
      <trkpt lat="42.57635" lon="1.96539">
        <ele>2313.07</ele>
        <time>2015-07-23T11:05:45Z</time>
      </trkpt>
      <trkpt lat="42.57631" lon="1.96536">
        <ele>2313.07</ele>
        <time>2015-07-23T11:05:57Z</time>
      </trkpt>
      <trkpt lat="42.57629" lon="1.96535">
        <ele>2313.07</ele>
        <time>2015-07-23T11:06:09Z</time>
      </trkpt>
      <trkpt lat="42.57625" lon="1.96536">
        <ele>2312.59</ele>
        <time>2015-07-23T11:06:13Z</time>
      </trkpt>
      <trkpt lat="42.57622" lon="1.96541">
        <ele>2312.11</ele>
        <time>2015-07-23T11:06:20Z</time>
      </trkpt>
      <trkpt lat="42.57622" lon="1.96554">
        <ele>2310.67</ele>
        <time>2015-07-23T11:06:33Z</time>
      </trkpt>
      <trkpt lat="42.57621" lon="1.96557">
        <ele>2310.19</ele>
        <time>2015-07-23T11:06:36Z</time>
      </trkpt>
      <trkpt lat="42.57619" lon="1.96564">
        <ele>2311.15</ele>
        <time>2015-07-23T11:06:44Z</time>
      </trkpt>
      <trkpt lat="42.57618" lon="1.96568">
        <ele>2310.67</ele>
        <time>2015-07-23T11:06:47Z</time>
      </trkpt>
      <trkpt lat="42.57616" lon="1.96574">
        <ele>2310.19</ele>
        <time>2015-07-23T11:06:55Z</time>
      </trkpt>
      <trkpt lat="42.5761" lon="1.96585">
        <ele>2312.11</ele>
        <time>2015-07-23T11:07:08Z</time>
      </trkpt>
      <trkpt lat="42.5761" lon="1.96587">
        <ele>2312.11</ele>
        <time>2015-07-23T11:07:21Z</time>
      </trkpt>
      <trkpt lat="42.57608" lon="1.9659">
        <ele>2312.11</ele>
        <time>2015-07-23T11:07:38Z</time>
      </trkpt>
      <trkpt lat="42.57608" lon="1.9659">
        <ele>2312.59</ele>
        <time>2015-07-23T11:07:40Z</time>
      </trkpt>
      <trkpt lat="42.57604" lon="1.96605">
        <ele>2312.59</ele>
        <time>2015-07-23T11:07:52Z</time>
      </trkpt>
      <trkpt lat="42.57609" lon="1.96614">
        <ele>2311.15</ele>
        <time>2015-07-23T11:08:07Z</time>
      </trkpt>
      <trkpt lat="42.57609" lon="1.96617">
        <ele>2310.67</ele>
        <time>2015-07-23T11:08:25Z</time>
      </trkpt>
      <trkpt lat="42.57612" lon="1.96625">
        <ele>2311.15</ele>
        <time>2015-07-23T11:08:41Z</time>
      </trkpt>
      <trkpt lat="42.57613" lon="1.96627">
        <ele>2311.15</ele>
        <time>2015-07-23T11:08:59Z</time>
      </trkpt>
      <trkpt lat="42.57613" lon="1.96628">
        <ele>2311.15</ele>
        <time>2015-07-23T11:09:15Z</time>
      </trkpt>
      <trkpt lat="42.57614" lon="1.96628">
        <ele>2310.19</ele>
        <time>2015-07-23T11:09:35Z</time>
      </trkpt>
      <trkpt lat="42.57615" lon="1.96634">
        <ele>2310.67</ele>
        <time>2015-07-23T11:09:44Z</time>
      </trkpt>
      <trkpt lat="42.57615" lon="1.96644">
        <ele>2311.63</ele>
        <time>2015-07-23T11:09:56Z</time>
      </trkpt>
      <trkpt lat="42.57616" lon="1.96656">
        <ele>2313.07</ele>
        <time>2015-07-23T11:10:07Z</time>
      </trkpt>
      <trkpt lat="42.57618" lon="1.96666">
        <ele>2314.03</ele>
        <time>2015-07-23T11:10:19Z</time>
      </trkpt>
      <trkpt lat="42.5762" lon="1.96679">
        <ele>2314.03</ele>
        <time>2015-07-23T11:10:31Z</time>
      </trkpt>
      <trkpt lat="42.57617" lon="1.9669">
        <ele>2315.95</ele>
        <time>2015-07-23T11:10:43Z</time>
      </trkpt>
      <trkpt lat="42.57615" lon="1.96695">
        <ele>2316.91</ele>
        <time>2015-07-23T11:10:48Z</time>
      </trkpt>
      <trkpt lat="42.57613" lon="1.96706">
        <ele>2318.84</ele>
        <time>2015-07-23T11:11:01Z</time>
      </trkpt>
      <trkpt lat="42.57609" lon="1.96716">
        <ele>2318.36</ele>
        <time>2015-07-23T11:11:13Z</time>
      </trkpt>
      <trkpt lat="42.57608" lon="1.96726">
        <ele>2317.88</ele>
        <time>2015-07-23T11:11:24Z</time>
      </trkpt>
      <trkpt lat="42.57602" lon="1.96736">
        <ele>2315.95</ele>
        <time>2015-07-23T11:11:37Z</time>
      </trkpt>
      <trkpt lat="42.57599" lon="1.96743">
        <ele>2314.03</ele>
        <time>2015-07-23T11:11:52Z</time>
      </trkpt>
      <trkpt lat="42.57597" lon="1.96754">
        <ele>2311.63</ele>
        <time>2015-07-23T11:12:04Z</time>
      </trkpt>
      <trkpt lat="42.57594" lon="1.96765">
        <ele>2309.7</ele>
        <time>2015-07-23T11:12:15Z</time>
      </trkpt>
      <trkpt lat="42.57592" lon="1.96777">
        <ele>2309.7</ele>
        <time>2015-07-23T11:12:24Z</time>
      </trkpt>
      <trkpt lat="42.57588" lon="1.96786">
        <ele>2310.67</ele>
        <time>2015-07-23T11:12:34Z</time>
      </trkpt>
      <trkpt lat="42.57587" lon="1.96796">
        <ele>2310.67</ele>
        <time>2015-07-23T11:12:41Z</time>
      </trkpt>
      <trkpt lat="42.57581" lon="1.96809">
        <ele>2311.15</ele>
        <time>2015-07-23T11:12:52Z</time>
      </trkpt>
      <trkpt lat="42.57579" lon="1.96828">
        <ele>2311.63</ele>
        <time>2015-07-23T11:13:05Z</time>
      </trkpt>
      <trkpt lat="42.57577" lon="1.96841">
        <ele>2309.7</ele>
        <time>2015-07-23T11:13:16Z</time>
      </trkpt>
      <trkpt lat="42.57574" lon="1.96853">
        <ele>2308.74</ele>
        <time>2015-07-23T11:13:27Z</time>
      </trkpt>
      <trkpt lat="42.57569" lon="1.96865">
        <ele>2307.78</ele>
        <time>2015-07-23T11:13:39Z</time>
      </trkpt>
      <trkpt lat="42.57564" lon="1.96873">
        <ele>2305.86</ele>
        <time>2015-07-23T11:13:52Z</time>
      </trkpt>
      <trkpt lat="42.5756" lon="1.96877">
        <ele>2304.42</ele>
        <time>2015-07-23T11:13:58Z</time>
      </trkpt>
      <trkpt lat="42.57558" lon="1.96883">
        <ele>2303.46</ele>
        <time>2015-07-23T11:14:02Z</time>
      </trkpt>
      <trkpt lat="42.57554" lon="1.96899">
        <ele>2302.01</ele>
        <time>2015-07-23T11:14:14Z</time>
      </trkpt>
      <trkpt lat="42.57553" lon="1.96913">
        <ele>2299.61</ele>
        <time>2015-07-23T11:14:26Z</time>
      </trkpt>
      <trkpt lat="42.57553" lon="1.9692">
        <ele>2298.17</ele>
        <time>2015-07-23T11:14:32Z</time>
      </trkpt>
      <trkpt lat="42.57558" lon="1.96931">
        <ele>2298.17</ele>
        <time>2015-07-23T11:14:46Z</time>
      </trkpt>
      <trkpt lat="42.57559" lon="1.96931">
        <ele>2298.17</ele>
        <time>2015-07-23T11:15:12Z</time>
      </trkpt>
      <trkpt lat="42.57558" lon="1.96934">
        <ele>2297.69</ele>
        <time>2015-07-23T11:15:35Z</time>
      </trkpt>
      <trkpt lat="42.57559" lon="1.9694">
        <ele>2296.25</ele>
        <time>2015-07-23T11:15:46Z</time>
      </trkpt>
      <trkpt lat="42.57559" lon="1.96945">
        <ele>2296.25</ele>
        <time>2015-07-23T11:15:50Z</time>
      </trkpt>
      <trkpt lat="42.57557" lon="1.9695">
        <ele>2295.28</ele>
        <time>2015-07-23T11:15:54Z</time>
      </trkpt>
      <trkpt lat="42.57554" lon="1.96955">
        <ele>2294.32</ele>
        <time>2015-07-23T11:15:59Z</time>
      </trkpt>
      <trkpt lat="42.57552" lon="1.96955">
        <ele>2294.32</ele>
        <time>2015-07-23T11:16:01Z</time>
      </trkpt>
      <trkpt lat="42.57548" lon="1.96953">
        <ele>2293.36</ele>
        <time>2015-07-23T11:16:14Z</time>
      </trkpt>
      <trkpt lat="42.57546" lon="1.96955">
        <ele>2293.36</ele>
        <time>2015-07-23T11:16:18Z</time>
      </trkpt>
      <trkpt lat="42.57542" lon="1.96957">
        <ele>2292.4</ele>
        <time>2015-07-23T11:16:25Z</time>
      </trkpt>
      <trkpt lat="42.57541" lon="1.9696">
        <ele>2291.44</ele>
        <time>2015-07-23T11:16:29Z</time>
      </trkpt>
      <trkpt lat="42.57538" lon="1.96969">
        <ele>2290</ele>
        <time>2015-07-23T11:16:41Z</time>
      </trkpt>
      <trkpt lat="42.57536" lon="1.96976">
        <ele>2288.08</ele>
        <time>2015-07-23T11:16:48Z</time>
      </trkpt>
      <trkpt lat="42.57533" lon="1.96989">
        <ele>2286.63</ele>
        <time>2015-07-23T11:17:00Z</time>
      </trkpt>
      <trkpt lat="42.57531" lon="1.96995">
        <ele>2284.71</ele>
        <time>2015-07-23T11:17:11Z</time>
      </trkpt>
      <trkpt lat="42.57529" lon="1.97003">
        <ele>2282.79</ele>
        <time>2015-07-23T11:17:22Z</time>
      </trkpt>
      <trkpt lat="42.57525" lon="1.97008">
        <ele>2281.35</ele>
        <time>2015-07-23T11:17:32Z</time>
      </trkpt>
      <trkpt lat="42.57525" lon="1.97015">
        <ele>2279.42</ele>
        <time>2015-07-23T11:17:38Z</time>
      </trkpt>
      <trkpt lat="42.57525" lon="1.97024">
        <ele>2277.5</ele>
        <time>2015-07-23T11:17:47Z</time>
      </trkpt>
      <trkpt lat="42.57521" lon="1.97036">
        <ele>2275.1</ele>
        <time>2015-07-23T11:17:58Z</time>
      </trkpt>
      <trkpt lat="42.57517" lon="1.97047">
        <ele>2273.17</ele>
        <time>2015-07-23T11:18:10Z</time>
      </trkpt>
      <trkpt lat="42.57516" lon="1.97048">
        <ele>2272.69</ele>
        <time>2015-07-23T11:18:12Z</time>
      </trkpt>
      <trkpt lat="42.57515" lon="1.97053">
        <ele>2272.21</ele>
        <time>2015-07-23T11:18:17Z</time>
      </trkpt>
      <trkpt lat="42.57508" lon="1.97069">
        <ele>2270.77</ele>
        <time>2015-07-23T11:18:29Z</time>
      </trkpt>
      <trkpt lat="42.57505" lon="1.97072">
        <ele>2269.81</ele>
        <time>2015-07-23T11:18:33Z</time>
      </trkpt>
      <trkpt lat="42.57502" lon="1.97081">
        <ele>2268.85</ele>
        <time>2015-07-23T11:18:43Z</time>
      </trkpt>
      <trkpt lat="42.57498" lon="1.97092">
        <ele>2265.96</ele>
        <time>2015-07-23T11:18:56Z</time>
      </trkpt>
      <trkpt lat="42.57496" lon="1.97107">
        <ele>2263.08</ele>
        <time>2015-07-23T11:19:10Z</time>
      </trkpt>
      <trkpt lat="42.57494" lon="1.97117">
        <ele>2261.64</ele>
        <time>2015-07-23T11:19:21Z</time>
      </trkpt>
      <trkpt lat="42.57492" lon="1.97128">
        <ele>2260.2</ele>
        <time>2015-07-23T11:19:30Z</time>
      </trkpt>
      <trkpt lat="42.57491" lon="1.97132">
        <ele>2259.72</ele>
        <time>2015-07-23T11:19:35Z</time>
      </trkpt>
      <trkpt lat="42.57491" lon="1.97139">
        <ele>2258.75</ele>
        <time>2015-07-23T11:19:41Z</time>
      </trkpt>
      <trkpt lat="42.57487" lon="1.97153">
        <ele>2255.87</ele>
        <time>2015-07-23T11:19:54Z</time>
      </trkpt>
      <trkpt lat="42.57484" lon="1.97163">
        <ele>2255.39</ele>
        <time>2015-07-23T11:20:03Z</time>
      </trkpt>
      <trkpt lat="42.5748" lon="1.97168">
        <ele>2253.95</ele>
        <time>2015-07-23T11:20:13Z</time>
      </trkpt>
      <trkpt lat="42.57477" lon="1.97177">
        <ele>2252.99</ele>
        <time>2015-07-23T11:20:24Z</time>
      </trkpt>
      <trkpt lat="42.57475" lon="1.97178">
        <ele>2253.47</ele>
        <time>2015-07-23T11:20:37Z</time>
      </trkpt>
      <trkpt lat="42.57478" lon="1.97184">
        <ele>2252.99</ele>
        <time>2015-07-23T11:20:49Z</time>
      </trkpt>
      <trkpt lat="42.57481" lon="1.97192">
        <ele>2253.47</ele>
        <time>2015-07-23T11:20:58Z</time>
      </trkpt>
      <trkpt lat="42.57485" lon="1.97192">
        <ele>2253.47</ele>
        <time>2015-07-23T11:21:10Z</time>
      </trkpt>
      <trkpt lat="42.57485" lon="1.97195">
        <ele>2253.47</ele>
        <time>2015-07-23T11:21:30Z</time>
      </trkpt>
      <trkpt lat="42.57488" lon="1.97202">
        <ele>2253.47</ele>
        <time>2015-07-23T11:21:48Z</time>
      </trkpt>
      <trkpt lat="42.57487" lon="1.97208">
        <ele>2252.99</ele>
        <time>2015-07-23T11:21:54Z</time>
      </trkpt>
      <trkpt lat="42.57485" lon="1.97211">
        <ele>2252.51</ele>
        <time>2015-07-23T11:21:57Z</time>
      </trkpt>
      <trkpt lat="42.57485" lon="1.97221">
        <ele>2252.99</ele>
        <time>2015-07-23T11:22:04Z</time>
      </trkpt>
      <trkpt lat="42.57491" lon="1.97238">
        <ele>2252.51</ele>
        <time>2015-07-23T11:22:19Z</time>
      </trkpt>
      <trkpt lat="42.57491" lon="1.97245">
        <ele>2251.54</ele>
        <time>2015-07-23T11:22:31Z</time>
      </trkpt>
      <trkpt lat="42.57492" lon="1.97247">
        <ele>2251.06</ele>
        <time>2015-07-23T11:22:42Z</time>
      </trkpt>
      <trkpt lat="42.57493" lon="1.97248">
        <ele>2251.06</ele>
        <time>2015-07-23T11:22:53Z</time>
      </trkpt>
      <trkpt lat="42.57495" lon="1.9725">
        <ele>2251.06</ele>
        <time>2015-07-23T11:22:55Z</time>
      </trkpt>
      <trkpt lat="42.57508" lon="1.97254">
        <ele>2251.54</ele>
        <time>2015-07-23T11:23:08Z</time>
      </trkpt>
      <trkpt lat="42.57515" lon="1.97263">
        <ele>2252.99</ele>
        <time>2015-07-23T11:23:21Z</time>
      </trkpt>
      <trkpt lat="42.57521" lon="1.97266">
        <ele>2254.91</ele>
        <time>2015-07-23T11:23:32Z</time>
      </trkpt>
      <trkpt lat="42.57526" lon="1.97264">
        <ele>2256.35</ele>
        <time>2015-07-23T11:23:43Z</time>
      </trkpt>
      <trkpt lat="42.57528" lon="1.97266">
        <ele>2256.83</ele>
        <time>2015-07-23T11:23:57Z</time>
      </trkpt>
      <trkpt lat="42.57535" lon="1.97268">
        <ele>2258.27</ele>
        <time>2015-07-23T11:24:10Z</time>
      </trkpt>
      <trkpt lat="42.57537" lon="1.97266">
        <ele>2258.27</ele>
        <time>2015-07-23T11:24:13Z</time>
      </trkpt>
      <trkpt lat="42.5754" lon="1.97265">
        <ele>2258.75</ele>
        <time>2015-07-23T11:24:17Z</time>
      </trkpt>
      <trkpt lat="42.57548" lon="1.97259">
        <ele>2260.68</ele>
        <time>2015-07-23T11:24:32Z</time>
      </trkpt>
      <trkpt lat="42.57551" lon="1.97266">
        <ele>2263.56</ele>
        <time>2015-07-23T11:24:41Z</time>
      </trkpt>
      <trkpt lat="42.57551" lon="1.97267">
        <ele>2262.6</ele>
        <time>2015-07-23T11:24:42Z</time>
      </trkpt>
      <trkpt lat="42.57553" lon="1.97269">
        <ele>2261.64</ele>
        <time>2015-07-23T11:24:44Z</time>
      </trkpt>
      <trkpt lat="42.57556" lon="1.97279">
        <ele>2261.16</ele>
        <time>2015-07-23T11:24:52Z</time>
      </trkpt>
      <trkpt lat="42.57559" lon="1.97283">
        <ele>2261.16</ele>
        <time>2015-07-23T11:24:55Z</time>
      </trkpt>
      <trkpt lat="42.57566" lon="1.973">
        <ele>2261.16</ele>
        <time>2015-07-23T11:25:11Z</time>
      </trkpt>
      <trkpt lat="42.57569" lon="1.9731">
        <ele>2259.72</ele>
        <time>2015-07-23T11:25:24Z</time>
      </trkpt>
      <trkpt lat="42.57569" lon="1.97314">
        <ele>2258.27</ele>
        <time>2015-07-23T11:25:39Z</time>
      </trkpt>
      <trkpt lat="42.57568" lon="1.97319">
        <ele>2256.83</ele>
        <time>2015-07-23T11:25:56Z</time>
      </trkpt>
      <trkpt lat="42.57569" lon="1.97325">
        <ele>2254.43</ele>
        <time>2015-07-23T11:26:09Z</time>
      </trkpt>
      <trkpt lat="42.57571" lon="1.97329">
        <ele>2252.03</ele>
        <time>2015-07-23T11:26:21Z</time>
      </trkpt>
      <trkpt lat="42.57574" lon="1.97334">
        <ele>2250.58</ele>
        <time>2015-07-23T11:26:29Z</time>
      </trkpt>
      <trkpt lat="42.57573" lon="1.9734">
        <ele>2251.06</ele>
        <time>2015-07-23T11:26:34Z</time>
      </trkpt>
      <trkpt lat="42.57572" lon="1.97343">
        <ele>2251.06</ele>
        <time>2015-07-23T11:26:37Z</time>
      </trkpt>
      <trkpt lat="42.57571" lon="1.97346">
        <ele>2250.58</ele>
        <time>2015-07-23T11:26:39Z</time>
      </trkpt>
      <trkpt lat="42.57572" lon="1.9735">
        <ele>2250.1</ele>
        <time>2015-07-23T11:26:43Z</time>
      </trkpt>
      <trkpt lat="42.57569" lon="1.97359">
        <ele>2249.62</ele>
        <time>2015-07-23T11:26:49Z</time>
      </trkpt>
      <trkpt lat="42.57564" lon="1.97364">
        <ele>2247.22</ele>
        <time>2015-07-23T11:27:02Z</time>
      </trkpt>
      <trkpt lat="42.57564" lon="1.97365">
        <ele>2247.22</ele>
        <time>2015-07-23T11:27:25Z</time>
      </trkpt>
      <trkpt lat="42.57563" lon="1.97374">
        <ele>2248.18</ele>
        <time>2015-07-23T11:27:38Z</time>
      </trkpt>
      <trkpt lat="42.57562" lon="1.9737">
        <ele>2247.7</ele>
        <time>2015-07-23T11:27:49Z</time>
      </trkpt>
      <trkpt lat="42.57562" lon="1.97369">
        <ele>2247.7</ele>
        <time>2015-07-23T11:27:51Z</time>
      </trkpt>
      <trkpt lat="42.57562" lon="1.97365">
        <ele>2246.74</ele>
        <time>2015-07-23T11:28:02Z</time>
      </trkpt>
      <trkpt lat="42.57561" lon="1.97365">
        <ele>2247.22</ele>
        <time>2015-07-23T11:28:31Z</time>
      </trkpt>
      <trkpt lat="42.57561" lon="1.97365">
        <ele>2244.33</ele>
        <time>2015-07-23T11:28:35Z</time>
      </trkpt>
      <trkpt lat="42.57563" lon="1.97364">
        <ele>2243.37</ele>
        <time>2015-07-23T13:23:11Z</time>
      </trkpt>
      <trkpt lat="42.57565" lon="1.97368">
        <ele>2244.33</ele>
        <time>2015-07-23T13:23:37Z</time>
      </trkpt>
      <trkpt lat="42.57561" lon="1.97365">
        <ele>2244.33</ele>
        <time>2015-07-23T13:24:02Z</time>
      </trkpt>
      <trkpt lat="42.57561" lon="1.97367">
        <ele>2243.37</ele>
        <time>2015-07-23T13:24:17Z</time>
      </trkpt>
      <trkpt lat="42.57562" lon="1.97366">
        <ele>2242.89</ele>
        <time>2015-07-23T13:24:42Z</time>
      </trkpt>
      <trkpt lat="42.57562" lon="1.97365">
        <ele>2243.85</ele>
        <time>2015-07-23T13:24:48Z</time>
      </trkpt>
      <trkpt lat="42.57561" lon="1.97365">
        <ele>2243.85</ele>
        <time>2015-07-23T13:24:56Z</time>
      </trkpt>
      <trkpt lat="42.57559" lon="1.97361">
        <ele>2244.33</ele>
        <time>2015-07-23T13:25:01Z</time>
      </trkpt>
      <trkpt lat="42.5756" lon="1.97355">
        <ele>2244.33</ele>
        <time>2015-07-23T13:25:11Z</time>
      </trkpt>
      <trkpt lat="42.57559" lon="1.97345">
        <ele>2243.85</ele>
        <time>2015-07-23T13:25:22Z</time>
      </trkpt>
      <trkpt lat="42.57556" lon="1.9734">
        <ele>2245.3</ele>
        <time>2015-07-23T13:25:32Z</time>
      </trkpt>
      <trkpt lat="42.57552" lon="1.97338">
        <ele>2245.3</ele>
        <time>2015-07-23T13:25:37Z</time>
      </trkpt>
      <trkpt lat="42.57548" lon="1.97335">
        <ele>2245.78</ele>
        <time>2015-07-23T13:25:45Z</time>
      </trkpt>
      <trkpt lat="42.57543" lon="1.97328">
        <ele>2247.22</ele>
        <time>2015-07-23T13:25:56Z</time>
      </trkpt>
      <trkpt lat="42.57539" lon="1.9732">
        <ele>2247.7</ele>
        <time>2015-07-23T13:26:09Z</time>
      </trkpt>
      <trkpt lat="42.57535" lon="1.97315">
        <ele>2247.7</ele>
        <time>2015-07-23T13:26:19Z</time>
      </trkpt>
      <trkpt lat="42.57529" lon="1.97305">
        <ele>2246.26</ele>
        <time>2015-07-23T13:26:32Z</time>
      </trkpt>
      <trkpt lat="42.57524" lon="1.97305">
        <ele>2245.3</ele>
        <time>2015-07-23T13:26:45Z</time>
      </trkpt>
      <trkpt lat="42.57519" lon="1.973">
        <ele>2245.3</ele>
        <time>2015-07-23T13:26:57Z</time>
      </trkpt>
      <trkpt lat="42.57518" lon="1.97299">
        <ele>2245.78</ele>
        <time>2015-07-23T13:27:03Z</time>
      </trkpt>
      <trkpt lat="42.57514" lon="1.97291">
        <ele>2245.3</ele>
        <time>2015-07-23T13:27:11Z</time>
      </trkpt>
      <trkpt lat="42.57511" lon="1.9729">
        <ele>2244.33</ele>
        <time>2015-07-23T13:27:17Z</time>
      </trkpt>
      <trkpt lat="42.57501" lon="1.9729">
        <ele>2244.82</ele>
        <time>2015-07-23T13:27:28Z</time>
      </trkpt>
      <trkpt lat="42.575" lon="1.9729">
        <ele>2244.82</ele>
        <time>2015-07-23T13:27:29Z</time>
      </trkpt>
      <trkpt lat="42.57487" lon="1.97298">
        <ele>2244.33</ele>
        <time>2015-07-23T13:27:44Z</time>
      </trkpt>
      <trkpt lat="42.57484" lon="1.973">
        <ele>2243.85</ele>
        <time>2015-07-23T13:27:54Z</time>
      </trkpt>
      <trkpt lat="42.5748" lon="1.97311">
        <ele>2243.37</ele>
        <time>2015-07-23T13:28:06Z</time>
      </trkpt>
      <trkpt lat="42.57474" lon="1.97313">
        <ele>2243.37</ele>
        <time>2015-07-23T13:28:12Z</time>
      </trkpt>
      <trkpt lat="42.57469" lon="1.97312">
        <ele>2243.37</ele>
        <time>2015-07-23T13:28:16Z</time>
      </trkpt>
      <trkpt lat="42.57464" lon="1.97303">
        <ele>2243.37</ele>
        <time>2015-07-23T13:28:22Z</time>
      </trkpt>
      <trkpt lat="42.57464" lon="1.97287">
        <ele>2241.93</ele>
        <time>2015-07-23T13:28:36Z</time>
      </trkpt>
      <trkpt lat="42.57464" lon="1.97283">
        <ele>2242.89</ele>
        <time>2015-07-23T13:28:42Z</time>
      </trkpt>
      <trkpt lat="42.57463" lon="1.97273">
        <ele>2243.37</ele>
        <time>2015-07-23T13:28:48Z</time>
      </trkpt>
      <trkpt lat="42.5746" lon="1.97254">
        <ele>2242.89</ele>
        <time>2015-07-23T13:29:01Z</time>
      </trkpt>
      <trkpt lat="42.57454" lon="1.97248">
        <ele>2243.37</ele>
        <time>2015-07-23T13:29:08Z</time>
      </trkpt>
      <trkpt lat="42.5745" lon="1.97244">
        <ele>2243.37</ele>
        <time>2015-07-23T13:29:12Z</time>
      </trkpt>
      <trkpt lat="42.57445" lon="1.97241">
        <ele>2242.41</ele>
        <time>2015-07-23T13:29:21Z</time>
      </trkpt>
      <trkpt lat="42.57439" lon="1.97242">
        <ele>2241.93</ele>
        <time>2015-07-23T13:29:32Z</time>
      </trkpt>
      <trkpt lat="42.57436" lon="1.9724">
        <ele>2241.93</ele>
        <time>2015-07-23T13:29:37Z</time>
      </trkpt>
      <trkpt lat="42.57428" lon="1.97244">
        <ele>2240.01</ele>
        <time>2015-07-23T13:29:49Z</time>
      </trkpt>
      <trkpt lat="42.57419" lon="1.97255">
        <ele>2239.05</ele>
        <time>2015-07-23T13:29:59Z</time>
      </trkpt>
      <trkpt lat="42.57413" lon="1.9726">
        <ele>2239.53</ele>
        <time>2015-07-23T13:30:06Z</time>
      </trkpt>
      <trkpt lat="42.5741" lon="1.97259">
        <ele>2239.05</ele>
        <time>2015-07-23T13:30:16Z</time>
      </trkpt>
      <trkpt lat="42.5741" lon="1.97266">
        <ele>2240.01</ele>
        <time>2015-07-23T13:30:23Z</time>
      </trkpt>
      <trkpt lat="42.57403" lon="1.97278">
        <ele>2240.01</ele>
        <time>2015-07-23T13:30:34Z</time>
      </trkpt>
      <trkpt lat="42.57397" lon="1.97292">
        <ele>2240.97</ele>
        <time>2015-07-23T13:30:46Z</time>
      </trkpt>
      <trkpt lat="42.57396" lon="1.97294">
        <ele>2240.97</ele>
        <time>2015-07-23T13:30:48Z</time>
      </trkpt>
      <trkpt lat="42.57394" lon="1.97297">
        <ele>2241.45</ele>
        <time>2015-07-23T13:30:51Z</time>
      </trkpt>
      <trkpt lat="42.5739" lon="1.97309">
        <ele>2241.45</ele>
        <time>2015-07-23T13:31:00Z</time>
      </trkpt>
      <trkpt lat="42.57387" lon="1.97327">
        <ele>2241.93</ele>
        <time>2015-07-23T13:31:11Z</time>
      </trkpt>
      <trkpt lat="42.57387" lon="1.97329">
        <ele>2242.41</ele>
        <time>2015-07-23T13:31:13Z</time>
      </trkpt>
      <trkpt lat="42.57388" lon="1.97332">
        <ele>2242.41</ele>
        <time>2015-07-23T13:31:15Z</time>
      </trkpt>
      <trkpt lat="42.57388" lon="1.9735">
        <ele>2244.82</ele>
        <time>2015-07-23T13:31:27Z</time>
      </trkpt>
      <trkpt lat="42.57388" lon="1.97353">
        <ele>2244.82</ele>
        <time>2015-07-23T13:31:30Z</time>
      </trkpt>
      <trkpt lat="42.57381" lon="1.97375">
        <ele>2245.78</ele>
        <time>2015-07-23T13:31:45Z</time>
      </trkpt>
      <trkpt lat="42.57381" lon="1.97377">
        <ele>2245.78</ele>
        <time>2015-07-23T13:31:47Z</time>
      </trkpt>
      <trkpt lat="42.57377" lon="1.97393">
        <ele>2245.3</ele>
        <time>2015-07-23T13:31:59Z</time>
      </trkpt>
      <trkpt lat="42.57374" lon="1.97406">
        <ele>2245.3</ele>
        <time>2015-07-23T13:32:09Z</time>
      </trkpt>
      <trkpt lat="42.57372" lon="1.97413">
        <ele>2243.85</ele>
        <time>2015-07-23T13:32:13Z</time>
      </trkpt>
      <trkpt lat="42.57368" lon="1.9743">
        <ele>2244.33</ele>
        <time>2015-07-23T13:32:22Z</time>
      </trkpt>
      <trkpt lat="42.57363" lon="1.9744">
        <ele>2243.85</ele>
        <time>2015-07-23T13:32:30Z</time>
      </trkpt>
      <trkpt lat="42.5736" lon="1.97443">
        <ele>2244.33</ele>
        <time>2015-07-23T13:32:33Z</time>
      </trkpt>
      <trkpt lat="42.57352" lon="1.97464">
        <ele>2244.82</ele>
        <time>2015-07-23T13:32:47Z</time>
      </trkpt>
      <trkpt lat="42.57342" lon="1.9748">
        <ele>2244.33</ele>
        <time>2015-07-23T13:33:00Z</time>
      </trkpt>
      <trkpt lat="42.57331" lon="1.97496">
        <ele>2242.41</ele>
        <time>2015-07-23T13:33:13Z</time>
      </trkpt>
      <trkpt lat="42.57321" lon="1.97512">
        <ele>2240.97</ele>
        <time>2015-07-23T13:33:25Z</time>
      </trkpt>
      <trkpt lat="42.57316" lon="1.97519">
        <ele>2240.49</ele>
        <time>2015-07-23T13:33:33Z</time>
      </trkpt>
      <trkpt lat="42.57312" lon="1.9753">
        <ele>2238.57</ele>
        <time>2015-07-23T13:33:45Z</time>
      </trkpt>
      <trkpt lat="42.57312" lon="1.97533">
        <ele>2237.61</ele>
        <time>2015-07-23T13:33:47Z</time>
      </trkpt>
      <trkpt lat="42.57311" lon="1.97535">
        <ele>2237.13</ele>
        <time>2015-07-23T13:33:49Z</time>
      </trkpt>
      <trkpt lat="42.5731" lon="1.97541">
        <ele>2236.16</ele>
        <time>2015-07-23T13:33:54Z</time>
      </trkpt>
      <trkpt lat="42.57306" lon="1.97549">
        <ele>2235.68</ele>
        <time>2015-07-23T13:34:06Z</time>
      </trkpt>
      <trkpt lat="42.57306" lon="1.97551">
        <ele>2235.68</ele>
        <time>2015-07-23T13:34:07Z</time>
      </trkpt>
      <trkpt lat="42.57301" lon="1.97561">
        <ele>2234.72</ele>
        <time>2015-07-23T13:34:16Z</time>
      </trkpt>
      <trkpt lat="42.57296" lon="1.97571">
        <ele>2233.76</ele>
        <time>2015-07-23T13:34:27Z</time>
      </trkpt>
      <trkpt lat="42.57292" lon="1.97574">
        <ele>2232.8</ele>
        <time>2015-07-23T13:34:33Z</time>
      </trkpt>
      <trkpt lat="42.57286" lon="1.97581">
        <ele>2230.88</ele>
        <time>2015-07-23T13:34:44Z</time>
      </trkpt>
      <trkpt lat="42.57284" lon="1.97587">
        <ele>2230.4</ele>
        <time>2015-07-23T13:34:49Z</time>
      </trkpt>
      <trkpt lat="42.5728" lon="1.97599">
        <ele>2231.36</ele>
        <time>2015-07-23T13:34:59Z</time>
      </trkpt>
      <trkpt lat="42.57275" lon="1.97609">
        <ele>2230.88</ele>
        <time>2015-07-23T13:35:12Z</time>
      </trkpt>
      <trkpt lat="42.57267" lon="1.97625">
        <ele>2227.99</ele>
        <time>2015-07-23T13:35:26Z</time>
      </trkpt>
      <trkpt lat="42.57263" lon="1.97633">
        <ele>2227.99</ele>
        <time>2015-07-23T13:35:32Z</time>
      </trkpt>
      <trkpt lat="42.57258" lon="1.97648">
        <ele>2227.99</ele>
        <time>2015-07-23T13:35:44Z</time>
      </trkpt>
      <trkpt lat="42.57255" lon="1.97655">
        <ele>2227.51</ele>
        <time>2015-07-23T13:35:56Z</time>
      </trkpt>
      <trkpt lat="42.57254" lon="1.97659">
        <ele>2226.07</ele>
        <time>2015-07-23T13:36:02Z</time>
      </trkpt>
      <trkpt lat="42.57247" lon="1.97671">
        <ele>2225.11</ele>
        <time>2015-07-23T13:36:14Z</time>
      </trkpt>
      <trkpt lat="42.57246" lon="1.97674">
        <ele>2226.07</ele>
        <time>2015-07-23T13:36:17Z</time>
      </trkpt>
      <trkpt lat="42.57244" lon="1.97677">
        <ele>2225.59</ele>
        <time>2015-07-23T13:36:20Z</time>
      </trkpt>
      <trkpt lat="42.57237" lon="1.9769">
        <ele>2223.19</ele>
        <time>2015-07-23T13:36:32Z</time>
      </trkpt>
      <trkpt lat="42.57236" lon="1.97695">
        <ele>2223.19</ele>
        <time>2015-07-23T13:36:38Z</time>
      </trkpt>
      <trkpt lat="42.57233" lon="1.97701">
        <ele>2222.22</ele>
        <time>2015-07-23T13:36:43Z</time>
      </trkpt>
      <trkpt lat="42.57229" lon="1.97716">
        <ele>2220.3</ele>
        <time>2015-07-23T13:36:53Z</time>
      </trkpt>
      <trkpt lat="42.57226" lon="1.97722">
        <ele>2220.3</ele>
        <time>2015-07-23T13:36:57Z</time>
      </trkpt>
      <trkpt lat="42.57221" lon="1.97736">
        <ele>2218.86</ele>
        <time>2015-07-23T13:37:06Z</time>
      </trkpt>
      <trkpt lat="42.57217" lon="1.97743">
        <ele>2218.86</ele>
        <time>2015-07-23T13:37:11Z</time>
      </trkpt>
      <trkpt lat="42.57214" lon="1.97747">
        <ele>2217.42</ele>
        <time>2015-07-23T13:37:15Z</time>
      </trkpt>
      <trkpt lat="42.57211" lon="1.97751">
        <ele>2217.9</ele>
        <time>2015-07-23T13:37:18Z</time>
      </trkpt>
      <trkpt lat="42.572" lon="1.9776">
        <ele>2216.94</ele>
        <time>2015-07-23T13:37:30Z</time>
      </trkpt>
      <trkpt lat="42.57196" lon="1.97761">
        <ele>2217.9</ele>
        <time>2015-07-23T13:37:33Z</time>
      </trkpt>
      <trkpt lat="42.57193" lon="1.97765">
        <ele>2217.42</ele>
        <time>2015-07-23T13:37:37Z</time>
      </trkpt>
      <trkpt lat="42.57187" lon="1.97775">
        <ele>2215.98</ele>
        <time>2015-07-23T13:37:48Z</time>
      </trkpt>
      <trkpt lat="42.5718" lon="1.97782">
        <ele>2215.01</ele>
        <time>2015-07-23T13:37:55Z</time>
      </trkpt>
      <trkpt lat="42.57171" lon="1.97794">
        <ele>2213.57</ele>
        <time>2015-07-23T13:38:07Z</time>
      </trkpt>
      <trkpt lat="42.57169" lon="1.97798">
        <ele>2213.09</ele>
        <time>2015-07-23T13:38:10Z</time>
      </trkpt>
      <trkpt lat="42.57167" lon="1.97803">
        <ele>2211.65</ele>
        <time>2015-07-23T13:38:14Z</time>
      </trkpt>
      <trkpt lat="42.57161" lon="1.97814">
        <ele>2210.21</ele>
        <time>2015-07-23T13:38:25Z</time>
      </trkpt>
      <trkpt lat="42.57156" lon="1.97823">
        <ele>2208.29</ele>
        <time>2015-07-23T13:38:34Z</time>
      </trkpt>
      <trkpt lat="42.57154" lon="1.97828">
        <ele>2207.81</ele>
        <time>2015-07-23T13:38:38Z</time>
      </trkpt>
      <trkpt lat="42.57152" lon="1.9783">
        <ele>2207.81</ele>
        <time>2015-07-23T13:38:41Z</time>
      </trkpt>
      <trkpt lat="42.57149" lon="1.97837">
        <ele>2206.84</ele>
        <time>2015-07-23T13:38:47Z</time>
      </trkpt>
      <trkpt lat="42.5714" lon="1.97846">
        <ele>2203.96</ele>
        <time>2015-07-23T13:38:59Z</time>
      </trkpt>
      <trkpt lat="42.57139" lon="1.97848">
        <ele>2203.96</ele>
        <time>2015-07-23T13:39:01Z</time>
      </trkpt>
      <trkpt lat="42.57137" lon="1.97858">
        <ele>2202.52</ele>
        <time>2015-07-23T13:39:10Z</time>
      </trkpt>
      <trkpt lat="42.57137" lon="1.97858">
        <ele>2202.52</ele>
        <time>2015-07-23T13:39:11Z</time>
      </trkpt>
      <trkpt lat="42.57134" lon="1.97867">
        <ele>2200.59</ele>
        <time>2015-07-23T13:39:23Z</time>
      </trkpt>
      <trkpt lat="42.57133" lon="1.9787">
        <ele>2200.11</ele>
        <time>2015-07-23T13:39:26Z</time>
      </trkpt>
      <trkpt lat="42.5713" lon="1.97876">
        <ele>2199.15</ele>
        <time>2015-07-23T13:39:31Z</time>
      </trkpt>
      <trkpt lat="42.57129" lon="1.97879">
        <ele>2198.67</ele>
        <time>2015-07-23T13:39:33Z</time>
      </trkpt>
      <trkpt lat="42.57123" lon="1.9788">
        <ele>2197.71</ele>
        <time>2015-07-23T13:39:45Z</time>
      </trkpt>
      <trkpt lat="42.57123" lon="1.9788">
        <ele>2197.23</ele>
        <time>2015-07-23T13:39:46Z</time>
      </trkpt>
      <trkpt lat="42.57115" lon="1.97881">
        <ele>2195.31</ele>
        <time>2015-07-23T13:39:59Z</time>
      </trkpt>
      <trkpt lat="42.57111" lon="1.97884">
        <ele>2194.83</ele>
        <time>2015-07-23T13:40:05Z</time>
      </trkpt>
      <trkpt lat="42.57105" lon="1.97888">
        <ele>2195.31</ele>
        <time>2015-07-23T13:40:10Z</time>
      </trkpt>
      <trkpt lat="42.57092" lon="1.97894">
        <ele>2192.9</ele>
        <time>2015-07-23T13:40:23Z</time>
      </trkpt>
      <trkpt lat="42.57087" lon="1.97895">
        <ele>2191.94</ele>
        <time>2015-07-23T13:40:28Z</time>
      </trkpt>
      <trkpt lat="42.5708" lon="1.97899">
        <ele>2190.5</ele>
        <time>2015-07-23T13:40:37Z</time>
      </trkpt>
      <trkpt lat="42.57072" lon="1.97907">
        <ele>2188.1</ele>
        <time>2015-07-23T13:40:50Z</time>
      </trkpt>
      <trkpt lat="42.57068" lon="1.97913">
        <ele>2187.14</ele>
        <time>2015-07-23T13:40:55Z</time>
      </trkpt>
      <trkpt lat="42.57066" lon="1.97914">
        <ele>2186.66</ele>
        <time>2015-07-23T13:40:57Z</time>
      </trkpt>
      <trkpt lat="42.57062" lon="1.97919">
        <ele>2186.66</ele>
        <time>2015-07-23T13:41:01Z</time>
      </trkpt>
      <trkpt lat="42.57055" lon="1.97923">
        <ele>2186.18</ele>
        <time>2015-07-23T13:41:08Z</time>
      </trkpt>
      <trkpt lat="42.57046" lon="1.97936">
        <ele>2185.21</ele>
        <time>2015-07-23T13:41:20Z</time>
      </trkpt>
      <trkpt lat="42.57044" lon="1.97937">
        <ele>2185.69</ele>
        <time>2015-07-23T13:41:22Z</time>
      </trkpt>
      <trkpt lat="42.57042" lon="1.97943">
        <ele>2185.69</ele>
        <time>2015-07-23T13:41:26Z</time>
      </trkpt>
      <trkpt lat="42.57039" lon="1.97947">
        <ele>2185.21</ele>
        <time>2015-07-23T13:41:30Z</time>
      </trkpt>
      <trkpt lat="42.57037" lon="1.97947">
        <ele>2185.21</ele>
        <time>2015-07-23T13:41:34Z</time>
      </trkpt>
      <trkpt lat="42.57037" lon="1.9795">
        <ele>2185.69</ele>
        <time>2015-07-23T13:41:37Z</time>
      </trkpt>
      <trkpt lat="42.5703" lon="1.97956">
        <ele>2185.21</ele>
        <time>2015-07-23T13:41:46Z</time>
      </trkpt>
      <trkpt lat="42.57022" lon="1.9796">
        <ele>2185.21</ele>
        <time>2015-07-23T13:41:52Z</time>
      </trkpt>
      <trkpt lat="42.57012" lon="1.97953">
        <ele>2185.21</ele>
        <time>2015-07-23T13:42:03Z</time>
      </trkpt>
      <trkpt lat="42.57002" lon="1.97951">
        <ele>2185.21</ele>
        <time>2015-07-23T13:42:06Z</time>
      </trkpt>
      <trkpt lat="42.5699" lon="1.9794">
        <ele>2185.69</ele>
        <time>2015-07-23T13:42:16Z</time>
      </trkpt>
      <trkpt lat="42.56983" lon="1.97935">
        <ele>2186.18</ele>
        <time>2015-07-23T13:42:27Z</time>
      </trkpt>
      <trkpt lat="42.56981" lon="1.97936">
        <ele>2185.69</ele>
        <time>2015-07-23T13:42:30Z</time>
      </trkpt>
      <trkpt lat="42.56972" lon="1.97943">
        <ele>2185.69</ele>
        <time>2015-07-23T13:42:42Z</time>
      </trkpt>
      <trkpt lat="42.56965" lon="1.97951">
        <ele>2185.69</ele>
        <time>2015-07-23T13:42:54Z</time>
      </trkpt>
      <trkpt lat="42.56965" lon="1.97951">
        <ele>2184.25</ele>
        <time>2015-07-23T13:43:11Z</time>
      </trkpt>
      <trkpt lat="42.56965" lon="1.97956">
        <ele>2185.21</ele>
        <time>2015-07-23T13:43:19Z</time>
      </trkpt>
      <trkpt lat="42.5696" lon="1.97967">
        <ele>2185.21</ele>
        <time>2015-07-23T13:43:30Z</time>
      </trkpt>
      <trkpt lat="42.56957" lon="1.97971">
        <ele>2186.18</ele>
        <time>2015-07-23T13:43:43Z</time>
      </trkpt>
      <trkpt lat="42.56946" lon="1.97983">
        <ele>2186.66</ele>
        <time>2015-07-23T13:43:57Z</time>
      </trkpt>
      <trkpt lat="42.56939" lon="1.98001">
        <ele>2188.1</ele>
        <time>2015-07-23T13:44:10Z</time>
      </trkpt>
      <trkpt lat="42.56932" lon="1.9801">
        <ele>2187.62</ele>
        <time>2015-07-23T13:44:16Z</time>
      </trkpt>
      <trkpt lat="42.56919" lon="1.98025">
        <ele>2186.18</ele>
        <time>2015-07-23T13:44:28Z</time>
      </trkpt>
      <trkpt lat="42.56912" lon="1.98035">
        <ele>2185.69</ele>
        <time>2015-07-23T13:44:35Z</time>
      </trkpt>
      <trkpt lat="42.56911" lon="1.98042">
        <ele>2184.73</ele>
        <time>2015-07-23T13:44:40Z</time>
      </trkpt>
      <trkpt lat="42.56908" lon="1.98048">
        <ele>2184.73</ele>
        <time>2015-07-23T13:44:45Z</time>
      </trkpt>
      <trkpt lat="42.56901" lon="1.98057">
        <ele>2184.73</ele>
        <time>2015-07-23T13:44:52Z</time>
      </trkpt>
      <trkpt lat="42.56889" lon="1.98068">
        <ele>2184.73</ele>
        <time>2015-07-23T13:45:04Z</time>
      </trkpt>
      <trkpt lat="42.56888" lon="1.9807">
        <ele>2184.73</ele>
        <time>2015-07-23T13:45:07Z</time>
      </trkpt>
      <trkpt lat="42.56874" lon="1.98075">
        <ele>2184.73</ele>
        <time>2015-07-23T13:45:18Z</time>
      </trkpt>
      <trkpt lat="42.56867" lon="1.98078">
        <ele>2184.25</ele>
        <time>2015-07-23T13:45:23Z</time>
      </trkpt>
      <trkpt lat="42.56859" lon="1.98081">
        <ele>2184.25</ele>
        <time>2015-07-23T13:45:30Z</time>
      </trkpt>
      <trkpt lat="42.56845" lon="1.98087">
        <ele>2183.77</ele>
        <time>2015-07-23T13:45:45Z</time>
      </trkpt>
      <trkpt lat="42.56836" lon="1.98094">
        <ele>2183.29</ele>
        <time>2015-07-23T13:45:55Z</time>
      </trkpt>
      <trkpt lat="42.56823" lon="1.98103">
        <ele>2183.29</ele>
        <time>2015-07-23T13:46:08Z</time>
      </trkpt>
      <trkpt lat="42.56813" lon="1.98124">
        <ele>2182.81</ele>
        <time>2015-07-23T13:46:22Z</time>
      </trkpt>
      <trkpt lat="42.5681" lon="1.98129">
        <ele>2181.85</ele>
        <time>2015-07-23T13:46:25Z</time>
      </trkpt>
      <trkpt lat="42.56801" lon="1.98135">
        <ele>2181.37</ele>
        <time>2015-07-23T13:46:33Z</time>
      </trkpt>
      <trkpt lat="42.56796" lon="1.98143">
        <ele>2180.89</ele>
        <time>2015-07-23T13:46:40Z</time>
      </trkpt>
      <trkpt lat="42.56793" lon="1.98147">
        <ele>2180.89</ele>
        <time>2015-07-23T13:46:43Z</time>
      </trkpt>
      <trkpt lat="42.56789" lon="1.98152">
        <ele>2180.89</ele>
        <time>2015-07-23T13:46:48Z</time>
      </trkpt>
      <trkpt lat="42.56786" lon="1.98154">
        <ele>2180.41</ele>
        <time>2015-07-23T13:46:51Z</time>
      </trkpt>
      <trkpt lat="42.56784" lon="1.98158">
        <ele>2180.89</ele>
        <time>2015-07-23T13:46:54Z</time>
      </trkpt>
      <trkpt lat="42.56779" lon="1.98163">
        <ele>2180.89</ele>
        <time>2015-07-23T13:47:02Z</time>
      </trkpt>
      <trkpt lat="42.5677" lon="1.9817">
        <ele>2180.41</ele>
        <time>2015-07-23T13:47:13Z</time>
      </trkpt>
      <trkpt lat="42.56759" lon="1.98181">
        <ele>2180.89</ele>
        <time>2015-07-23T13:47:22Z</time>
      </trkpt>
      <trkpt lat="42.56754" lon="1.98188">
        <ele>2180.41</ele>
        <time>2015-07-23T13:47:33Z</time>
      </trkpt>
      <trkpt lat="42.56748" lon="1.98197">
        <ele>2178.97</ele>
        <time>2015-07-23T13:47:43Z</time>
      </trkpt>
      <trkpt lat="42.56739" lon="1.98207">
        <ele>2178</ele>
        <time>2015-07-23T13:47:54Z</time>
      </trkpt>
      <trkpt lat="42.56739" lon="1.98211">
        <ele>2177.04</ele>
        <time>2015-07-23T13:48:06Z</time>
      </trkpt>
      <trkpt lat="42.56741" lon="1.98213">
        <ele>2178</ele>
        <time>2015-07-23T13:48:24Z</time>
      </trkpt>
      <trkpt lat="42.56742" lon="1.98214">
        <ele>2177.52</ele>
        <time>2015-07-23T13:48:47Z</time>
      </trkpt>
      <trkpt lat="42.5674" lon="1.98218">
        <ele>2178</ele>
        <time>2015-07-23T13:49:02Z</time>
      </trkpt>
      <trkpt lat="42.56738" lon="1.98224">
        <ele>2177.52</ele>
        <time>2015-07-23T13:49:06Z</time>
      </trkpt>
      <trkpt lat="42.56729" lon="1.98237">
        <ele>2177.04</ele>
        <time>2015-07-23T13:49:18Z</time>
      </trkpt>
      <trkpt lat="42.56724" lon="1.9824">
        <ele>2176.56</ele>
        <time>2015-07-23T13:49:28Z</time>
      </trkpt>
      <trkpt lat="42.56724" lon="1.9824">
        <ele>2176.56</ele>
        <time>2015-07-23T13:49:29Z</time>
      </trkpt>
      <trkpt lat="42.56713" lon="1.98241">
        <ele>2175.6</ele>
        <time>2015-07-23T13:49:40Z</time>
      </trkpt>
      <trkpt lat="42.56709" lon="1.98245">
        <ele>2174.16</ele>
        <time>2015-07-23T13:49:47Z</time>
      </trkpt>
      <trkpt lat="42.56706" lon="1.98247">
        <ele>2173.68</ele>
        <time>2015-07-23T13:49:50Z</time>
      </trkpt>
      <trkpt lat="42.56702" lon="1.98246">
        <ele>2173.68</ele>
        <time>2015-07-23T13:49:53Z</time>
      </trkpt>
      <trkpt lat="42.56694" lon="1.98247">
        <ele>2172.72</ele>
        <time>2015-07-23T13:50:06Z</time>
      </trkpt>
      <trkpt lat="42.56687" lon="1.9825">
        <ele>2170.31</ele>
        <time>2015-07-23T13:50:17Z</time>
      </trkpt>
      <trkpt lat="42.56677" lon="1.98257">
        <ele>2168.39</ele>
        <time>2015-07-23T13:50:30Z</time>
      </trkpt>
      <trkpt lat="42.56671" lon="1.98262">
        <ele>2165.51</ele>
        <time>2015-07-23T13:50:42Z</time>
      </trkpt>
      <trkpt lat="42.56669" lon="1.98269">
        <ele>2164.06</ele>
        <time>2015-07-23T13:50:51Z</time>
      </trkpt>
      <trkpt lat="42.56658" lon="1.98268">
        <ele>2163.1</ele>
        <time>2015-07-23T13:51:01Z</time>
      </trkpt>
      <trkpt lat="42.56657" lon="1.98269">
        <ele>2163.1</ele>
        <time>2015-07-23T13:51:02Z</time>
      </trkpt>
      <trkpt lat="42.5665" lon="1.98267">
        <ele>2162.14</ele>
        <time>2015-07-23T13:51:13Z</time>
      </trkpt>
      <trkpt lat="42.56641" lon="1.9827">
        <ele>2160.7</ele>
        <time>2015-07-23T13:51:24Z</time>
      </trkpt>
      <trkpt lat="42.56632" lon="1.98272">
        <ele>2160.7</ele>
        <time>2015-07-23T13:51:32Z</time>
      </trkpt>
      <trkpt lat="42.56624" lon="1.98275">
        <ele>2159.74</ele>
        <time>2015-07-23T13:51:42Z</time>
      </trkpt>
      <trkpt lat="42.56614" lon="1.98275">
        <ele>2158.3</ele>
        <time>2015-07-23T13:51:54Z</time>
      </trkpt>
      <trkpt lat="42.56604" lon="1.98279">
        <ele>2158.3</ele>
        <time>2015-07-23T13:52:05Z</time>
      </trkpt>
      <trkpt lat="42.56591" lon="1.98281">
        <ele>2157.82</ele>
        <time>2015-07-23T13:52:16Z</time>
      </trkpt>
      <trkpt lat="42.56582" lon="1.98294">
        <ele>2157.34</ele>
        <time>2015-07-23T13:52:27Z</time>
      </trkpt>
      <trkpt lat="42.56573" lon="1.98295">
        <ele>2157.34</ele>
        <time>2015-07-23T13:52:34Z</time>
      </trkpt>
      <trkpt lat="42.56567" lon="1.983">
        <ele>2157.34</ele>
        <time>2015-07-23T13:52:40Z</time>
      </trkpt>
      <trkpt lat="42.56563" lon="1.98303">
        <ele>2156.86</ele>
        <time>2015-07-23T13:52:44Z</time>
      </trkpt>
      <trkpt lat="42.56563" lon="1.98305">
        <ele>2156.86</ele>
        <time>2015-07-23T13:52:46Z</time>
      </trkpt>
      <trkpt lat="42.56557" lon="1.98312">
        <ele>2157.34</ele>
        <time>2015-07-23T13:52:57Z</time>
      </trkpt>
      <trkpt lat="42.56557" lon="1.98313">
        <ele>2157.34</ele>
        <time>2015-07-23T13:52:58Z</time>
      </trkpt>
      <trkpt lat="42.56544" lon="1.98321">
        <ele>2156.86</ele>
        <time>2015-07-23T13:53:12Z</time>
      </trkpt>
      <trkpt lat="42.56544" lon="1.98322">
        <ele>2155.89</ele>
        <time>2015-07-23T13:53:18Z</time>
      </trkpt>
      <trkpt lat="42.56535" lon="1.98337">
        <ele>2155.89</ele>
        <time>2015-07-23T13:53:32Z</time>
      </trkpt>
      <trkpt lat="42.56529" lon="1.98347">
        <ele>2156.37</ele>
        <time>2015-07-23T13:53:44Z</time>
      </trkpt>
      <trkpt lat="42.56524" lon="1.98356">
        <ele>2155.41</ele>
        <time>2015-07-23T13:53:54Z</time>
      </trkpt>
      <trkpt lat="42.56524" lon="1.98359">
        <ele>2154.93</ele>
        <time>2015-07-23T13:53:56Z</time>
      </trkpt>
      <trkpt lat="42.56523" lon="1.9837">
        <ele>2155.41</ele>
        <time>2015-07-23T13:54:03Z</time>
      </trkpt>
      <trkpt lat="42.56513" lon="1.98378">
        <ele>2155.41</ele>
        <time>2015-07-23T13:54:13Z</time>
      </trkpt>
      <trkpt lat="42.56508" lon="1.98384">
        <ele>2155.41</ele>
        <time>2015-07-23T13:54:19Z</time>
      </trkpt>
      <trkpt lat="42.56505" lon="1.98387">
        <ele>2155.89</ele>
        <time>2015-07-23T13:54:23Z</time>
      </trkpt>
      <trkpt lat="42.56501" lon="1.98393">
        <ele>2156.86</ele>
        <time>2015-07-23T13:54:30Z</time>
      </trkpt>
      <trkpt lat="42.565" lon="1.98399">
        <ele>2155.89</ele>
        <time>2015-07-23T13:54:34Z</time>
      </trkpt>
      <trkpt lat="42.56491" lon="1.98412">
        <ele>2156.37</ele>
        <time>2015-07-23T13:54:45Z</time>
      </trkpt>
      <trkpt lat="42.56484" lon="1.9842">
        <ele>2156.86</ele>
        <time>2015-07-23T13:54:52Z</time>
      </trkpt>
      <trkpt lat="42.5648" lon="1.98425">
        <ele>2157.34</ele>
        <time>2015-07-23T13:54:58Z</time>
      </trkpt>
      <trkpt lat="42.56474" lon="1.98444">
        <ele>2157.34</ele>
        <time>2015-07-23T13:55:11Z</time>
      </trkpt>
      <trkpt lat="42.56472" lon="1.98452">
        <ele>2156.86</ele>
        <time>2015-07-23T13:55:18Z</time>
      </trkpt>
      <trkpt lat="42.5647" lon="1.98456">
        <ele>2156.86</ele>
        <time>2015-07-23T13:55:21Z</time>
      </trkpt>
      <trkpt lat="42.56465" lon="1.98463">
        <ele>2156.37</ele>
        <time>2015-07-23T13:55:30Z</time>
      </trkpt>
      <trkpt lat="42.56462" lon="1.98477">
        <ele>2156.37</ele>
        <time>2015-07-23T13:55:45Z</time>
      </trkpt>
      <trkpt lat="42.56466" lon="1.98492">
        <ele>2156.86</ele>
        <time>2015-07-23T13:55:49Z</time>
      </trkpt>
      <trkpt lat="42.56464" lon="1.98496">
        <ele>2156.86</ele>
        <time>2015-07-23T13:55:52Z</time>
      </trkpt>
      <trkpt lat="42.56462" lon="1.98501">
        <ele>2156.86</ele>
        <time>2015-07-23T13:55:56Z</time>
      </trkpt>
      <trkpt lat="42.56452" lon="1.98507">
        <ele>2157.34</ele>
        <time>2015-07-23T13:56:08Z</time>
      </trkpt>
      <trkpt lat="42.56443" lon="1.98521">
        <ele>2156.86</ele>
        <time>2015-07-23T13:56:22Z</time>
      </trkpt>
      <trkpt lat="42.56439" lon="1.98527">
        <ele>2156.86</ele>
        <time>2015-07-23T13:56:35Z</time>
      </trkpt>
      <trkpt lat="42.56438" lon="1.98536">
        <ele>2155.41</ele>
        <time>2015-07-23T13:56:45Z</time>
      </trkpt>
      <trkpt lat="42.56433" lon="1.98546">
        <ele>2153.97</ele>
        <time>2015-07-23T13:56:55Z</time>
      </trkpt>
      <trkpt lat="42.56424" lon="1.98555">
        <ele>2152.53</ele>
        <time>2015-07-23T13:57:07Z</time>
      </trkpt>
      <trkpt lat="42.56421" lon="1.98558">
        <ele>2152.05</ele>
        <time>2015-07-23T13:57:11Z</time>
      </trkpt>
      <trkpt lat="42.56413" lon="1.98575">
        <ele>2151.57</ele>
        <time>2015-07-23T13:57:24Z</time>
      </trkpt>
      <trkpt lat="42.56406" lon="1.98584">
        <ele>2151.09</ele>
        <time>2015-07-23T13:57:32Z</time>
      </trkpt>
      <trkpt lat="42.56398" lon="1.98588">
        <ele>2151.57</ele>
        <time>2015-07-23T13:57:41Z</time>
      </trkpt>
      <trkpt lat="42.56396" lon="1.98592">
        <ele>2151.09</ele>
        <time>2015-07-23T13:57:46Z</time>
      </trkpt>
      <trkpt lat="42.56383" lon="1.98601">
        <ele>2150.61</ele>
        <time>2015-07-23T13:57:59Z</time>
      </trkpt>
      <trkpt lat="42.56382" lon="1.98602">
        <ele>2150.13</ele>
        <time>2015-07-23T13:58:05Z</time>
      </trkpt>
      <trkpt lat="42.56372" lon="1.9861">
        <ele>2147.72</ele>
        <time>2015-07-23T13:58:17Z</time>
      </trkpt>
      <trkpt lat="42.56367" lon="1.98619">
        <ele>2146.76</ele>
        <time>2015-07-23T13:58:25Z</time>
      </trkpt>
      <trkpt lat="42.5636" lon="1.98623">
        <ele>2144.36</ele>
        <time>2015-07-23T13:58:36Z</time>
      </trkpt>
      <trkpt lat="42.56349" lon="1.98634">
        <ele>2143.88</ele>
        <time>2015-07-23T13:58:47Z</time>
      </trkpt>
      <trkpt lat="42.56346" lon="1.98635">
        <ele>2143.4</ele>
        <time>2015-07-23T13:58:50Z</time>
      </trkpt>
      <trkpt lat="42.5634" lon="1.98646">
        <ele>2142.44</ele>
        <time>2015-07-23T13:59:03Z</time>
      </trkpt>
      <trkpt lat="42.56339" lon="1.98654">
        <ele>2141.95</ele>
        <time>2015-07-23T13:59:13Z</time>
      </trkpt>
      <trkpt lat="42.56337" lon="1.98661">
        <ele>2140.51</ele>
        <time>2015-07-23T13:59:24Z</time>
      </trkpt>
      <trkpt lat="42.56334" lon="1.98668">
        <ele>2138.11</ele>
        <time>2015-07-23T13:59:35Z</time>
      </trkpt>
      <trkpt lat="42.56332" lon="1.98673">
        <ele>2135.71</ele>
        <time>2015-07-23T13:59:48Z</time>
      </trkpt>
      <trkpt lat="42.56326" lon="1.98681">
        <ele>2135.23</ele>
        <time>2015-07-23T13:59:58Z</time>
      </trkpt>
      <trkpt lat="42.56325" lon="1.98682">
        <ele>2134.26</ele>
        <time>2015-07-23T14:00:10Z</time>
      </trkpt>
      <trkpt lat="42.56324" lon="1.98686">
        <ele>2132.82</ele>
        <time>2015-07-23T14:00:18Z</time>
      </trkpt>
      <trkpt lat="42.56322" lon="1.98689">
        <ele>2132.34</ele>
        <time>2015-07-23T14:00:22Z</time>
      </trkpt>
      <trkpt lat="42.56314" lon="1.98702">
        <ele>2131.38</ele>
        <time>2015-07-23T14:00:33Z</time>
      </trkpt>
      <trkpt lat="42.56309" lon="1.98708">
        <ele>2131.38</ele>
        <time>2015-07-23T14:00:39Z</time>
      </trkpt>
      <trkpt lat="42.56298" lon="1.98718">
        <ele>2130.9</ele>
        <time>2015-07-23T14:00:49Z</time>
      </trkpt>
      <trkpt lat="42.56292" lon="1.98723">
        <ele>2130.42</ele>
        <time>2015-07-23T14:00:56Z</time>
      </trkpt>
      <trkpt lat="42.56282" lon="1.9873">
        <ele>2129.94</ele>
        <time>2015-07-23T14:01:02Z</time>
      </trkpt>
      <trkpt lat="42.56273" lon="1.98738">
        <ele>2128.02</ele>
        <time>2015-07-23T14:01:13Z</time>
      </trkpt>
      <trkpt lat="42.56268" lon="1.98742">
        <ele>2126.57</ele>
        <time>2015-07-23T14:01:22Z</time>
      </trkpt>
      <trkpt lat="42.56267" lon="1.98747">
        <ele>2125.61</ele>
        <time>2015-07-23T14:01:27Z</time>
      </trkpt>
      <trkpt lat="42.56268" lon="1.98754">
        <ele>2125.13</ele>
        <time>2015-07-23T14:01:36Z</time>
      </trkpt>
      <trkpt lat="42.56264" lon="1.98763">
        <ele>2122.73</ele>
        <time>2015-07-23T14:01:47Z</time>
      </trkpt>
      <trkpt lat="42.56263" lon="1.9877">
        <ele>2121.29</ele>
        <time>2015-07-23T14:01:58Z</time>
      </trkpt>
      <trkpt lat="42.56261" lon="1.98773">
        <ele>2120.32</ele>
        <time>2015-07-23T14:02:05Z</time>
      </trkpt>
      <trkpt lat="42.56254" lon="1.98781">
        <ele>2118.88</ele>
        <time>2015-07-23T14:02:14Z</time>
      </trkpt>
      <trkpt lat="42.56244" lon="1.98793">
        <ele>2117.44</ele>
        <time>2015-07-23T14:02:25Z</time>
      </trkpt>
      <trkpt lat="42.56235" lon="1.988">
        <ele>2117.44</ele>
        <time>2015-07-23T14:02:37Z</time>
      </trkpt>
      <trkpt lat="42.56226" lon="1.98807">
        <ele>2117.44</ele>
        <time>2015-07-23T14:02:48Z</time>
      </trkpt>
      <trkpt lat="42.56213" lon="1.98813">
        <ele>2117.44</ele>
        <time>2015-07-23T14:03:00Z</time>
      </trkpt>
      <trkpt lat="42.56207" lon="1.98818">
        <ele>2117.44</ele>
        <time>2015-07-23T14:03:10Z</time>
      </trkpt>
      <trkpt lat="42.56204" lon="1.98821">
        <ele>2117.44</ele>
        <time>2015-07-23T14:03:15Z</time>
      </trkpt>
      <trkpt lat="42.56197" lon="1.98829">
        <ele>2116.48</ele>
        <time>2015-07-23T14:03:27Z</time>
      </trkpt>
      <trkpt lat="42.56197" lon="1.98833">
        <ele>2115.04</ele>
        <time>2015-07-23T14:03:39Z</time>
      </trkpt>
      <trkpt lat="42.56196" lon="1.98837">
        <ele>2115.52</ele>
        <time>2015-07-23T14:03:51Z</time>
      </trkpt>
      <trkpt lat="42.56195" lon="1.98841">
        <ele>2114.56</ele>
        <time>2015-07-23T14:04:03Z</time>
      </trkpt>
      <trkpt lat="42.56191" lon="1.98847">
        <ele>2114.56</ele>
        <time>2015-07-23T14:04:15Z</time>
      </trkpt>
      <trkpt lat="42.56183" lon="1.98851">
        <ele>2113.6</ele>
        <time>2015-07-23T14:04:26Z</time>
      </trkpt>
      <trkpt lat="42.56179" lon="1.98858">
        <ele>2112.63</ele>
        <time>2015-07-23T14:04:36Z</time>
      </trkpt>
      <trkpt lat="42.56175" lon="1.98869">
        <ele>2111.67</ele>
        <time>2015-07-23T14:04:46Z</time>
      </trkpt>
      <trkpt lat="42.56172" lon="1.98875">
        <ele>2109.75</ele>
        <time>2015-07-23T14:04:58Z</time>
      </trkpt>
      <trkpt lat="42.56169" lon="1.98882">
        <ele>2108.79</ele>
        <time>2015-07-23T14:05:02Z</time>
      </trkpt>
      <trkpt lat="42.56162" lon="1.98885">
        <ele>2107.35</ele>
        <time>2015-07-23T14:05:11Z</time>
      </trkpt>
      <trkpt lat="42.56159" lon="1.98886">
        <ele>2106.87</ele>
        <time>2015-07-23T14:05:14Z</time>
      </trkpt>
      <trkpt lat="42.56157" lon="1.98888">
        <ele>2106.87</ele>
        <time>2015-07-23T14:05:16Z</time>
      </trkpt>
      <trkpt lat="42.56153" lon="1.989">
        <ele>2105.91</ele>
        <time>2015-07-23T14:05:26Z</time>
      </trkpt>
      <trkpt lat="42.56141" lon="1.98912">
        <ele>2105.42</ele>
        <time>2015-07-23T14:05:38Z</time>
      </trkpt>
      <trkpt lat="42.56138" lon="1.98917">
        <ele>2104.94</ele>
        <time>2015-07-23T14:05:42Z</time>
      </trkpt>
      <trkpt lat="42.56131" lon="1.98929">
        <ele>2104.94</ele>
        <time>2015-07-23T14:05:56Z</time>
      </trkpt>
      <trkpt lat="42.56126" lon="1.98936">
        <ele>2103.98</ele>
        <time>2015-07-23T14:06:08Z</time>
      </trkpt>
      <trkpt lat="42.56121" lon="1.98951">
        <ele>2102.54</ele>
        <time>2015-07-23T14:06:19Z</time>
      </trkpt>
      <trkpt lat="42.56115" lon="1.98956">
        <ele>2102.54</ele>
        <time>2015-07-23T14:06:29Z</time>
      </trkpt>
      <trkpt lat="42.56112" lon="1.98959">
        <ele>2102.54</ele>
        <time>2015-07-23T14:06:34Z</time>
      </trkpt>
      <trkpt lat="42.5611" lon="1.98965">
        <ele>2101.58</ele>
        <time>2015-07-23T14:06:41Z</time>
      </trkpt>
      <trkpt lat="42.56106" lon="1.98971">
        <ele>2099.18</ele>
        <time>2015-07-23T14:06:48Z</time>
      </trkpt>
      <trkpt lat="42.56106" lon="1.98978">
        <ele>2100.62</ele>
        <time>2015-07-23T14:06:57Z</time>
      </trkpt>
      <trkpt lat="42.56106" lon="1.98979">
        <ele>2100.62</ele>
        <time>2015-07-23T14:06:59Z</time>
      </trkpt>
      <trkpt lat="42.56105" lon="1.9898">
        <ele>2100.62</ele>
        <time>2015-07-23T14:07:01Z</time>
      </trkpt>
      <trkpt lat="42.56099" lon="1.98985">
        <ele>2101.1</ele>
        <time>2015-07-23T14:07:09Z</time>
      </trkpt>
      <trkpt lat="42.56096" lon="1.98996">
        <ele>2101.1</ele>
        <time>2015-07-23T14:07:18Z</time>
      </trkpt>
      <trkpt lat="42.56085" lon="1.99012">
        <ele>2100.62</ele>
        <time>2015-07-23T14:07:30Z</time>
      </trkpt>
      <trkpt lat="42.56071" lon="1.99023">
        <ele>2100.62</ele>
        <time>2015-07-23T14:07:43Z</time>
      </trkpt>
      <trkpt lat="42.56067" lon="1.9903">
        <ele>2100.62</ele>
        <time>2015-07-23T14:07:53Z</time>
      </trkpt>
      <trkpt lat="42.56061" lon="1.9904">
        <ele>2100.14</ele>
        <time>2015-07-23T14:08:02Z</time>
      </trkpt>
      <trkpt lat="42.56057" lon="1.9904">
        <ele>2099.66</ele>
        <time>2015-07-23T14:08:10Z</time>
      </trkpt>
      <trkpt lat="42.56056" lon="1.99043">
        <ele>2101.1</ele>
        <time>2015-07-23T14:08:12Z</time>
      </trkpt>
      <trkpt lat="42.5604" lon="1.99056">
        <ele>2099.18</ele>
        <time>2015-07-23T14:08:23Z</time>
      </trkpt>
      <trkpt lat="42.56027" lon="1.99067">
        <ele>2098.7</ele>
        <time>2015-07-23T14:08:35Z</time>
      </trkpt>
      <trkpt lat="42.56024" lon="1.99076">
        <ele>2100.14</ele>
        <time>2015-07-23T14:08:47Z</time>
      </trkpt>
      <trkpt lat="42.56023" lon="1.99083">
        <ele>2100.62</ele>
        <time>2015-07-23T14:08:59Z</time>
      </trkpt>
      <trkpt lat="42.56023" lon="1.99092">
        <ele>2099.18</ele>
        <time>2015-07-23T14:09:09Z</time>
      </trkpt>
      <trkpt lat="42.56022" lon="1.99104">
        <ele>2097.73</ele>
        <time>2015-07-23T14:09:22Z</time>
      </trkpt>
      <trkpt lat="42.56019" lon="1.99112">
        <ele>2095.33</ele>
        <time>2015-07-23T14:09:32Z</time>
      </trkpt>
      <trkpt lat="42.56017" lon="1.99117">
        <ele>2094.37</ele>
        <time>2015-07-23T14:09:38Z</time>
      </trkpt>
      <trkpt lat="42.56014" lon="1.99119">
        <ele>2093.89</ele>
        <time>2015-07-23T14:09:41Z</time>
      </trkpt>
      <trkpt lat="42.56013" lon="1.99124">
        <ele>2092.93</ele>
        <time>2015-07-23T14:09:46Z</time>
      </trkpt>
      <trkpt lat="42.56012" lon="1.99125">
        <ele>2092.93</ele>
        <time>2015-07-23T14:09:48Z</time>
      </trkpt>
      <trkpt lat="42.5601" lon="1.99139">
        <ele>2091</ele>
        <time>2015-07-23T14:09:58Z</time>
      </trkpt>
      <trkpt lat="42.56004" lon="1.99159">
        <ele>2089.08</ele>
        <time>2015-07-23T14:10:10Z</time>
      </trkpt>
      <trkpt lat="42.56003" lon="1.9917">
        <ele>2089.08</ele>
        <time>2015-07-23T14:10:22Z</time>
      </trkpt>
      <trkpt lat="42.56003" lon="1.99182">
        <ele>2088.6</ele>
        <time>2015-07-23T14:10:33Z</time>
      </trkpt>
      <trkpt lat="42.55999" lon="1.99195">
        <ele>2089.08</ele>
        <time>2015-07-23T14:10:42Z</time>
      </trkpt>
      <trkpt lat="42.55997" lon="1.99205">
        <ele>2088.6</ele>
        <time>2015-07-23T14:10:53Z</time>
      </trkpt>
      <trkpt lat="42.55994" lon="1.99224">
        <ele>2088.6</ele>
        <time>2015-07-23T14:11:05Z</time>
      </trkpt>
      <trkpt lat="42.5599" lon="1.99228">
        <ele>2087.64</ele>
        <time>2015-07-23T14:11:12Z</time>
      </trkpt>
      <trkpt lat="42.55985" lon="1.9924">
        <ele>2089.56</ele>
        <time>2015-07-23T14:11:25Z</time>
      </trkpt>
      <trkpt lat="42.55987" lon="1.9925">
        <ele>2089.08</ele>
        <time>2015-07-23T14:11:36Z</time>
      </trkpt>
      <trkpt lat="42.55988" lon="1.99261">
        <ele>2088.12</ele>
        <time>2015-07-23T14:11:48Z</time>
      </trkpt>
      <trkpt lat="42.55988" lon="1.99264">
        <ele>2087.64</ele>
        <time>2015-07-23T14:11:50Z</time>
      </trkpt>
      <trkpt lat="42.55989" lon="1.99277">
        <ele>2088.6</ele>
        <time>2015-07-23T14:12:04Z</time>
      </trkpt>
      <trkpt lat="42.5599" lon="1.99286">
        <ele>2088.6</ele>
        <time>2015-07-23T14:12:15Z</time>
      </trkpt>
      <trkpt lat="42.5599" lon="1.99302">
        <ele>2088.6</ele>
        <time>2015-07-23T14:12:26Z</time>
      </trkpt>
      <trkpt lat="42.55992" lon="1.99311">
        <ele>2088.12</ele>
        <time>2015-07-23T14:12:37Z</time>
      </trkpt>
      <trkpt lat="42.55997" lon="1.99332">
        <ele>2087.64</ele>
        <time>2015-07-23T14:12:52Z</time>
      </trkpt>
      <trkpt lat="42.55997" lon="1.99346">
        <ele>2088.6</ele>
        <time>2015-07-23T14:13:02Z</time>
      </trkpt>
      <trkpt lat="42.55997" lon="1.99353">
        <ele>2089.08</ele>
        <time>2015-07-23T14:13:08Z</time>
      </trkpt>
      <trkpt lat="42.55998" lon="1.99363">
        <ele>2089.56</ele>
        <time>2015-07-23T14:13:19Z</time>
      </trkpt>
      <trkpt lat="42.55997" lon="1.99373">
        <ele>2086.2</ele>
        <time>2015-07-23T14:13:34Z</time>
      </trkpt>
      <trkpt lat="42.55998" lon="1.99375">
        <ele>2086.2</ele>
        <time>2015-07-23T14:13:47Z</time>
      </trkpt>
      <trkpt lat="42.56" lon="1.99382">
        <ele>2085.24</ele>
        <time>2015-07-23T14:14:05Z</time>
      </trkpt>
      <trkpt lat="42.55999" lon="1.99385">
        <ele>2085.24</ele>
        <time>2015-07-23T14:14:07Z</time>
      </trkpt>
      <trkpt lat="42.56" lon="1.9939">
        <ele>2083.79</ele>
        <time>2015-07-23T14:14:17Z</time>
      </trkpt>
      <trkpt lat="42.56" lon="1.99391">
        <ele>2083.79</ele>
        <time>2015-07-23T14:14:19Z</time>
      </trkpt>
      <trkpt lat="42.56007" lon="1.99399">
        <ele>2084.28</ele>
        <time>2015-07-23T14:14:30Z</time>
      </trkpt>
      <trkpt lat="42.56008" lon="1.99401">
        <ele>2084.28</ele>
        <time>2015-07-23T14:14:49Z</time>
      </trkpt>
      <trkpt lat="42.5601" lon="1.99401">
        <ele>2083.79</ele>
        <time>2015-07-23T14:15:03Z</time>
      </trkpt>
      <trkpt lat="42.5601" lon="1.99403">
        <ele>2083.31</ele>
        <time>2015-07-23T14:15:21Z</time>
      </trkpt>
      <trkpt lat="42.56012" lon="1.99408">
        <ele>2081.39</ele>
        <time>2015-07-23T14:15:33Z</time>
      </trkpt>
      <trkpt lat="42.56014" lon="1.99413">
        <ele>2079.95</ele>
        <time>2015-07-23T14:15:38Z</time>
      </trkpt>
      <trkpt lat="42.56022" lon="1.99423">
        <ele>2078.03</ele>
        <time>2015-07-23T14:15:52Z</time>
      </trkpt>
      <trkpt lat="42.56026" lon="1.9943">
        <ele>2076.59</ele>
        <time>2015-07-23T14:16:05Z</time>
      </trkpt>
      <trkpt lat="42.56027" lon="1.99432">
        <ele>2076.1</ele>
        <time>2015-07-23T14:16:19Z</time>
      </trkpt>
      <trkpt lat="42.56028" lon="1.99438">
        <ele>2073.7</ele>
        <time>2015-07-23T14:16:30Z</time>
      </trkpt>
      <trkpt lat="42.56028" lon="1.99444">
        <ele>2071.78</ele>
        <time>2015-07-23T14:16:43Z</time>
      </trkpt>
      <trkpt lat="42.56027" lon="1.99448">
        <ele>2070.34</ele>
        <time>2015-07-23T14:16:58Z</time>
      </trkpt>
      <trkpt lat="42.56026" lon="1.99453">
        <ele>2068.41</ele>
        <time>2015-07-23T14:17:03Z</time>
      </trkpt>
      <trkpt lat="42.56024" lon="1.99458">
        <ele>2067.45</ele>
        <time>2015-07-23T14:17:08Z</time>
      </trkpt>
      <trkpt lat="42.56021" lon="1.99473">
        <ele>2066.01</ele>
        <time>2015-07-23T14:17:18Z</time>
      </trkpt>
      <trkpt lat="42.5602" lon="1.9948">
        <ele>2065.05</ele>
        <time>2015-07-23T14:17:23Z</time>
      </trkpt>
      <trkpt lat="42.56023" lon="1.99482">
        <ele>2065.53</ele>
        <time>2015-07-23T14:17:26Z</time>
      </trkpt>
      <trkpt lat="42.56025" lon="1.99496">
        <ele>2065.05</ele>
        <time>2015-07-23T14:17:39Z</time>
      </trkpt>
      <trkpt lat="42.56025" lon="1.99497">
        <ele>2065.05</ele>
        <time>2015-07-23T14:17:40Z</time>
      </trkpt>
      <trkpt lat="42.5602" lon="1.9951">
        <ele>2062.65</ele>
        <time>2015-07-23T14:17:52Z</time>
      </trkpt>
      <trkpt lat="42.56018" lon="1.99523">
        <ele>2061.2</ele>
        <time>2015-07-23T14:18:05Z</time>
      </trkpt>
      <trkpt lat="42.56016" lon="1.9953">
        <ele>2060.24</ele>
        <time>2015-07-23T14:18:10Z</time>
      </trkpt>
      <trkpt lat="42.56012" lon="1.99531">
        <ele>2059.28</ele>
        <time>2015-07-23T14:18:16Z</time>
      </trkpt>
      <trkpt lat="42.56011" lon="1.99537">
        <ele>2058.8</ele>
        <time>2015-07-23T14:18:22Z</time>
      </trkpt>
      <trkpt lat="42.56011" lon="1.99542">
        <ele>2058.32</ele>
        <time>2015-07-23T14:18:26Z</time>
      </trkpt>
      <trkpt lat="42.56009" lon="1.99554">
        <ele>2057.84</ele>
        <time>2015-07-23T14:18:34Z</time>
      </trkpt>
      <trkpt lat="42.56006" lon="1.99563">
        <ele>2056.88</ele>
        <time>2015-07-23T14:18:47Z</time>
      </trkpt>
      <trkpt lat="42.56003" lon="1.99568">
        <ele>2056.4</ele>
        <time>2015-07-23T14:18:54Z</time>
      </trkpt>
      <trkpt lat="42.56002" lon="1.99578">
        <ele>2054.96</ele>
        <time>2015-07-23T14:19:03Z</time>
      </trkpt>
      <trkpt lat="42.56001" lon="1.9958">
        <ele>2054.96</ele>
        <time>2015-07-23T14:19:05Z</time>
      </trkpt>
      <trkpt lat="42.55997" lon="1.99596">
        <ele>2053.51</ele>
        <time>2015-07-23T14:19:16Z</time>
      </trkpt>
      <trkpt lat="42.55998" lon="1.99604">
        <ele>2052.55</ele>
        <time>2015-07-23T14:19:23Z</time>
      </trkpt>
      <trkpt lat="42.55997" lon="1.9962">
        <ele>2052.07</ele>
        <time>2015-07-23T14:19:34Z</time>
      </trkpt>
      <trkpt lat="42.55997" lon="1.99628">
        <ele>2051.59</ele>
        <time>2015-07-23T14:19:40Z</time>
      </trkpt>
      <trkpt lat="42.55997" lon="1.99631">
        <ele>2051.59</ele>
        <time>2015-07-23T14:19:42Z</time>
      </trkpt>
      <trkpt lat="42.55994" lon="1.99637">
        <ele>2051.11</ele>
        <time>2015-07-23T14:19:47Z</time>
      </trkpt>
      <trkpt lat="42.55989" lon="1.99654">
        <ele>2050.15</ele>
        <time>2015-07-23T14:19:59Z</time>
      </trkpt>
      <trkpt lat="42.55984" lon="1.99665">
        <ele>2049.19</ele>
        <time>2015-07-23T14:20:12Z</time>
      </trkpt>
      <trkpt lat="42.55979" lon="1.99675">
        <ele>2049.67</ele>
        <time>2015-07-23T14:20:22Z</time>
      </trkpt>
      <trkpt lat="42.55978" lon="1.99682">
        <ele>2048.71</ele>
        <time>2015-07-23T14:20:26Z</time>
      </trkpt>
      <trkpt lat="42.55977" lon="1.99688">
        <ele>2049.19</ele>
        <time>2015-07-23T14:20:30Z</time>
      </trkpt>
      <trkpt lat="42.55978" lon="1.99695">
        <ele>2049.19</ele>
        <time>2015-07-23T14:20:35Z</time>
      </trkpt>
      <trkpt lat="42.55978" lon="1.99708">
        <ele>2048.23</ele>
        <time>2015-07-23T14:20:46Z</time>
      </trkpt>
      <trkpt lat="42.55981" lon="1.99722">
        <ele>2048.23</ele>
        <time>2015-07-23T14:20:57Z</time>
      </trkpt>
      <trkpt lat="42.55984" lon="1.99727">
        <ele>2047.75</ele>
        <time>2015-07-23T14:21:01Z</time>
      </trkpt>
      <trkpt lat="42.56" lon="1.99733">
        <ele>2046.78</ele>
        <time>2015-07-23T14:21:13Z</time>
      </trkpt>
      <trkpt lat="42.56019" lon="1.99739">
        <ele>2046.3</ele>
        <time>2015-07-23T14:21:27Z</time>
      </trkpt>
      <trkpt lat="42.56032" lon="1.9975">
        <ele>2044.38</ele>
        <time>2015-07-23T14:21:41Z</time>
      </trkpt>
      <trkpt lat="42.56032" lon="1.9975">
        <ele>2044.38</ele>
        <time>2015-07-23T14:21:44Z</time>
      </trkpt>
      <trkpt lat="42.56038" lon="1.99744">
        <ele>2046.78</ele>
        <time>2015-07-23T14:21:56Z</time>
      </trkpt>
      <trkpt lat="42.56044" lon="1.99735">
        <ele>2049.67</ele>
        <time>2015-07-23T14:22:08Z</time>
      </trkpt>
      <trkpt lat="42.56045" lon="1.99732">
        <ele>2051.11</ele>
        <time>2015-07-23T14:22:17Z</time>
      </trkpt>
      <trkpt lat="42.5604" lon="1.99722">
        <ele>2052.07</ele>
        <time>2015-07-23T14:22:27Z</time>
      </trkpt>
      <trkpt lat="42.56037" lon="1.99713">
        <ele>2051.59</ele>
        <time>2015-07-23T14:22:39Z</time>
      </trkpt>
      <trkpt lat="42.56035" lon="1.99704">
        <ele>2053.51</ele>
        <time>2015-07-23T14:22:54Z</time>
      </trkpt>
      <trkpt lat="42.56034" lon="1.99691">
        <ele>2053.99</ele>
        <time>2015-07-23T14:23:06Z</time>
      </trkpt>
      <trkpt lat="42.56035" lon="1.99688">
        <ele>2054.47</ele>
        <time>2015-07-23T14:23:22Z</time>
      </trkpt>
      <trkpt lat="42.56035" lon="1.99695">
        <ele>2053.99</ele>
        <time>2015-07-23T14:23:37Z</time>
      </trkpt>
      <trkpt lat="42.56036" lon="1.99701">
        <ele>2054.47</ele>
        <time>2015-07-23T14:23:49Z</time>
      </trkpt>
      <trkpt lat="42.56036" lon="1.99703">
        <ele>2053.51</ele>
        <time>2015-07-23T14:24:11Z</time>
      </trkpt>
      <trkpt lat="42.56037" lon="1.99703">
        <ele>2053.51</ele>
        <time>2015-07-23T14:24:26Z</time>
      </trkpt>
      <trkpt lat="42.5604" lon="1.99704">
        <ele>2053.51</ele>
        <time>2015-07-23T14:24:39Z</time>
      </trkpt>
      <trkpt lat="42.5604" lon="1.99704">
        <ele>2053.51</ele>
        <time>2015-07-23T14:24:54Z</time>
      </trkpt>
      <trkpt lat="42.56041" lon="1.9971">
        <ele>2053.51</ele>
        <time>2015-07-23T14:25:00Z</time>
      </trkpt>
      <trkpt lat="42.56044" lon="1.99714">
        <ele>2052.07</ele>
        <time>2015-07-23T14:25:13Z</time>
      </trkpt>
      <trkpt lat="42.56049" lon="1.99717">
        <ele>2052.55</ele>
        <time>2015-07-23T14:25:22Z</time>
      </trkpt>
      <trkpt lat="42.56049" lon="1.99717">
        <ele>2052.07</ele>
        <time>2015-07-23T14:25:39Z</time>
      </trkpt>
      <trkpt lat="42.56048" lon="1.99719">
        <ele>2052.55</ele>
        <time>2015-07-23T14:25:51Z</time>
      </trkpt>
      <trkpt lat="42.56048" lon="1.99719">
        <ele>2052.07</ele>
        <time>2015-07-23T14:26:16Z</time>
      </trkpt>
      <trkpt lat="42.56048" lon="1.99718">
        <ele>2052.07</ele>
        <time>2015-07-23T14:26:44Z</time>
      </trkpt>
      <trkpt lat="42.56048" lon="1.99718">
        <ele>2051.11</ele>
        <time>2015-07-23T14:27:11Z</time>
      </trkpt>
      <trkpt lat="42.56048" lon="1.99717">
        <ele>2051.11</ele>
        <time>2015-07-23T14:27:47Z</time>
      </trkpt>
      <trkpt lat="42.56047" lon="1.99717">
        <ele>2052.07</ele>
        <time>2015-07-23T14:28:17Z</time>
      </trkpt>
      <trkpt lat="42.56048" lon="1.99717">
        <ele>2052.07</ele>
        <time>2015-07-23T14:28:42Z</time>
      </trkpt>
      <trkpt lat="42.56048" lon="1.99718">
        <ele>2051.11</ele>
        <time>2015-07-23T14:29:11Z</time>
      </trkpt>
      <trkpt lat="42.56049" lon="1.99716">
        <ele>2051.11</ele>
        <time>2015-07-23T14:29:42Z</time>
      </trkpt>
      <trkpt lat="42.56049" lon="1.99716">
        <ele>2050.63</ele>
        <time>2015-07-23T14:30:19Z</time>
      </trkpt>
      <trkpt lat="42.56048" lon="1.99716">
        <ele>2050.63</ele>
        <time>2015-07-23T14:30:48Z</time>
      </trkpt>
      <trkpt lat="42.56048" lon="1.99716">
        <ele>2049.67</ele>
        <time>2015-07-23T14:31:17Z</time>
      </trkpt>
      <trkpt lat="42.56047" lon="1.99717">
        <ele>2049.67</ele>
        <time>2015-07-23T14:31:51Z</time>
      </trkpt>
      <trkpt lat="42.56047" lon="1.99717">
        <ele>2049.67</ele>
        <time>2015-07-23T14:32:23Z</time>
      </trkpt>
      <trkpt lat="42.56047" lon="1.99717">
        <ele>2049.19</ele>
        <time>2015-07-23T14:32:47Z</time>
      </trkpt>
      <trkpt lat="42.56048" lon="1.99716">
        <ele>2048.71</ele>
        <time>2015-07-23T14:33:22Z</time>
      </trkpt>
      <trkpt lat="42.56048" lon="1.99717">
        <ele>2048.71</ele>
        <time>2015-07-23T14:33:54Z</time>
      </trkpt>
      <trkpt lat="42.56048" lon="1.99717">
        <ele>2048.23</ele>
        <time>2015-07-23T14:34:28Z</time>
      </trkpt>
    </trkseg>
  </trk>
</gpx>